<?xml version="1.0" encoding="UTF-8" standalone="no" ?>
<gpx xmlns="http://www.topografix.com/GPX/1/1" xmlns:xsi="http://www.w3.org/2001/XMLSchema-instance" xsi:schemaLocation="http://www.topografix.com/GPX/1/1 http://www.topografix.com/GPX/1/1/gpx.xsd" version="1.1" creator="VisuGPX - https://www.visugpx.com">
  <metadata>
    <name>lundi 2015 12 14</name>
    <desc><![CDATA[rando du lundi]]></desc>
  </metadata>
  <trk>
    <name><![CDATA[lundi 2015 12 14]]></name>
    <trkseg>
      <trkpt lat="48.85734" lon="2.34735">
        <ele>40.400001525879</ele>
        <time>2015-12-14T19:21:13.000Z</time>
      </trkpt>
      <trkpt lat="48.85747" lon="2.34743">
        <ele>40.400001525879</ele>
        <time>2015-12-14T19:21:32.000Z</time>
      </trkpt>
      <trkpt lat="48.85763" lon="2.3473">
        <ele>39.799999237061</ele>
        <time>2015-12-14T19:21:39.000Z</time>
      </trkpt>
      <trkpt lat="48.85779" lon="2.34721">
        <ele>39.599998474121</ele>
        <time>2015-12-14T19:21:45.000Z</time>
      </trkpt>
      <trkpt lat="48.85798" lon="2.34726">
        <ele>41.400001525879</ele>
        <time>2015-12-14T19:21:52.000Z</time>
      </trkpt>
      <trkpt lat="48.85819" lon="2.34727">
        <ele>43.200000762939</ele>
        <time>2015-12-14T19:21:58.000Z</time>
      </trkpt>
      <trkpt lat="48.85839" lon="2.34726">
        <ele>45.200000762939</ele>
        <time>2015-12-14T19:22:05.000Z</time>
      </trkpt>
      <trkpt lat="48.85858" lon="2.34728">
        <ele>47.400001525879</ele>
        <time>2015-12-14T19:22:14.000Z</time>
      </trkpt>
      <trkpt lat="48.85876" lon="2.34719">
        <ele>47</ele>
        <time>2015-12-14T19:22:21.000Z</time>
      </trkpt>
      <trkpt lat="48.85888" lon="2.34696">
        <ele>47</ele>
        <time>2015-12-14T19:22:30.000Z</time>
      </trkpt>
      <trkpt lat="48.85896" lon="2.34668">
        <ele>48</ele>
        <time>2015-12-14T19:22:37.000Z</time>
      </trkpt>
      <trkpt lat="48.85907" lon="2.34642">
        <ele>48.200000762939</ele>
        <time>2015-12-14T19:22:44.000Z</time>
      </trkpt>
      <trkpt lat="48.85916" lon="2.34613">
        <ele>49.400001525879</ele>
        <time>2015-12-14T19:22:51.000Z</time>
      </trkpt>
      <trkpt lat="48.85924" lon="2.34584">
        <ele>50.799999237061</ele>
        <time>2015-12-14T19:22:57.000Z</time>
      </trkpt>
      <trkpt lat="48.85934" lon="2.34555">
        <ele>50.799999237061</ele>
        <time>2015-12-14T19:23:02.000Z</time>
      </trkpt>
      <trkpt lat="48.85939" lon="2.34527">
        <ele>51</ele>
        <time>2015-12-14T19:23:07.000Z</time>
      </trkpt>
      <trkpt lat="48.85946" lon="2.34497">
        <ele>51.200000762939</ele>
        <time>2015-12-14T19:23:12.000Z</time>
      </trkpt>
      <trkpt lat="48.85967" lon="2.34469">
        <ele>52</ele>
        <time>2015-12-14T19:23:16.000Z</time>
      </trkpt>
      <trkpt lat="48.85979" lon="2.34448">
        <ele>52.599998474121</ele>
        <time>2015-12-14T19:23:19.000Z</time>
      </trkpt>
      <trkpt lat="48.85988" lon="2.34418">
        <ele>53.200000762939</ele>
        <time>2015-12-14T19:23:23.000Z</time>
      </trkpt>
      <trkpt lat="48.85998" lon="2.34395">
        <ele>53.599998474121</ele>
        <time>2015-12-14T19:23:27.000Z</time>
      </trkpt>
      <trkpt lat="48.86005" lon="2.34373">
        <ele>53.599998474121</ele>
        <time>2015-12-14T19:23:30.000Z</time>
      </trkpt>
      <trkpt lat="48.86009" lon="2.34343">
        <ele>53.200000762939</ele>
        <time>2015-12-14T19:23:34.000Z</time>
      </trkpt>
      <trkpt lat="48.86016" lon="2.34309">
        <ele>52.200000762939</ele>
        <time>2015-12-14T19:23:38.000Z</time>
      </trkpt>
      <trkpt lat="48.86025" lon="2.34277">
        <ele>49.799999237061</ele>
        <time>2015-12-14T19:23:42.000Z</time>
      </trkpt>
      <trkpt lat="48.86034" lon="2.34246">
        <ele>48.200000762939</ele>
        <time>2015-12-14T19:23:46.000Z</time>
      </trkpt>
      <trkpt lat="48.86042" lon="2.34216">
        <ele>48.200000762939</ele>
        <time>2015-12-14T19:23:50.000Z</time>
      </trkpt>
      <trkpt lat="48.86054" lon="2.34187">
        <ele>48.200000762939</ele>
        <time>2015-12-14T19:23:54.000Z</time>
      </trkpt>
      <trkpt lat="48.86064" lon="2.3416">
        <ele>48</ele>
        <time>2015-12-14T19:23:58.000Z</time>
      </trkpt>
      <trkpt lat="48.8607" lon="2.34147">
        <ele>48</ele>
        <time>2015-12-14T19:24:00.000Z</time>
      </trkpt>
      <trkpt lat="48.86074" lon="2.34116">
        <ele>47.599998474121</ele>
        <time>2015-12-14T19:24:04.000Z</time>
      </trkpt>
      <trkpt lat="48.86078" lon="2.34088">
        <ele>46.799999237061</ele>
        <time>2015-12-14T19:24:08.000Z</time>
      </trkpt>
      <trkpt lat="48.86086" lon="2.34059">
        <ele>44.599998474121</ele>
        <time>2015-12-14T19:24:12.000Z</time>
      </trkpt>
      <trkpt lat="48.86096" lon="2.34029">
        <ele>45.799999237061</ele>
        <time>2015-12-14T19:24:16.000Z</time>
      </trkpt>
      <trkpt lat="48.86105" lon="2.33999">
        <ele>47</ele>
        <time>2015-12-14T19:24:20.000Z</time>
      </trkpt>
      <trkpt lat="48.86116" lon="2.33971">
        <ele>48.599998474121</ele>
        <time>2015-12-14T19:24:24.000Z</time>
      </trkpt>
      <trkpt lat="48.86125" lon="2.33946">
        <ele>50</ele>
        <time>2015-12-14T19:24:28.000Z</time>
      </trkpt>
      <trkpt lat="48.86133" lon="2.33927">
        <ele>49.599998474121</ele>
        <time>2015-12-14T19:24:31.000Z</time>
      </trkpt>
      <trkpt lat="48.86143" lon="2.33903">
        <ele>48.599998474121</ele>
        <time>2015-12-14T19:24:35.000Z</time>
      </trkpt>
      <trkpt lat="48.86145" lon="2.33897">
        <ele>48.599998474121</ele>
        <time>2015-12-14T19:24:36.000Z</time>
      </trkpt>
      <trkpt lat="48.86155" lon="2.3387">
        <ele>48.200000762939</ele>
        <time>2015-12-14T19:24:40.000Z</time>
      </trkpt>
      <trkpt lat="48.86164" lon="2.33844">
        <ele>46.400001525879</ele>
        <time>2015-12-14T19:24:44.000Z</time>
      </trkpt>
      <trkpt lat="48.86174" lon="2.33816">
        <ele>44.200000762939</ele>
        <time>2015-12-14T19:24:48.000Z</time>
      </trkpt>
      <trkpt lat="48.86185" lon="2.33789">
        <ele>45</ele>
        <time>2015-12-14T19:24:52.000Z</time>
      </trkpt>
      <trkpt lat="48.86199" lon="2.33763">
        <ele>46.400001525879</ele>
        <time>2015-12-14T19:24:56.000Z</time>
      </trkpt>
      <trkpt lat="48.86211" lon="2.3374">
        <ele>47.200000762939</ele>
        <time>2015-12-14T19:25:00.000Z</time>
      </trkpt>
      <trkpt lat="48.86225" lon="2.33718">
        <ele>48</ele>
        <time>2015-12-14T19:25:04.000Z</time>
      </trkpt>
      <trkpt lat="48.86238" lon="2.33693">
        <ele>48.400001525879</ele>
        <time>2015-12-14T19:25:08.000Z</time>
      </trkpt>
      <trkpt lat="48.86241" lon="2.33687">
        <ele>48.200000762939</ele>
        <time>2015-12-14T19:25:09.000Z</time>
      </trkpt>
      <trkpt lat="48.86245" lon="2.33652">
        <ele>48.200000762939</ele>
        <time>2015-12-14T19:25:14.000Z</time>
      </trkpt>
      <trkpt lat="48.86244" lon="2.33637">
        <ele>48</ele>
        <time>2015-12-14T19:25:16.000Z</time>
      </trkpt>
      <trkpt lat="48.8625" lon="2.3361">
        <ele>48.200000762939</ele>
        <time>2015-12-14T19:25:20.000Z</time>
      </trkpt>
      <trkpt lat="48.86257" lon="2.33578">
        <ele>48.200000762939</ele>
        <time>2015-12-14T19:25:25.000Z</time>
      </trkpt>
      <trkpt lat="48.86264" lon="2.33553">
        <ele>46.599998474121</ele>
        <time>2015-12-14T19:25:29.000Z</time>
      </trkpt>
      <trkpt lat="48.86274" lon="2.33522">
        <ele>45.200000762939</ele>
        <time>2015-12-14T19:25:34.000Z</time>
      </trkpt>
      <trkpt lat="48.86281" lon="2.33495">
        <ele>44.400001525879</ele>
        <time>2015-12-14T19:25:38.000Z</time>
      </trkpt>
      <trkpt lat="48.86284" lon="2.33489">
        <ele>44.400001525879</ele>
        <time>2015-12-14T19:25:39.000Z</time>
      </trkpt>
      <trkpt lat="48.86294" lon="2.33459">
        <ele>44.599998474121</ele>
        <time>2015-12-14T19:25:44.000Z</time>
      </trkpt>
      <trkpt lat="48.86305" lon="2.33431">
        <ele>45.400001525879</ele>
        <time>2015-12-14T19:25:48.000Z</time>
      </trkpt>
      <trkpt lat="48.86312" lon="2.33404">
        <ele>47</ele>
        <time>2015-12-14T19:25:52.000Z</time>
      </trkpt>
      <trkpt lat="48.86314" lon="2.33392">
        <ele>47.599998474121</ele>
        <time>2015-12-14T19:25:54.000Z</time>
      </trkpt>
      <trkpt lat="48.86319" lon="2.33385">
        <ele>48.200000762939</ele>
        <time>2015-12-14T19:25:56.000Z</time>
      </trkpt>
      <trkpt lat="48.86339" lon="2.33392">
        <ele>49.599998474121</ele>
        <time>2015-12-14T19:26:01.000Z</time>
      </trkpt>
      <trkpt lat="48.86345" lon="2.33396">
        <ele>50</ele>
        <time>2015-12-14T19:26:03.000Z</time>
      </trkpt>
      <trkpt lat="48.8636" lon="2.334">
        <ele>50.400001525879</ele>
        <time>2015-12-14T19:26:08.000Z</time>
      </trkpt>
      <trkpt lat="48.86366" lon="2.33405">
        <ele>50.599998474121</ele>
        <time>2015-12-14T19:26:12.000Z</time>
      </trkpt>
      <trkpt lat="48.86384" lon="2.33412">
        <ele>50.599998474121</ele>
        <time>2015-12-14T19:26:18.000Z</time>
      </trkpt>
      <trkpt lat="48.86401" lon="2.33419">
        <ele>50.400001525879</ele>
        <time>2015-12-14T19:26:22.000Z</time>
      </trkpt>
      <trkpt lat="48.86412" lon="2.33419">
        <ele>50.400001525879</ele>
        <time>2015-12-14T19:26:27.000Z</time>
      </trkpt>
      <trkpt lat="48.86432" lon="2.33411">
        <ele>50</ele>
        <time>2015-12-14T19:26:34.000Z</time>
      </trkpt>
      <trkpt lat="48.86453" lon="2.33399">
        <ele>49.400001525879</ele>
        <time>2015-12-14T19:26:38.000Z</time>
      </trkpt>
      <trkpt lat="48.86472" lon="2.33394">
        <ele>49.200000762939</ele>
        <time>2015-12-14T19:26:42.000Z</time>
      </trkpt>
      <trkpt lat="48.86492" lon="2.33388">
        <ele>48.799999237061</ele>
        <time>2015-12-14T19:26:47.000Z</time>
      </trkpt>
      <trkpt lat="48.8651" lon="2.33379">
        <ele>48.599998474121</ele>
        <time>2015-12-14T19:26:52.000Z</time>
      </trkpt>
      <trkpt lat="48.8653" lon="2.33373">
        <ele>48.400001525879</ele>
        <time>2015-12-14T19:26:56.000Z</time>
      </trkpt>
      <trkpt lat="48.86548" lon="2.33363">
        <ele>48</ele>
        <time>2015-12-14T19:27:02.000Z</time>
      </trkpt>
      <trkpt lat="48.8655" lon="2.33355">
        <ele>48</ele>
        <time>2015-12-14T19:27:07.000Z</time>
      </trkpt>
      <trkpt lat="48.86559" lon="2.33353">
        <ele>47.599998474121</ele>
        <time>2015-12-14T19:27:55.000Z</time>
      </trkpt>
      <trkpt lat="48.86577" lon="2.33347">
        <ele>47</ele>
        <time>2015-12-14T19:28:02.000Z</time>
      </trkpt>
      <trkpt lat="48.86597" lon="2.33335">
        <ele>46.400001525879</ele>
        <time>2015-12-14T19:28:10.000Z</time>
      </trkpt>
      <trkpt lat="48.86614" lon="2.33326">
        <ele>46.200000762939</ele>
        <time>2015-12-14T19:28:16.000Z</time>
      </trkpt>
      <trkpt lat="48.86633" lon="2.33325">
        <ele>46.799999237061</ele>
        <time>2015-12-14T19:28:23.000Z</time>
      </trkpt>
      <trkpt lat="48.86656" lon="2.33334">
        <ele>47.799999237061</ele>
        <time>2015-12-14T19:28:29.000Z</time>
      </trkpt>
      <trkpt lat="48.86676" lon="2.33344">
        <ele>48.599998474121</ele>
        <time>2015-12-14T19:28:34.000Z</time>
      </trkpt>
      <trkpt lat="48.86694" lon="2.33351">
        <ele>49.200000762939</ele>
        <time>2015-12-14T19:28:40.000Z</time>
      </trkpt>
      <trkpt lat="48.86699" lon="2.33349">
        <ele>49.200000762939</ele>
        <time>2015-12-14T19:28:41.000Z</time>
      </trkpt>
      <trkpt lat="48.86713" lon="2.33331">
        <ele>49</ele>
        <time>2015-12-14T19:28:46.000Z</time>
      </trkpt>
      <trkpt lat="48.86731" lon="2.33316">
        <ele>48.599998474121</ele>
        <time>2015-12-14T19:28:51.000Z</time>
      </trkpt>
      <trkpt lat="48.86742" lon="2.33295">
        <ele>48.200000762939</ele>
        <time>2015-12-14T19:28:56.000Z</time>
      </trkpt>
      <trkpt lat="48.86731" lon="2.33265">
        <ele>47.400001525879</ele>
        <time>2015-12-14T19:29:02.000Z</time>
      </trkpt>
      <trkpt lat="48.86737" lon="2.33237">
        <ele>46.799999237061</ele>
        <time>2015-12-14T19:29:08.000Z</time>
      </trkpt>
      <trkpt lat="48.86741" lon="2.33226">
        <ele>46.799999237061</ele>
        <time>2015-12-14T19:29:12.000Z</time>
      </trkpt>
      <trkpt lat="48.8676" lon="2.33233">
        <ele>46.799999237061</ele>
        <time>2015-12-14T19:29:23.000Z</time>
      </trkpt>
      <trkpt lat="48.86766" lon="2.33228">
        <ele>47</ele>
        <time>2015-12-14T19:29:28.000Z</time>
      </trkpt>
      <trkpt lat="48.86775" lon="2.33219">
        <ele>47</ele>
        <time>2015-12-14T19:29:36.000Z</time>
      </trkpt>
      <trkpt lat="48.8678" lon="2.3322">
        <ele>47.200000762939</ele>
        <time>2015-12-14T19:30:29.000Z</time>
      </trkpt>
      <trkpt lat="48.86791" lon="2.33211">
        <ele>47.599998474121</ele>
        <time>2015-12-14T19:30:59.000Z</time>
      </trkpt>
      <trkpt lat="48.868" lon="2.33184">
        <ele>48</ele>
        <time>2015-12-14T19:31:10.000Z</time>
      </trkpt>
      <trkpt lat="48.86809" lon="2.33157">
        <ele>48.400001525879</ele>
        <time>2015-12-14T19:31:16.000Z</time>
      </trkpt>
      <trkpt lat="48.86818" lon="2.33128">
        <ele>49.400001525879</ele>
        <time>2015-12-14T19:31:22.000Z</time>
      </trkpt>
      <trkpt lat="48.86827" lon="2.33103">
        <ele>50</ele>
        <time>2015-12-14T19:31:26.000Z</time>
      </trkpt>
      <trkpt lat="48.86829" lon="2.33096">
        <ele>50.200000762939</ele>
        <time>2015-12-14T19:31:27.000Z</time>
      </trkpt>
      <trkpt lat="48.86835" lon="2.33074">
        <ele>50</ele>
        <time>2015-12-14T19:31:30.000Z</time>
      </trkpt>
      <trkpt lat="48.86838" lon="2.33038">
        <ele>47.799999237061</ele>
        <time>2015-12-14T19:31:35.000Z</time>
      </trkpt>
      <trkpt lat="48.86848" lon="2.3301">
        <ele>46.400001525879</ele>
        <time>2015-12-14T19:31:40.000Z</time>
      </trkpt>
      <trkpt lat="48.86862" lon="2.3299">
        <ele>46.400001525879</ele>
        <time>2015-12-14T19:31:44.000Z</time>
      </trkpt>
      <trkpt lat="48.86875" lon="2.32968">
        <ele>47.200000762939</ele>
        <time>2015-12-14T19:31:48.000Z</time>
      </trkpt>
      <trkpt lat="48.8689" lon="2.3295">
        <ele>48</ele>
        <time>2015-12-14T19:31:51.000Z</time>
      </trkpt>
      <trkpt lat="48.86906" lon="2.32945">
        <ele>48.799999237061</ele>
        <time>2015-12-14T19:31:58.000Z</time>
      </trkpt>
      <trkpt lat="48.86917" lon="2.32952">
        <ele>49.400001525879</ele>
        <time>2015-12-14T19:32:01.000Z</time>
      </trkpt>
      <trkpt lat="48.86936" lon="2.32969">
        <ele>50.400001525879</ele>
        <time>2015-12-14T19:32:06.000Z</time>
      </trkpt>
      <trkpt lat="48.86952" lon="2.32987">
        <ele>50.799999237061</ele>
        <time>2015-12-14T19:32:11.000Z</time>
      </trkpt>
      <trkpt lat="48.86969" lon="2.33008">
        <ele>50.799999237061</ele>
        <time>2015-12-14T19:32:18.000Z</time>
      </trkpt>
      <trkpt lat="48.86989" lon="2.33013">
        <ele>50.599998474121</ele>
        <time>2015-12-14T19:32:24.000Z</time>
      </trkpt>
      <trkpt lat="48.8701" lon="2.33012">
        <ele>50.400001525879</ele>
        <time>2015-12-14T19:32:29.000Z</time>
      </trkpt>
      <trkpt lat="48.87025" lon="2.33009">
        <ele>50.200000762939</ele>
        <time>2015-12-14T19:32:37.000Z</time>
      </trkpt>
      <trkpt lat="48.87031" lon="2.33024">
        <ele>50.400001525879</ele>
        <time>2015-12-14T19:33:00.000Z</time>
      </trkpt>
      <trkpt lat="48.8704" lon="2.33052">
        <ele>50.599998474121</ele>
        <time>2015-12-14T19:33:05.000Z</time>
      </trkpt>
      <trkpt lat="48.87048" lon="2.33083">
        <ele>51</ele>
        <time>2015-12-14T19:33:10.000Z</time>
      </trkpt>
      <trkpt lat="48.87055" lon="2.33108">
        <ele>50.400001525879</ele>
        <time>2015-12-14T19:33:15.000Z</time>
      </trkpt>
      <trkpt lat="48.87059" lon="2.33135">
        <ele>49.400001525879</ele>
        <time>2015-12-14T19:33:20.000Z</time>
      </trkpt>
      <trkpt lat="48.87066" lon="2.33164">
        <ele>48.599998474121</ele>
        <time>2015-12-14T19:33:26.000Z</time>
      </trkpt>
      <trkpt lat="48.87071" lon="2.33192">
        <ele>48.200000762939</ele>
        <time>2015-12-14T19:33:32.000Z</time>
      </trkpt>
      <trkpt lat="48.87076" lon="2.3322">
        <ele>48</ele>
        <time>2015-12-14T19:33:40.000Z</time>
      </trkpt>
      <trkpt lat="48.8708" lon="2.33228">
        <ele>48</ele>
        <time>2015-12-14T19:33:43.000Z</time>
      </trkpt>
      <trkpt lat="48.871" lon="2.33225">
        <ele>48.200000762939</ele>
        <time>2015-12-14T19:33:49.000Z</time>
      </trkpt>
      <trkpt lat="48.87106" lon="2.33221">
        <ele>48.400001525879</ele>
        <time>2015-12-14T19:33:51.000Z</time>
      </trkpt>
      <trkpt lat="48.87122" lon="2.33209">
        <ele>48.599998474121</ele>
        <time>2015-12-14T19:33:59.000Z</time>
      </trkpt>
      <trkpt lat="48.87124" lon="2.33208">
        <ele>48.599998474121</ele>
        <time>2015-12-14T19:34:24.000Z</time>
      </trkpt>
      <trkpt lat="48.87118" lon="2.33193">
        <ele>48.799999237061</ele>
        <time>2015-12-14T19:35:36.000Z</time>
      </trkpt>
      <trkpt lat="48.87122" lon="2.33197">
        <ele>48.799999237061</ele>
        <time>2015-12-14T19:36:43.000Z</time>
      </trkpt>
      <trkpt lat="48.87121" lon="2.33197">
        <ele>48.799999237061</ele>
        <time>2015-12-14T19:36:44.000Z</time>
      </trkpt>
      <trkpt lat="48.87118" lon="2.33197">
        <ele>48.799999237061</ele>
        <time>2015-12-14T19:37:29.000Z</time>
      </trkpt>
      <trkpt lat="48.87136" lon="2.33198">
        <ele>49</ele>
        <time>2015-12-14T19:38:14.000Z</time>
      </trkpt>
      <trkpt lat="48.87129" lon="2.33213">
        <ele>48.599998474121</ele>
        <time>2015-12-14T19:38:57.000Z</time>
      </trkpt>
      <trkpt lat="48.87144" lon="2.3323">
        <ele>48.599998474121</ele>
        <time>2015-12-14T19:39:04.000Z</time>
      </trkpt>
      <trkpt lat="48.87162" lon="2.33239">
        <ele>48.799999237061</ele>
        <time>2015-12-14T19:39:10.000Z</time>
      </trkpt>
      <trkpt lat="48.87181" lon="2.33241">
        <ele>49</ele>
        <time>2015-12-14T19:39:19.000Z</time>
      </trkpt>
      <trkpt lat="48.872" lon="2.33232">
        <ele>50.400001525879</ele>
        <time>2015-12-14T19:39:23.000Z</time>
      </trkpt>
      <trkpt lat="48.87218" lon="2.33224">
        <ele>51.400001525879</ele>
        <time>2015-12-14T19:39:26.000Z</time>
      </trkpt>
      <trkpt lat="48.87239" lon="2.33214">
        <ele>52.599998474121</ele>
        <time>2015-12-14T19:39:30.000Z</time>
      </trkpt>
      <trkpt lat="48.87261" lon="2.33208">
        <ele>51.200000762939</ele>
        <time>2015-12-14T19:39:33.000Z</time>
      </trkpt>
      <trkpt lat="48.87285" lon="2.33202">
        <ele>50.400001525879</ele>
        <time>2015-12-14T19:39:36.000Z</time>
      </trkpt>
      <trkpt lat="48.87287" lon="2.33195">
        <ele>50.200000762939</ele>
        <time>2015-12-14T19:39:37.000Z</time>
      </trkpt>
      <trkpt lat="48.87295" lon="2.33162">
        <ele>49.799999237061</ele>
        <time>2015-12-14T19:39:41.000Z</time>
      </trkpt>
      <trkpt lat="48.87305" lon="2.33146">
        <ele>48.400001525879</ele>
        <time>2015-12-14T19:39:44.000Z</time>
      </trkpt>
      <trkpt lat="48.87311" lon="2.33135">
        <ele>47.599998474121</ele>
        <time>2015-12-14T19:39:48.000Z</time>
      </trkpt>
      <trkpt lat="48.87312" lon="2.33135">
        <ele>47.599998474121</ele>
        <time>2015-12-14T19:39:50.000Z</time>
      </trkpt>
      <trkpt lat="48.87324" lon="2.33115">
        <ele>46.400001525879</ele>
        <time>2015-12-14T19:40:04.000Z</time>
      </trkpt>
      <trkpt lat="48.87343" lon="2.33115">
        <ele>47.200000762939</ele>
        <time>2015-12-14T19:40:09.000Z</time>
      </trkpt>
      <trkpt lat="48.87364" lon="2.33116">
        <ele>47.799999237061</ele>
        <time>2015-12-14T19:40:14.000Z</time>
      </trkpt>
      <trkpt lat="48.87383" lon="2.33115">
        <ele>48.200000762939</ele>
        <time>2015-12-14T19:40:18.000Z</time>
      </trkpt>
      <trkpt lat="48.87401" lon="2.33115">
        <ele>48.599998474121</ele>
        <time>2015-12-14T19:40:22.000Z</time>
      </trkpt>
      <trkpt lat="48.87419" lon="2.33117">
        <ele>49</ele>
        <time>2015-12-14T19:40:26.000Z</time>
      </trkpt>
      <trkpt lat="48.87442" lon="2.33117">
        <ele>49</ele>
        <time>2015-12-14T19:40:30.000Z</time>
      </trkpt>
      <trkpt lat="48.87462" lon="2.33117">
        <ele>47.799999237061</ele>
        <time>2015-12-14T19:40:34.000Z</time>
      </trkpt>
      <trkpt lat="48.87466" lon="2.33116">
        <ele>47.599998474121</ele>
        <time>2015-12-14T19:40:35.000Z</time>
      </trkpt>
      <trkpt lat="48.87477" lon="2.33114">
        <ele>47</ele>
        <time>2015-12-14T19:40:39.000Z</time>
      </trkpt>
      <trkpt lat="48.8748" lon="2.33112">
        <ele>46.799999237061</ele>
        <time>2015-12-14T19:40:43.000Z</time>
      </trkpt>
      <trkpt lat="48.87472" lon="2.33085">
        <ele>46.599998474121</ele>
        <time>2015-12-14T19:40:49.000Z</time>
      </trkpt>
      <trkpt lat="48.87462" lon="2.33057">
        <ele>46.200000762939</ele>
        <time>2015-12-14T19:40:55.000Z</time>
      </trkpt>
      <trkpt lat="48.8746" lon="2.33039">
        <ele>45.799999237061</ele>
        <time>2015-12-14T19:40:58.000Z</time>
      </trkpt>
      <trkpt lat="48.87465" lon="2.33006">
        <ele>44.799999237061</ele>
        <time>2015-12-14T19:41:03.000Z</time>
      </trkpt>
      <trkpt lat="48.87471" lon="2.32978">
        <ele>46.599998474121</ele>
        <time>2015-12-14T19:41:07.000Z</time>
      </trkpt>
      <trkpt lat="48.87474" lon="2.32951">
        <ele>49.599998474121</ele>
        <time>2015-12-14T19:41:11.000Z</time>
      </trkpt>
      <trkpt lat="48.87474" lon="2.32921">
        <ele>50</ele>
        <time>2015-12-14T19:41:16.000Z</time>
      </trkpt>
      <trkpt lat="48.87472" lon="2.32893">
        <ele>49.200000762939</ele>
        <time>2015-12-14T19:41:21.000Z</time>
      </trkpt>
      <trkpt lat="48.87466" lon="2.32865">
        <ele>48.599998474121</ele>
        <time>2015-12-14T19:41:28.000Z</time>
      </trkpt>
      <trkpt lat="48.8745" lon="2.32855">
        <ele>50</ele>
        <time>2015-12-14T19:41:36.000Z</time>
      </trkpt>
      <trkpt lat="48.87436" lon="2.32851">
        <ele>51</ele>
        <time>2015-12-14T19:41:42.000Z</time>
      </trkpt>
      <trkpt lat="48.87438" lon="2.32836">
        <ele>50.200000762939</ele>
        <time>2015-12-14T19:41:50.000Z</time>
      </trkpt>
      <trkpt lat="48.87433" lon="2.32798">
        <ele>49.599998474121</ele>
        <time>2015-12-14T19:41:56.000Z</time>
      </trkpt>
      <trkpt lat="48.8743" lon="2.32767">
        <ele>49.200000762939</ele>
        <time>2015-12-14T19:42:02.000Z</time>
      </trkpt>
      <trkpt lat="48.87426" lon="2.32738">
        <ele>48.799999237061</ele>
        <time>2015-12-14T19:42:08.000Z</time>
      </trkpt>
      <trkpt lat="48.87425" lon="2.32718">
        <ele>48.400001525879</ele>
        <time>2015-12-14T19:42:15.000Z</time>
      </trkpt>
      <trkpt lat="48.87428" lon="2.32712">
        <ele>48</ele>
        <time>2015-12-14T19:42:22.000Z</time>
      </trkpt>
      <trkpt lat="48.87419" lon="2.32695">
        <ele>47.599998474121</ele>
        <time>2015-12-14T19:42:29.000Z</time>
      </trkpt>
      <trkpt lat="48.8742" lon="2.32666">
        <ele>46.599998474121</ele>
        <time>2015-12-14T19:42:34.000Z</time>
      </trkpt>
      <trkpt lat="48.87421" lon="2.32638">
        <ele>46.799999237061</ele>
        <time>2015-12-14T19:42:38.000Z</time>
      </trkpt>
      <trkpt lat="48.87424" lon="2.32609">
        <ele>46.200000762939</ele>
        <time>2015-12-14T19:42:42.000Z</time>
      </trkpt>
      <trkpt lat="48.87437" lon="2.32585">
        <ele>45.200000762939</ele>
        <time>2015-12-14T19:42:46.000Z</time>
      </trkpt>
      <trkpt lat="48.87452" lon="2.32565">
        <ele>44.200000762939</ele>
        <time>2015-12-14T19:42:50.000Z</time>
      </trkpt>
      <trkpt lat="48.87466" lon="2.32544">
        <ele>43.400001525879</ele>
        <time>2015-12-14T19:42:54.000Z</time>
      </trkpt>
      <trkpt lat="48.8748" lon="2.32524">
        <ele>42.799999237061</ele>
        <time>2015-12-14T19:42:58.000Z</time>
      </trkpt>
      <trkpt lat="48.87487" lon="2.32495">
        <ele>42.599998474121</ele>
        <time>2015-12-14T19:43:03.000Z</time>
      </trkpt>
      <trkpt lat="48.87494" lon="2.32483">
        <ele>42.799999237061</ele>
        <time>2015-12-14T19:43:06.000Z</time>
      </trkpt>
      <trkpt lat="48.87501" lon="2.32469">
        <ele>43</ele>
        <time>2015-12-14T19:43:10.000Z</time>
      </trkpt>
      <trkpt lat="48.87512" lon="2.32441">
        <ele>43</ele>
        <time>2015-12-14T19:43:18.000Z</time>
      </trkpt>
      <trkpt lat="48.87525" lon="2.3242">
        <ele>43</ele>
        <time>2015-12-14T19:43:24.000Z</time>
      </trkpt>
      <trkpt lat="48.8754" lon="2.32404">
        <ele>42</ele>
        <time>2015-12-14T19:43:32.000Z</time>
      </trkpt>
      <trkpt lat="48.8755" lon="2.32381">
        <ele>41.799999237061</ele>
        <time>2015-12-14T19:43:45.000Z</time>
      </trkpt>
      <trkpt lat="48.87563" lon="2.32358">
        <ele>42</ele>
        <time>2015-12-14T19:43:50.000Z</time>
      </trkpt>
      <trkpt lat="48.87577" lon="2.3234">
        <ele>43</ele>
        <time>2015-12-14T19:43:54.000Z</time>
      </trkpt>
      <trkpt lat="48.8759" lon="2.32316">
        <ele>43.799999237061</ele>
        <time>2015-12-14T19:43:59.000Z</time>
      </trkpt>
      <trkpt lat="48.87597" lon="2.32286">
        <ele>45.599998474121</ele>
        <time>2015-12-14T19:44:07.000Z</time>
      </trkpt>
      <trkpt lat="48.87608" lon="2.32264">
        <ele>47</ele>
        <time>2015-12-14T19:44:13.000Z</time>
      </trkpt>
      <trkpt lat="48.87624" lon="2.32244">
        <ele>48.400001525879</ele>
        <time>2015-12-14T19:44:18.000Z</time>
      </trkpt>
      <trkpt lat="48.87635" lon="2.32229">
        <ele>48.400001525879</ele>
        <time>2015-12-14T19:44:22.000Z</time>
      </trkpt>
      <trkpt lat="48.87644" lon="2.32216">
        <ele>48.599998474121</ele>
        <time>2015-12-14T19:44:26.000Z</time>
      </trkpt>
      <trkpt lat="48.87658" lon="2.32198">
        <ele>49.400001525879</ele>
        <time>2015-12-14T19:44:33.000Z</time>
      </trkpt>
      <trkpt lat="48.87676" lon="2.32184">
        <ele>51.200000762939</ele>
        <time>2015-12-14T19:44:39.000Z</time>
      </trkpt>
      <trkpt lat="48.87684" lon="2.32178">
        <ele>52.200000762939</ele>
        <time>2015-12-14T19:44:42.000Z</time>
      </trkpt>
      <trkpt lat="48.8769" lon="2.32174">
        <ele>52.599998474121</ele>
        <time>2015-12-14T19:44:47.000Z</time>
      </trkpt>
      <trkpt lat="48.87703" lon="2.32155">
        <ele>54</ele>
        <time>2015-12-14T19:45:20.000Z</time>
      </trkpt>
      <trkpt lat="48.87718" lon="2.32136">
        <ele>54.799999237061</ele>
        <time>2015-12-14T19:45:25.000Z</time>
      </trkpt>
      <trkpt lat="48.87734" lon="2.3212">
        <ele>55.599998474121</ele>
        <time>2015-12-14T19:45:29.000Z</time>
      </trkpt>
      <trkpt lat="48.8775" lon="2.32098">
        <ele>56.799999237061</ele>
        <time>2015-12-14T19:45:34.000Z</time>
      </trkpt>
      <trkpt lat="48.87764" lon="2.3208">
        <ele>57.799999237061</ele>
        <time>2015-12-14T19:45:38.000Z</time>
      </trkpt>
      <trkpt lat="48.87779" lon="2.32063">
        <ele>58.400001525879</ele>
        <time>2015-12-14T19:45:42.000Z</time>
      </trkpt>
      <trkpt lat="48.87795" lon="2.32049">
        <ele>58</ele>
        <time>2015-12-14T19:45:47.000Z</time>
      </trkpt>
      <trkpt lat="48.87813" lon="2.32031">
        <ele>57.599998474121</ele>
        <time>2015-12-14T19:45:54.000Z</time>
      </trkpt>
      <trkpt lat="48.87821" lon="2.32004">
        <ele>57</ele>
        <time>2015-12-14T19:46:02.000Z</time>
      </trkpt>
      <trkpt lat="48.87826" lon="2.31973">
        <ele>57.200000762939</ele>
        <time>2015-12-14T19:46:10.000Z</time>
      </trkpt>
      <trkpt lat="48.87842" lon="2.31954">
        <ele>58</ele>
        <time>2015-12-14T19:46:17.000Z</time>
      </trkpt>
      <trkpt lat="48.87859" lon="2.31938">
        <ele>58.799999237061</ele>
        <time>2015-12-14T19:46:22.000Z</time>
      </trkpt>
      <trkpt lat="48.87875" lon="2.31922">
        <ele>60.200000762939</ele>
        <time>2015-12-14T19:46:27.000Z</time>
      </trkpt>
      <trkpt lat="48.87891" lon="2.31907">
        <ele>61.400001525879</ele>
        <time>2015-12-14T19:46:32.000Z</time>
      </trkpt>
      <trkpt lat="48.87905" lon="2.31888">
        <ele>62.599998474121</ele>
        <time>2015-12-14T19:46:37.000Z</time>
      </trkpt>
      <trkpt lat="48.8792" lon="2.31868">
        <ele>63</ele>
        <time>2015-12-14T19:46:43.000Z</time>
      </trkpt>
      <trkpt lat="48.87935" lon="2.31847">
        <ele>63.200000762939</ele>
        <time>2015-12-14T19:46:51.000Z</time>
      </trkpt>
      <trkpt lat="48.87946" lon="2.31826">
        <ele>63</ele>
        <time>2015-12-14T19:47:00.000Z</time>
      </trkpt>
      <trkpt lat="48.8796" lon="2.31816">
        <ele>63.200000762939</ele>
        <time>2015-12-14T19:47:43.000Z</time>
      </trkpt>
      <trkpt lat="48.87975" lon="2.318">
        <ele>63.200000762939</ele>
        <time>2015-12-14T19:47:49.000Z</time>
      </trkpt>
      <trkpt lat="48.8799" lon="2.31785">
        <ele>63.200000762939</ele>
        <time>2015-12-14T19:47:55.000Z</time>
      </trkpt>
      <trkpt lat="48.88008" lon="2.3177">
        <ele>63.799999237061</ele>
        <time>2015-12-14T19:48:01.000Z</time>
      </trkpt>
      <trkpt lat="48.88025" lon="2.31752">
        <ele>64.199996948242</ele>
        <time>2015-12-14T19:48:07.000Z</time>
      </trkpt>
      <trkpt lat="48.88042" lon="2.31735">
        <ele>63.799999237061</ele>
        <time>2015-12-14T19:48:14.000Z</time>
      </trkpt>
      <trkpt lat="48.8806" lon="2.3172">
        <ele>63.400001525879</ele>
        <time>2015-12-14T19:48:21.000Z</time>
      </trkpt>
      <trkpt lat="48.88069" lon="2.31709">
        <ele>63.200000762939</ele>
        <time>2015-12-14T19:48:25.000Z</time>
      </trkpt>
      <trkpt lat="48.88085" lon="2.31695">
        <ele>63.599998474121</ele>
        <time>2015-12-14T19:48:30.000Z</time>
      </trkpt>
      <trkpt lat="48.881" lon="2.3168">
        <ele>64</ele>
        <time>2015-12-14T19:48:36.000Z</time>
      </trkpt>
      <trkpt lat="48.88109" lon="2.31673">
        <ele>64</ele>
        <time>2015-12-14T19:48:41.000Z</time>
      </trkpt>
      <trkpt lat="48.8812" lon="2.31669">
        <ele>63.599998474121</ele>
        <time>2015-12-14T19:48:47.000Z</time>
      </trkpt>
      <trkpt lat="48.88121" lon="2.31668">
        <ele>63.599998474121</ele>
        <time>2015-12-14T19:48:49.000Z</time>
      </trkpt>
      <trkpt lat="48.88142" lon="2.31659">
        <ele>62.599998474121</ele>
        <time>2015-12-14T19:49:12.000Z</time>
      </trkpt>
      <trkpt lat="48.88154" lon="2.31656">
        <ele>62</ele>
        <time>2015-12-14T19:49:17.000Z</time>
      </trkpt>
      <trkpt lat="48.88159" lon="2.31638">
        <ele>61.400001525879</ele>
        <time>2015-12-14T19:49:22.000Z</time>
      </trkpt>
      <trkpt lat="48.8817" lon="2.31615">
        <ele>62</ele>
        <time>2015-12-14T19:49:30.000Z</time>
      </trkpt>
      <trkpt lat="48.88183" lon="2.31592">
        <ele>62.599998474121</ele>
        <time>2015-12-14T19:49:37.000Z</time>
      </trkpt>
      <trkpt lat="48.88198" lon="2.31573">
        <ele>62.599998474121</ele>
        <time>2015-12-14T19:49:43.000Z</time>
      </trkpt>
      <trkpt lat="48.88213" lon="2.31553">
        <ele>61.799999237061</ele>
        <time>2015-12-14T19:49:50.000Z</time>
      </trkpt>
      <trkpt lat="48.88231" lon="2.31536">
        <ele>61</ele>
        <time>2015-12-14T19:49:56.000Z</time>
      </trkpt>
      <trkpt lat="48.88247" lon="2.31521">
        <ele>60.599998474121</ele>
        <time>2015-12-14T19:50:02.000Z</time>
      </trkpt>
      <trkpt lat="48.88263" lon="2.31498">
        <ele>60.400001525879</ele>
        <time>2015-12-14T19:50:08.000Z</time>
      </trkpt>
      <trkpt lat="48.8828" lon="2.31479">
        <ele>60</ele>
        <time>2015-12-14T19:50:14.000Z</time>
      </trkpt>
      <trkpt lat="48.88296" lon="2.31459">
        <ele>60</ele>
        <time>2015-12-14T19:50:20.000Z</time>
      </trkpt>
      <trkpt lat="48.88312" lon="2.31445">
        <ele>59.599998474121</ele>
        <time>2015-12-14T19:50:25.000Z</time>
      </trkpt>
      <trkpt lat="48.88329" lon="2.3143">
        <ele>59.400001525879</ele>
        <time>2015-12-14T19:50:30.000Z</time>
      </trkpt>
      <trkpt lat="48.88345" lon="2.3141">
        <ele>59.200000762939</ele>
        <time>2015-12-14T19:50:35.000Z</time>
      </trkpt>
      <trkpt lat="48.8836" lon="2.31388">
        <ele>59</ele>
        <time>2015-12-14T19:50:41.000Z</time>
      </trkpt>
      <trkpt lat="48.88374" lon="2.31368">
        <ele>59</ele>
        <time>2015-12-14T19:50:47.000Z</time>
      </trkpt>
      <trkpt lat="48.88387" lon="2.31348">
        <ele>59</ele>
        <time>2015-12-14T19:50:52.000Z</time>
      </trkpt>
      <trkpt lat="48.88402" lon="2.31327">
        <ele>59</ele>
        <time>2015-12-14T19:50:57.000Z</time>
      </trkpt>
      <trkpt lat="48.88418" lon="2.3131">
        <ele>59.200000762939</ele>
        <time>2015-12-14T19:51:02.000Z</time>
      </trkpt>
      <trkpt lat="48.88433" lon="2.31289">
        <ele>58.599998474121</ele>
        <time>2015-12-14T19:51:07.000Z</time>
      </trkpt>
      <trkpt lat="48.88449" lon="2.31263">
        <ele>58.599998474121</ele>
        <time>2015-12-14T19:51:12.000Z</time>
      </trkpt>
      <trkpt lat="48.88463" lon="2.31242">
        <ele>57.799999237061</ele>
        <time>2015-12-14T19:51:16.000Z</time>
      </trkpt>
      <trkpt lat="48.88474" lon="2.31219">
        <ele>57.400001525879</ele>
        <time>2015-12-14T19:51:20.000Z</time>
      </trkpt>
      <trkpt lat="48.88487" lon="2.31193">
        <ele>57</ele>
        <time>2015-12-14T19:51:25.000Z</time>
      </trkpt>
      <trkpt lat="48.88495" lon="2.31178">
        <ele>56.799999237061</ele>
        <time>2015-12-14T19:51:28.000Z</time>
      </trkpt>
      <trkpt lat="48.88508" lon="2.31153">
        <ele>56.599998474121</ele>
        <time>2015-12-14T19:51:33.000Z</time>
      </trkpt>
      <trkpt lat="48.8852" lon="2.3113">
        <ele>56.200000762939</ele>
        <time>2015-12-14T19:51:38.000Z</time>
      </trkpt>
      <trkpt lat="48.88525" lon="2.31099">
        <ele>55.400001525879</ele>
        <time>2015-12-14T19:51:45.000Z</time>
      </trkpt>
      <trkpt lat="48.88528" lon="2.31075">
        <ele>55.200000762939</ele>
        <time>2015-12-14T19:51:50.000Z</time>
      </trkpt>
      <trkpt lat="48.8854" lon="2.31052">
        <ele>55.599998474121</ele>
        <time>2015-12-14T19:51:55.000Z</time>
      </trkpt>
      <trkpt lat="48.88556" lon="2.31036">
        <ele>56</ele>
        <time>2015-12-14T19:52:00.000Z</time>
      </trkpt>
      <trkpt lat="48.88567" lon="2.3101">
        <ele>55.200000762939</ele>
        <time>2015-12-14T19:52:06.000Z</time>
      </trkpt>
      <trkpt lat="48.88583" lon="2.30987">
        <ele>54.799999237061</ele>
        <time>2015-12-14T19:52:12.000Z</time>
      </trkpt>
      <trkpt lat="48.88594" lon="2.30966">
        <ele>55.400001525879</ele>
        <time>2015-12-14T19:52:21.000Z</time>
      </trkpt>
      <trkpt lat="48.88584" lon="2.30944">
        <ele>56.599998474121</ele>
        <time>2015-12-14T19:52:52.000Z</time>
      </trkpt>
      <trkpt lat="48.88576" lon="2.30916">
        <ele>58</ele>
        <time>2015-12-14T19:52:59.000Z</time>
      </trkpt>
      <trkpt lat="48.88566" lon="2.30888">
        <ele>57.599998474121</ele>
        <time>2015-12-14T19:53:05.000Z</time>
      </trkpt>
      <trkpt lat="48.88556" lon="2.30864">
        <ele>57.400001525879</ele>
        <time>2015-12-14T19:53:10.000Z</time>
      </trkpt>
      <trkpt lat="48.88545" lon="2.30835">
        <ele>57</ele>
        <time>2015-12-14T19:53:15.000Z</time>
      </trkpt>
      <trkpt lat="48.88536" lon="2.30804">
        <ele>56</ele>
        <time>2015-12-14T19:53:20.000Z</time>
      </trkpt>
      <trkpt lat="48.88526" lon="2.30774">
        <ele>55</ele>
        <time>2015-12-14T19:53:25.000Z</time>
      </trkpt>
      <trkpt lat="48.88517" lon="2.30745">
        <ele>54</ele>
        <time>2015-12-14T19:53:30.000Z</time>
      </trkpt>
      <trkpt lat="48.88512" lon="2.30712">
        <ele>54</ele>
        <time>2015-12-14T19:53:35.000Z</time>
      </trkpt>
      <trkpt lat="48.88511" lon="2.30699">
        <ele>54</ele>
        <time>2015-12-14T19:53:37.000Z</time>
      </trkpt>
      <trkpt lat="48.88509" lon="2.3067">
        <ele>54</ele>
        <time>2015-12-14T19:53:41.000Z</time>
      </trkpt>
      <trkpt lat="48.88508" lon="2.30646">
        <ele>53.799999237061</ele>
        <time>2015-12-14T19:53:44.000Z</time>
      </trkpt>
      <trkpt lat="48.88513" lon="2.30612">
        <ele>54.400001525879</ele>
        <time>2015-12-14T19:53:48.000Z</time>
      </trkpt>
      <trkpt lat="48.88517" lon="2.30576">
        <ele>54.599998474121</ele>
        <time>2015-12-14T19:53:52.000Z</time>
      </trkpt>
      <trkpt lat="48.8852" lon="2.30548">
        <ele>54.799999237061</ele>
        <time>2015-12-14T19:53:55.000Z</time>
      </trkpt>
      <trkpt lat="48.88521" lon="2.30537">
        <ele>54.799999237061</ele>
        <time>2015-12-14T19:53:56.000Z</time>
      </trkpt>
      <trkpt lat="48.88524" lon="2.30517">
        <ele>55</ele>
        <time>2015-12-14T19:53:58.000Z</time>
      </trkpt>
      <trkpt lat="48.88526" lon="2.30488">
        <ele>55.200000762939</ele>
        <time>2015-12-14T19:54:01.000Z</time>
      </trkpt>
      <trkpt lat="48.88527" lon="2.30458">
        <ele>55.599998474121</ele>
        <time>2015-12-14T19:54:04.000Z</time>
      </trkpt>
      <trkpt lat="48.88528" lon="2.30429">
        <ele>55.799999237061</ele>
        <time>2015-12-14T19:54:07.000Z</time>
      </trkpt>
      <trkpt lat="48.8853" lon="2.30401">
        <ele>55.200000762939</ele>
        <time>2015-12-14T19:54:10.000Z</time>
      </trkpt>
      <trkpt lat="48.88525" lon="2.3038">
        <ele>54.599998474121</ele>
        <time>2015-12-14T19:54:12.000Z</time>
      </trkpt>
      <trkpt lat="48.88523" lon="2.30363">
        <ele>54.200000762939</ele>
        <time>2015-12-14T19:54:14.000Z</time>
      </trkpt>
      <trkpt lat="48.88513" lon="2.3034">
        <ele>53.599998474121</ele>
        <time>2015-12-14T19:54:18.000Z</time>
      </trkpt>
      <trkpt lat="48.88497" lon="2.30327">
        <ele>53.400001525879</ele>
        <time>2015-12-14T19:54:22.000Z</time>
      </trkpt>
      <trkpt lat="48.88493" lon="2.30325">
        <ele>53.200000762939</ele>
        <time>2015-12-14T19:54:23.000Z</time>
      </trkpt>
      <trkpt lat="48.88476" lon="2.30313">
        <ele>52.599998474121</ele>
        <time>2015-12-14T19:54:28.000Z</time>
      </trkpt>
      <trkpt lat="48.88459" lon="2.30305">
        <ele>52.400001525879</ele>
        <time>2015-12-14T19:54:33.000Z</time>
      </trkpt>
      <trkpt lat="48.88456" lon="2.30304">
        <ele>52.400001525879</ele>
        <time>2015-12-14T19:54:34.000Z</time>
      </trkpt>
      <trkpt lat="48.88451" lon="2.30302">
        <ele>52.400001525879</ele>
        <time>2015-12-14T19:54:36.000Z</time>
      </trkpt>
      <trkpt lat="48.88447" lon="2.303">
        <ele>52.400001525879</ele>
        <time>2015-12-14T19:54:39.000Z</time>
      </trkpt>
      <trkpt lat="48.88445" lon="2.30298">
        <ele>52.200000762939</ele>
        <time>2015-12-14T19:54:41.000Z</time>
      </trkpt>
      <trkpt lat="48.88442" lon="2.30296">
        <ele>52</ele>
        <time>2015-12-14T19:54:43.000Z</time>
      </trkpt>
      <trkpt lat="48.88426" lon="2.30287">
        <ele>51.599998474121</ele>
        <time>2015-12-14T19:54:52.000Z</time>
      </trkpt>
      <trkpt lat="48.88407" lon="2.30277">
        <ele>51</ele>
        <time>2015-12-14T19:54:57.000Z</time>
      </trkpt>
      <trkpt lat="48.88389" lon="2.30265">
        <ele>50.200000762939</ele>
        <time>2015-12-14T19:55:01.000Z</time>
      </trkpt>
      <trkpt lat="48.88371" lon="2.30251">
        <ele>49.200000762939</ele>
        <time>2015-12-14T19:55:05.000Z</time>
      </trkpt>
      <trkpt lat="48.88351" lon="2.30234">
        <ele>49</ele>
        <time>2015-12-14T19:55:09.000Z</time>
      </trkpt>
      <trkpt lat="48.88333" lon="2.3022">
        <ele>49</ele>
        <time>2015-12-14T19:55:13.000Z</time>
      </trkpt>
      <trkpt lat="48.88313" lon="2.30205">
        <ele>49</ele>
        <time>2015-12-14T19:55:17.000Z</time>
      </trkpt>
      <trkpt lat="48.88292" lon="2.30189">
        <ele>49</ele>
        <time>2015-12-14T19:55:21.000Z</time>
      </trkpt>
      <trkpt lat="48.88271" lon="2.30176">
        <ele>49.400001525879</ele>
        <time>2015-12-14T19:55:25.000Z</time>
      </trkpt>
      <trkpt lat="48.88249" lon="2.30161">
        <ele>51</ele>
        <time>2015-12-14T19:55:29.000Z</time>
      </trkpt>
      <trkpt lat="48.88229" lon="2.30147">
        <ele>52.200000762939</ele>
        <time>2015-12-14T19:55:33.000Z</time>
      </trkpt>
      <trkpt lat="48.88207" lon="2.30133">
        <ele>53.400001525879</ele>
        <time>2015-12-14T19:55:37.000Z</time>
      </trkpt>
      <trkpt lat="48.88186" lon="2.30118">
        <ele>54.400001525879</ele>
        <time>2015-12-14T19:55:41.000Z</time>
      </trkpt>
      <trkpt lat="48.88168" lon="2.30102">
        <ele>54.400001525879</ele>
        <time>2015-12-14T19:55:45.000Z</time>
      </trkpt>
      <trkpt lat="48.88147" lon="2.30087">
        <ele>54.200000762939</ele>
        <time>2015-12-14T19:55:49.000Z</time>
      </trkpt>
      <trkpt lat="48.88125" lon="2.30076">
        <ele>54.400001525879</ele>
        <time>2015-12-14T19:55:53.000Z</time>
      </trkpt>
      <trkpt lat="48.88105" lon="2.30065">
        <ele>54.799999237061</ele>
        <time>2015-12-14T19:55:57.000Z</time>
      </trkpt>
      <trkpt lat="48.88084" lon="2.3005">
        <ele>54.599998474121</ele>
        <time>2015-12-14T19:56:01.000Z</time>
      </trkpt>
      <trkpt lat="48.88065" lon="2.30033">
        <ele>54.400001525879</ele>
        <time>2015-12-14T19:56:04.000Z</time>
      </trkpt>
      <trkpt lat="48.88048" lon="2.30014">
        <ele>54.200000762939</ele>
        <time>2015-12-14T19:56:06.000Z</time>
      </trkpt>
      <trkpt lat="48.88031" lon="2.30002">
        <ele>54</ele>
        <time>2015-12-14T19:56:08.000Z</time>
      </trkpt>
      <trkpt lat="48.88008" lon="2.29985">
        <ele>53.599998474121</ele>
        <time>2015-12-14T19:56:11.000Z</time>
      </trkpt>
      <trkpt lat="48.87988" lon="2.29969">
        <ele>53</ele>
        <time>2015-12-14T19:56:14.000Z</time>
      </trkpt>
      <trkpt lat="48.87967" lon="2.29955">
        <ele>52.400001525879</ele>
        <time>2015-12-14T19:56:17.000Z</time>
      </trkpt>
      <trkpt lat="48.87946" lon="2.2994">
        <ele>51.799999237061</ele>
        <time>2015-12-14T19:56:20.000Z</time>
      </trkpt>
      <trkpt lat="48.87927" lon="2.29927">
        <ele>51.599998474121</ele>
        <time>2015-12-14T19:56:23.000Z</time>
      </trkpt>
      <trkpt lat="48.87921" lon="2.29924">
        <ele>51.599998474121</ele>
        <time>2015-12-14T19:56:24.000Z</time>
      </trkpt>
      <trkpt lat="48.87901" lon="2.29909">
        <ele>51.799999237061</ele>
        <time>2015-12-14T19:56:28.000Z</time>
      </trkpt>
      <trkpt lat="48.87884" lon="2.29895">
        <ele>51.599998474121</ele>
        <time>2015-12-14T19:56:32.000Z</time>
      </trkpt>
      <trkpt lat="48.87866" lon="2.29879">
        <ele>51.599998474121</ele>
        <time>2015-12-14T19:56:37.000Z</time>
      </trkpt>
      <trkpt lat="48.87861" lon="2.29876">
        <ele>51.599998474121</ele>
        <time>2015-12-14T19:56:39.000Z</time>
      </trkpt>
      <trkpt lat="48.87849" lon="2.29864">
        <ele>51.200000762939</ele>
        <time>2015-12-14T19:56:45.000Z</time>
      </trkpt>
      <trkpt lat="48.87847" lon="2.29862">
        <ele>51.200000762939</ele>
        <time>2015-12-14T19:56:46.000Z</time>
      </trkpt>
      <trkpt lat="48.87851" lon="2.29833">
        <ele>50.200000762939</ele>
        <time>2015-12-14T19:57:50.000Z</time>
      </trkpt>
      <trkpt lat="48.87852" lon="2.29803">
        <ele>50.400001525879</ele>
        <time>2015-12-14T19:58:00.000Z</time>
      </trkpt>
      <trkpt lat="48.8785" lon="2.29794">
        <ele>50.599998474121</ele>
        <time>2015-12-14T19:58:03.000Z</time>
      </trkpt>
      <trkpt lat="48.87833" lon="2.2978">
        <ele>50.799999237061</ele>
        <time>2015-12-14T19:58:11.000Z</time>
      </trkpt>
      <trkpt lat="48.87829" lon="2.29778">
        <ele>51</ele>
        <time>2015-12-14T19:58:13.000Z</time>
      </trkpt>
      <trkpt lat="48.87826" lon="2.29777">
        <ele>51</ele>
        <time>2015-12-14T19:58:15.000Z</time>
      </trkpt>
      <trkpt lat="48.87816" lon="2.29778">
        <ele>51.200000762939</ele>
        <time>2015-12-14T19:58:19.000Z</time>
      </trkpt>
      <trkpt lat="48.87808" lon="2.29775">
        <ele>51.200000762939</ele>
        <time>2015-12-14T19:58:23.000Z</time>
      </trkpt>
      <trkpt lat="48.87814" lon="2.29743">
        <ele>51.400001525879</ele>
        <time>2015-12-14T19:58:29.000Z</time>
      </trkpt>
      <trkpt lat="48.8782" lon="2.29731">
        <ele>51.200000762939</ele>
        <time>2015-12-14T19:58:31.000Z</time>
      </trkpt>
      <trkpt lat="48.87823" lon="2.29723">
        <ele>51.200000762939</ele>
        <time>2015-12-14T19:58:32.000Z</time>
      </trkpt>
      <trkpt lat="48.87832" lon="2.29697">
        <ele>50.599998474121</ele>
        <time>2015-12-14T19:58:36.000Z</time>
      </trkpt>
      <trkpt lat="48.87841" lon="2.29667">
        <ele>50.200000762939</ele>
        <time>2015-12-14T19:58:40.000Z</time>
      </trkpt>
      <trkpt lat="48.8785" lon="2.29635">
        <ele>50</ele>
        <time>2015-12-14T19:58:44.000Z</time>
      </trkpt>
      <trkpt lat="48.87849" lon="2.29601">
        <ele>49.599998474121</ele>
        <time>2015-12-14T19:58:48.000Z</time>
      </trkpt>
      <trkpt lat="48.87851" lon="2.29585">
        <ele>49.400001525879</ele>
        <time>2015-12-14T19:58:51.000Z</time>
      </trkpt>
      <trkpt lat="48.8785" lon="2.29578">
        <ele>49.400001525879</ele>
        <time>2015-12-14T19:58:53.000Z</time>
      </trkpt>
      <trkpt lat="48.8787" lon="2.29575">
        <ele>48.599998474121</ele>
        <time>2015-12-14T19:59:03.000Z</time>
      </trkpt>
      <trkpt lat="48.87876" lon="2.29563">
        <ele>48.599998474121</ele>
        <time>2015-12-14T19:59:07.000Z</time>
      </trkpt>
      <trkpt lat="48.87893" lon="2.29544">
        <ele>48.599998474121</ele>
        <time>2015-12-14T19:59:13.000Z</time>
      </trkpt>
      <trkpt lat="48.87912" lon="2.29525">
        <ele>48.599998474121</ele>
        <time>2015-12-14T19:59:18.000Z</time>
      </trkpt>
      <trkpt lat="48.87927" lon="2.29501">
        <ele>49.200000762939</ele>
        <time>2015-12-14T19:59:23.000Z</time>
      </trkpt>
      <trkpt lat="48.87941" lon="2.29484">
        <ele>49.200000762939</ele>
        <time>2015-12-14T19:59:31.000Z</time>
      </trkpt>
      <trkpt lat="48.8796" lon="2.29476">
        <ele>48.599998474121</ele>
        <time>2015-12-14T19:59:39.000Z</time>
      </trkpt>
      <trkpt lat="48.87973" lon="2.29456">
        <ele>48.400001525879</ele>
        <time>2015-12-14T19:59:43.000Z</time>
      </trkpt>
      <trkpt lat="48.8799" lon="2.29439">
        <ele>48.599998474121</ele>
        <time>2015-12-14T19:59:47.000Z</time>
      </trkpt>
      <trkpt lat="48.88004" lon="2.2942">
        <ele>49.200000762939</ele>
        <time>2015-12-14T19:59:51.000Z</time>
      </trkpt>
      <trkpt lat="48.88021" lon="2.29402">
        <ele>49</ele>
        <time>2015-12-14T19:59:55.000Z</time>
      </trkpt>
      <trkpt lat="48.88039" lon="2.29385">
        <ele>48.599998474121</ele>
        <time>2015-12-14T20:00:00.000Z</time>
      </trkpt>
      <trkpt lat="48.88054" lon="2.29365">
        <ele>48.200000762939</ele>
        <time>2015-12-14T20:00:05.000Z</time>
      </trkpt>
      <trkpt lat="48.88057" lon="2.2936">
        <ele>48</ele>
        <time>2015-12-14T20:00:06.000Z</time>
      </trkpt>
      <trkpt lat="48.88063" lon="2.29352">
        <ele>47.400001525879</ele>
        <time>2015-12-14T20:00:08.000Z</time>
      </trkpt>
      <trkpt lat="48.88068" lon="2.29339">
        <ele>46.599998474121</ele>
        <time>2015-12-14T20:00:11.000Z</time>
      </trkpt>
      <trkpt lat="48.88083" lon="2.29323">
        <ele>45.200000762939</ele>
        <time>2015-12-14T20:00:16.000Z</time>
      </trkpt>
      <trkpt lat="48.88098" lon="2.29307">
        <ele>44.200000762939</ele>
        <time>2015-12-14T20:00:24.000Z</time>
      </trkpt>
      <trkpt lat="48.88109" lon="2.29297">
        <ele>44.200000762939</ele>
        <time>2015-12-14T20:00:28.000Z</time>
      </trkpt>
      <trkpt lat="48.88128" lon="2.29311">
        <ele>45.599998474121</ele>
        <time>2015-12-14T20:00:34.000Z</time>
      </trkpt>
      <trkpt lat="48.88135" lon="2.29318">
        <ele>46</ele>
        <time>2015-12-14T20:00:36.000Z</time>
      </trkpt>
      <trkpt lat="48.8815" lon="2.29334">
        <ele>47.200000762939</ele>
        <time>2015-12-14T20:00:41.000Z</time>
      </trkpt>
      <trkpt lat="48.88166" lon="2.29347">
        <ele>48.599998474121</ele>
        <time>2015-12-14T20:00:46.000Z</time>
      </trkpt>
      <trkpt lat="48.88181" lon="2.29366">
        <ele>50.200000762939</ele>
        <time>2015-12-14T20:00:53.000Z</time>
      </trkpt>
      <trkpt lat="48.882" lon="2.29376">
        <ele>51</ele>
        <time>2015-12-14T20:00:59.000Z</time>
      </trkpt>
      <trkpt lat="48.88216" lon="2.29393">
        <ele>51.200000762939</ele>
        <time>2015-12-14T20:01:06.000Z</time>
      </trkpt>
      <trkpt lat="48.88222" lon="2.29399">
        <ele>51.200000762939</ele>
        <time>2015-12-14T20:01:10.000Z</time>
      </trkpt>
      <trkpt lat="48.88242" lon="2.29387">
        <ele>50.799999237061</ele>
        <time>2015-12-14T20:01:17.000Z</time>
      </trkpt>
      <trkpt lat="48.88257" lon="2.2937">
        <ele>50.400001525879</ele>
        <time>2015-12-14T20:01:24.000Z</time>
      </trkpt>
      <trkpt lat="48.88278" lon="2.2937">
        <ele>50.200000762939</ele>
        <time>2015-12-14T20:01:28.000Z</time>
      </trkpt>
      <trkpt lat="48.88295" lon="2.29357">
        <ele>48.799999237061</ele>
        <time>2015-12-14T20:01:41.000Z</time>
      </trkpt>
      <trkpt lat="48.88296" lon="2.29356">
        <ele>48.599998474121</ele>
        <time>2015-12-14T20:01:42.000Z</time>
      </trkpt>
      <trkpt lat="48.8831" lon="2.29332">
        <ele>47.799999237061</ele>
        <time>2015-12-14T20:01:50.000Z</time>
      </trkpt>
      <trkpt lat="48.8832" lon="2.29325">
        <ele>47</ele>
        <time>2015-12-14T20:01:53.000Z</time>
      </trkpt>
      <trkpt lat="48.88338" lon="2.29309">
        <ele>45.400001525879</ele>
        <time>2015-12-14T20:01:59.000Z</time>
      </trkpt>
      <trkpt lat="48.88341" lon="2.29296">
        <ele>45.599998474121</ele>
        <time>2015-12-14T20:02:04.000Z</time>
      </trkpt>
      <trkpt lat="48.88326" lon="2.29275">
        <ele>46</ele>
        <time>2015-12-14T20:02:11.000Z</time>
      </trkpt>
      <trkpt lat="48.88307" lon="2.29261">
        <ele>46.400001525879</ele>
        <time>2015-12-14T20:02:16.000Z</time>
      </trkpt>
      <trkpt lat="48.88294" lon="2.29238">
        <ele>47</ele>
        <time>2015-12-14T20:02:21.000Z</time>
      </trkpt>
      <trkpt lat="48.88285" lon="2.29209">
        <ele>47.799999237061</ele>
        <time>2015-12-14T20:02:26.000Z</time>
      </trkpt>
      <trkpt lat="48.8827" lon="2.29191">
        <ele>48.200000762939</ele>
        <time>2015-12-14T20:02:30.000Z</time>
      </trkpt>
      <trkpt lat="48.88255" lon="2.29169">
        <ele>48.400001525879</ele>
        <time>2015-12-14T20:02:35.000Z</time>
      </trkpt>
      <trkpt lat="48.88249" lon="2.29149">
        <ele>48</ele>
        <time>2015-12-14T20:02:40.000Z</time>
      </trkpt>
      <trkpt lat="48.88257" lon="2.29123">
        <ele>47.400001525879</ele>
        <time>2015-12-14T20:02:43.000Z</time>
      </trkpt>
      <trkpt lat="48.88266" lon="2.29106">
        <ele>47.400001525879</ele>
        <time>2015-12-14T20:02:46.000Z</time>
      </trkpt>
      <trkpt lat="48.8828" lon="2.29082">
        <ele>46.799999237061</ele>
        <time>2015-12-14T20:02:51.000Z</time>
      </trkpt>
      <trkpt lat="48.88296" lon="2.29061">
        <ele>45</ele>
        <time>2015-12-14T20:02:57.000Z</time>
      </trkpt>
      <trkpt lat="48.88296" lon="2.29047">
        <ele>44.400001525879</ele>
        <time>2015-12-14T20:03:01.000Z</time>
      </trkpt>
      <trkpt lat="48.88284" lon="2.29028">
        <ele>44</ele>
        <time>2015-12-14T20:03:06.000Z</time>
      </trkpt>
      <trkpt lat="48.8827" lon="2.29006">
        <ele>43.599998474121</ele>
        <time>2015-12-14T20:03:16.000Z</time>
      </trkpt>
      <trkpt lat="48.88255" lon="2.28991">
        <ele>43.400001525879</ele>
        <time>2015-12-14T20:03:22.000Z</time>
      </trkpt>
      <trkpt lat="48.88245" lon="2.28963">
        <ele>43.200000762939</ele>
        <time>2015-12-14T20:03:29.000Z</time>
      </trkpt>
      <trkpt lat="48.88231" lon="2.28945">
        <ele>43</ele>
        <time>2015-12-14T20:03:34.000Z</time>
      </trkpt>
      <trkpt lat="48.88218" lon="2.28926">
        <ele>43</ele>
        <time>2015-12-14T20:03:39.000Z</time>
      </trkpt>
      <trkpt lat="48.8821" lon="2.28899">
        <ele>42.400001525879</ele>
        <time>2015-12-14T20:03:45.000Z</time>
      </trkpt>
      <trkpt lat="48.88211" lon="2.28883">
        <ele>42</ele>
        <time>2015-12-14T20:03:54.000Z</time>
      </trkpt>
      <trkpt lat="48.8822" lon="2.2887">
        <ele>41.200000762939</ele>
        <time>2015-12-14T20:04:00.000Z</time>
      </trkpt>
      <trkpt lat="48.88217" lon="2.28871">
        <ele>41.400001525879</ele>
        <time>2015-12-14T20:04:05.000Z</time>
      </trkpt>
      <trkpt lat="48.88216" lon="2.2887">
        <ele>41.400001525879</ele>
        <time>2015-12-14T20:04:07.000Z</time>
      </trkpt>
      <trkpt lat="48.88209" lon="2.28859">
        <ele>41.599998474121</ele>
        <time>2015-12-14T20:04:11.000Z</time>
      </trkpt>
      <trkpt lat="48.8819" lon="2.28845">
        <ele>42.400001525879</ele>
        <time>2015-12-14T20:04:16.000Z</time>
      </trkpt>
      <trkpt lat="48.8819" lon="2.2884">
        <ele>42.200000762939</ele>
        <time>2015-12-14T20:04:18.000Z</time>
      </trkpt>
      <trkpt lat="48.88201" lon="2.28845">
        <ele>41.799999237061</ele>
        <time>2015-12-14T20:04:24.000Z</time>
      </trkpt>
      <trkpt lat="48.88219" lon="2.28853">
        <ele>41.200000762939</ele>
        <time>2015-12-14T20:04:35.000Z</time>
      </trkpt>
      <trkpt lat="48.8822" lon="2.28852">
        <ele>41.200000762939</ele>
        <time>2015-12-14T20:04:36.000Z</time>
      </trkpt>
      <trkpt lat="48.88222" lon="2.28852">
        <ele>41.400001525879</ele>
        <time>2015-12-14T20:04:39.000Z</time>
      </trkpt>
      <trkpt lat="48.88234" lon="2.28838">
        <ele>42.200000762939</ele>
        <time>2015-12-14T20:05:01.000Z</time>
      </trkpt>
      <trkpt lat="48.88247" lon="2.28815">
        <ele>42.799999237061</ele>
        <time>2015-12-14T20:05:10.000Z</time>
      </trkpt>
      <trkpt lat="48.88263" lon="2.28799">
        <ele>43.799999237061</ele>
        <time>2015-12-14T20:05:17.000Z</time>
      </trkpt>
      <trkpt lat="48.88279" lon="2.28784">
        <ele>44.799999237061</ele>
        <time>2015-12-14T20:05:25.000Z</time>
      </trkpt>
      <trkpt lat="48.88287" lon="2.28745">
        <ele>46.200000762939</ele>
        <time>2015-12-14T20:05:37.000Z</time>
      </trkpt>
      <trkpt lat="48.88286" lon="2.28741">
        <ele>46.200000762939</ele>
        <time>2015-12-14T20:05:38.000Z</time>
      </trkpt>
      <trkpt lat="48.88276" lon="2.28725">
        <ele>46</ele>
        <time>2015-12-14T20:05:43.000Z</time>
      </trkpt>
      <trkpt lat="48.88262" lon="2.28706">
        <ele>45.799999237061</ele>
        <time>2015-12-14T20:05:49.000Z</time>
      </trkpt>
      <trkpt lat="48.88248" lon="2.28684">
        <ele>45.400001525879</ele>
        <time>2015-12-14T20:05:54.000Z</time>
      </trkpt>
      <trkpt lat="48.88233" lon="2.28665">
        <ele>45</ele>
        <time>2015-12-14T20:05:59.000Z</time>
      </trkpt>
      <trkpt lat="48.8822" lon="2.28643">
        <ele>45.200000762939</ele>
        <time>2015-12-14T20:06:05.000Z</time>
      </trkpt>
      <trkpt lat="48.88204" lon="2.2862">
        <ele>45.400001525879</ele>
        <time>2015-12-14T20:06:11.000Z</time>
      </trkpt>
      <trkpt lat="48.88188" lon="2.28604">
        <ele>45.400001525879</ele>
        <time>2015-12-14T20:06:16.000Z</time>
      </trkpt>
      <trkpt lat="48.88171" lon="2.28592">
        <ele>45.200000762939</ele>
        <time>2015-12-14T20:06:24.000Z</time>
      </trkpt>
      <trkpt lat="48.88151" lon="2.28599">
        <ele>44.599998474121</ele>
        <time>2015-12-14T20:06:32.000Z</time>
      </trkpt>
      <trkpt lat="48.88133" lon="2.28591">
        <ele>44.400001525879</ele>
        <time>2015-12-14T20:06:38.000Z</time>
      </trkpt>
      <trkpt lat="48.88114" lon="2.2858">
        <ele>44.200000762939</ele>
        <time>2015-12-14T20:06:44.000Z</time>
      </trkpt>
      <trkpt lat="48.88096" lon="2.28566">
        <ele>44.599998474121</ele>
        <time>2015-12-14T20:06:49.000Z</time>
      </trkpt>
      <trkpt lat="48.88078" lon="2.28555">
        <ele>45.799999237061</ele>
        <time>2015-12-14T20:06:56.000Z</time>
      </trkpt>
      <trkpt lat="48.88062" lon="2.28543">
        <ele>46.599998474121</ele>
        <time>2015-12-14T20:07:05.000Z</time>
      </trkpt>
      <trkpt lat="48.88043" lon="2.28532">
        <ele>47.400001525879</ele>
        <time>2015-12-14T20:07:10.000Z</time>
      </trkpt>
      <trkpt lat="48.88024" lon="2.2852">
        <ele>48.200000762939</ele>
        <time>2015-12-14T20:07:14.000Z</time>
      </trkpt>
      <trkpt lat="48.88007" lon="2.28509">
        <ele>49.200000762939</ele>
        <time>2015-12-14T20:07:17.000Z</time>
      </trkpt>
      <trkpt lat="48.87985" lon="2.28497">
        <ele>50.400001525879</ele>
        <time>2015-12-14T20:07:21.000Z</time>
      </trkpt>
      <trkpt lat="48.87966" lon="2.28487">
        <ele>51.799999237061</ele>
        <time>2015-12-14T20:07:24.000Z</time>
      </trkpt>
      <trkpt lat="48.87948" lon="2.28478">
        <ele>53</ele>
        <time>2015-12-14T20:07:27.000Z</time>
      </trkpt>
      <trkpt lat="48.87928" lon="2.28471">
        <ele>51.599998474121</ele>
        <time>2015-12-14T20:07:30.000Z</time>
      </trkpt>
      <trkpt lat="48.87923" lon="2.2847">
        <ele>50.599998474121</ele>
        <time>2015-12-14T20:07:31.000Z</time>
      </trkpt>
      <trkpt lat="48.87907" lon="2.28461">
        <ele>48.200000762939</ele>
        <time>2015-12-14T20:07:34.000Z</time>
      </trkpt>
      <trkpt lat="48.87887" lon="2.2845">
        <ele>46.200000762939</ele>
        <time>2015-12-14T20:07:37.000Z</time>
      </trkpt>
      <trkpt lat="48.87867" lon="2.28443">
        <ele>44.599998474121</ele>
        <time>2015-12-14T20:07:40.000Z</time>
      </trkpt>
      <trkpt lat="48.87846" lon="2.28438">
        <ele>44.200000762939</ele>
        <time>2015-12-14T20:07:44.000Z</time>
      </trkpt>
      <trkpt lat="48.87827" lon="2.28436">
        <ele>44.599998474121</ele>
        <time>2015-12-14T20:07:49.000Z</time>
      </trkpt>
      <trkpt lat="48.87817" lon="2.2843">
        <ele>44.599998474121</ele>
        <time>2015-12-14T20:07:53.000Z</time>
      </trkpt>
      <trkpt lat="48.87813" lon="2.28423">
        <ele>44.400001525879</ele>
        <time>2015-12-14T20:07:57.000Z</time>
      </trkpt>
      <trkpt lat="48.87817" lon="2.28423">
        <ele>44.200000762939</ele>
        <time>2015-12-14T20:08:21.000Z</time>
      </trkpt>
      <trkpt lat="48.87801" lon="2.28417">
        <ele>44.400001525879</ele>
        <time>2015-12-14T20:08:36.000Z</time>
      </trkpt>
      <trkpt lat="48.87783" lon="2.28422">
        <ele>45</ele>
        <time>2015-12-14T20:08:45.000Z</time>
      </trkpt>
      <trkpt lat="48.87774" lon="2.28428">
        <ele>45.599998474121</ele>
        <time>2015-12-14T20:08:50.000Z</time>
      </trkpt>
      <trkpt lat="48.87764" lon="2.28427">
        <ele>46.200000762939</ele>
        <time>2015-12-14T20:09:00.000Z</time>
      </trkpt>
      <trkpt lat="48.87746" lon="2.28431">
        <ele>47.200000762939</ele>
        <time>2015-12-14T20:09:24.000Z</time>
      </trkpt>
      <trkpt lat="48.87742" lon="2.28429">
        <ele>47.200000762939</ele>
        <time>2015-12-14T20:09:26.000Z</time>
      </trkpt>
      <trkpt lat="48.87736" lon="2.28422">
        <ele>47.200000762939</ele>
        <time>2015-12-14T20:09:32.000Z</time>
      </trkpt>
      <trkpt lat="48.87716" lon="2.28406">
        <ele>47.599998474121</ele>
        <time>2015-12-14T20:10:18.000Z</time>
      </trkpt>
      <trkpt lat="48.87708" lon="2.28382">
        <ele>47.799999237061</ele>
        <time>2015-12-14T20:10:31.000Z</time>
      </trkpt>
      <trkpt lat="48.87698" lon="2.28363">
        <ele>48</ele>
        <time>2015-12-14T20:10:38.000Z</time>
      </trkpt>
      <trkpt lat="48.8768" lon="2.28356">
        <ele>49.200000762939</ele>
        <time>2015-12-14T20:10:53.000Z</time>
      </trkpt>
      <trkpt lat="48.87663" lon="2.28364">
        <ele>51</ele>
        <time>2015-12-14T20:11:03.000Z</time>
      </trkpt>
      <trkpt lat="48.87644" lon="2.28378">
        <ele>53</ele>
        <time>2015-12-14T20:11:10.000Z</time>
      </trkpt>
      <trkpt lat="48.87624" lon="2.2838">
        <ele>55</ele>
        <time>2015-12-14T20:11:13.000Z</time>
      </trkpt>
      <trkpt lat="48.87602" lon="2.28382">
        <ele>56.599998474121</ele>
        <time>2015-12-14T20:11:16.000Z</time>
      </trkpt>
      <trkpt lat="48.87583" lon="2.28386">
        <ele>56.599998474121</ele>
        <time>2015-12-14T20:11:19.000Z</time>
      </trkpt>
      <trkpt lat="48.87572" lon="2.28389">
        <ele>57</ele>
        <time>2015-12-14T20:11:21.000Z</time>
      </trkpt>
      <trkpt lat="48.87551" lon="2.28398">
        <ele>57.799999237061</ele>
        <time>2015-12-14T20:11:25.000Z</time>
      </trkpt>
      <trkpt lat="48.87529" lon="2.28404">
        <ele>58.599998474121</ele>
        <time>2015-12-14T20:11:29.000Z</time>
      </trkpt>
      <trkpt lat="48.87507" lon="2.28397">
        <ele>59.599998474121</ele>
        <time>2015-12-14T20:11:32.000Z</time>
      </trkpt>
      <trkpt lat="48.87498" lon="2.28396">
        <ele>59.400001525879</ele>
        <time>2015-12-14T20:11:37.000Z</time>
      </trkpt>
      <trkpt lat="48.87498" lon="2.28396">
        <ele>59.599998474121</ele>
        <time>2015-12-14T20:11:38.000Z</time>
      </trkpt>
      <trkpt lat="48.87499" lon="2.28386">
        <ele>59.799999237061</ele>
        <time>2015-12-14T20:11:48.000Z</time>
      </trkpt>
      <trkpt lat="48.8749" lon="2.28375">
        <ele>60</ele>
        <time>2015-12-14T20:11:52.000Z</time>
      </trkpt>
      <trkpt lat="48.87475" lon="2.28358">
        <ele>60.400001525879</ele>
        <time>2015-12-14T20:11:56.000Z</time>
      </trkpt>
      <trkpt lat="48.87462" lon="2.2834">
        <ele>60.799999237061</ele>
        <time>2015-12-14T20:12:00.000Z</time>
      </trkpt>
      <trkpt lat="48.87451" lon="2.28327">
        <ele>61.200000762939</ele>
        <time>2015-12-14T20:12:03.000Z</time>
      </trkpt>
      <trkpt lat="48.87436" lon="2.28307">
        <ele>61.599998474121</ele>
        <time>2015-12-14T20:12:07.000Z</time>
      </trkpt>
      <trkpt lat="48.87418" lon="2.28288">
        <ele>61.200000762939</ele>
        <time>2015-12-14T20:12:12.000Z</time>
      </trkpt>
      <trkpt lat="48.87401" lon="2.28274">
        <ele>61.200000762939</ele>
        <time>2015-12-14T20:12:16.000Z</time>
      </trkpt>
      <trkpt lat="48.8739" lon="2.28244">
        <ele>60.599998474121</ele>
        <time>2015-12-14T20:12:21.000Z</time>
      </trkpt>
      <trkpt lat="48.8738" lon="2.28229">
        <ele>61.200000762939</ele>
        <time>2015-12-14T20:12:25.000Z</time>
      </trkpt>
      <trkpt lat="48.8737" lon="2.2824">
        <ele>61</ele>
        <time>2015-12-14T20:12:40.000Z</time>
      </trkpt>
      <trkpt lat="48.87355" lon="2.28262">
        <ele>60.200000762939</ele>
        <time>2015-12-14T20:12:46.000Z</time>
      </trkpt>
      <trkpt lat="48.87346" lon="2.28278">
        <ele>58.799999237061</ele>
        <time>2015-12-14T20:12:54.000Z</time>
      </trkpt>
      <trkpt lat="48.87333" lon="2.28302">
        <ele>56.799999237061</ele>
        <time>2015-12-14T20:13:03.000Z</time>
      </trkpt>
      <trkpt lat="48.87316" lon="2.28316">
        <ele>54.599998474121</ele>
        <time>2015-12-14T20:13:10.000Z</time>
      </trkpt>
      <trkpt lat="48.87305" lon="2.28341">
        <ele>52.400001525879</ele>
        <time>2015-12-14T20:13:16.000Z</time>
      </trkpt>
      <trkpt lat="48.87306" lon="2.28372">
        <ele>51.799999237061</ele>
        <time>2015-12-14T20:13:27.000Z</time>
      </trkpt>
      <trkpt lat="48.873" lon="2.28357">
        <ele>51.599998474121</ele>
        <time>2015-12-14T20:13:40.000Z</time>
      </trkpt>
      <trkpt lat="48.87288" lon="2.28338">
        <ele>51</ele>
        <time>2015-12-14T20:14:02.000Z</time>
      </trkpt>
      <trkpt lat="48.87273" lon="2.28323">
        <ele>50.599998474121</ele>
        <time>2015-12-14T20:14:12.000Z</time>
      </trkpt>
      <trkpt lat="48.87256" lon="2.28317">
        <ele>52.400001525879</ele>
        <time>2015-12-14T20:14:27.000Z</time>
      </trkpt>
      <trkpt lat="48.8725" lon="2.28317">
        <ele>53.400001525879</ele>
        <time>2015-12-14T20:14:30.000Z</time>
      </trkpt>
      <trkpt lat="48.87243" lon="2.28319">
        <ele>54.599998474121</ele>
        <time>2015-12-14T20:14:34.000Z</time>
      </trkpt>
      <trkpt lat="48.87239" lon="2.28307">
        <ele>55</ele>
        <time>2015-12-14T20:14:47.000Z</time>
      </trkpt>
      <trkpt lat="48.8723" lon="2.28284">
        <ele>55.799999237061</ele>
        <time>2015-12-14T20:15:15.000Z</time>
      </trkpt>
      <trkpt lat="48.87217" lon="2.28267">
        <ele>58</ele>
        <time>2015-12-14T20:15:26.000Z</time>
      </trkpt>
      <trkpt lat="48.87207" lon="2.2826">
        <ele>59</ele>
        <time>2015-12-14T20:15:32.000Z</time>
      </trkpt>
      <trkpt lat="48.87193" lon="2.28251">
        <ele>60.599998474121</ele>
        <time>2015-12-14T20:16:10.000Z</time>
      </trkpt>
      <trkpt lat="48.87179" lon="2.28248">
        <ele>61.599998474121</ele>
        <time>2015-12-14T20:17:05.000Z</time>
      </trkpt>
      <trkpt lat="48.8716" lon="2.28241">
        <ele>62</ele>
        <time>2015-12-14T20:17:16.000Z</time>
      </trkpt>
      <trkpt lat="48.87141" lon="2.28239">
        <ele>62.799999237061</ele>
        <time>2015-12-14T20:17:23.000Z</time>
      </trkpt>
      <trkpt lat="48.87121" lon="2.28234">
        <ele>63.400001525879</ele>
        <time>2015-12-14T20:17:29.000Z</time>
      </trkpt>
      <trkpt lat="48.87101" lon="2.28224">
        <ele>63.200000762939</ele>
        <time>2015-12-14T20:17:33.000Z</time>
      </trkpt>
      <trkpt lat="48.87083" lon="2.28215">
        <ele>62.200000762939</ele>
        <time>2015-12-14T20:17:36.000Z</time>
      </trkpt>
      <trkpt lat="48.87064" lon="2.28204">
        <ele>61</ele>
        <time>2015-12-14T20:17:41.000Z</time>
      </trkpt>
      <trkpt lat="48.87054" lon="2.28197">
        <ele>60.400001525879</ele>
        <time>2015-12-14T20:17:45.000Z</time>
      </trkpt>
      <trkpt lat="48.87051" lon="2.28192">
        <ele>59.799999237061</ele>
        <time>2015-12-14T20:17:48.000Z</time>
      </trkpt>
      <trkpt lat="48.87033" lon="2.2818">
        <ele>58.599998474121</ele>
        <time>2015-12-14T20:18:31.000Z</time>
      </trkpt>
      <trkpt lat="48.87029" lon="2.28209">
        <ele>62</ele>
        <time>2015-12-14T20:18:40.000Z</time>
      </trkpt>
      <trkpt lat="48.87025" lon="2.28238">
        <ele>65</ele>
        <time>2015-12-14T20:18:47.000Z</time>
      </trkpt>
      <trkpt lat="48.87029" lon="2.28257">
        <ele>66.199996948242</ele>
        <time>2015-12-14T20:18:54.000Z</time>
      </trkpt>
      <trkpt lat="48.87018" lon="2.28257">
        <ele>66.199996948242</ele>
        <time>2015-12-14T20:19:07.000Z</time>
      </trkpt>
      <trkpt lat="48.86996" lon="2.28259">
        <ele>66.199996948242</ele>
        <time>2015-12-14T20:19:17.000Z</time>
      </trkpt>
      <trkpt lat="48.86976" lon="2.28253">
        <ele>66</ele>
        <time>2015-12-14T20:19:26.000Z</time>
      </trkpt>
      <trkpt lat="48.8697" lon="2.28243">
        <ele>65.800003051758</ele>
        <time>2015-12-14T20:19:31.000Z</time>
      </trkpt>
      <trkpt lat="48.86953" lon="2.28231">
        <ele>65.400001525879</ele>
        <time>2015-12-14T20:19:37.000Z</time>
      </trkpt>
      <trkpt lat="48.86934" lon="2.28219">
        <ele>65.199996948242</ele>
        <time>2015-12-14T20:19:42.000Z</time>
      </trkpt>
      <trkpt lat="48.86914" lon="2.28208">
        <ele>65.599998474121</ele>
        <time>2015-12-14T20:19:47.000Z</time>
      </trkpt>
      <trkpt lat="48.86896" lon="2.28199">
        <ele>65.800003051758</ele>
        <time>2015-12-14T20:19:52.000Z</time>
      </trkpt>
      <trkpt lat="48.86876" lon="2.28191">
        <ele>66</ele>
        <time>2015-12-14T20:19:57.000Z</time>
      </trkpt>
      <trkpt lat="48.86859" lon="2.2818">
        <ele>66.199996948242</ele>
        <time>2015-12-14T20:20:03.000Z</time>
      </trkpt>
      <trkpt lat="48.8684" lon="2.28167">
        <ele>66</ele>
        <time>2015-12-14T20:20:10.000Z</time>
      </trkpt>
      <trkpt lat="48.86827" lon="2.28147">
        <ele>66.800003051758</ele>
        <time>2015-12-14T20:20:17.000Z</time>
      </trkpt>
      <trkpt lat="48.86817" lon="2.2814">
        <ele>67</ele>
        <time>2015-12-14T20:20:20.000Z</time>
      </trkpt>
      <trkpt lat="48.86804" lon="2.28136">
        <ele>67.199996948242</ele>
        <time>2015-12-14T20:20:26.000Z</time>
      </trkpt>
      <trkpt lat="48.86786" lon="2.28123">
        <ele>68</ele>
        <time>2015-12-14T20:21:16.000Z</time>
      </trkpt>
      <trkpt lat="48.86771" lon="2.28108">
        <ele>68.599998474121</ele>
        <time>2015-12-14T20:21:29.000Z</time>
      </trkpt>
      <trkpt lat="48.86769" lon="2.28105">
        <ele>68.800003051758</ele>
        <time>2015-12-14T20:21:33.000Z</time>
      </trkpt>
      <trkpt lat="48.86754" lon="2.2809">
        <ele>69.400001525879</ele>
        <time>2015-12-14T20:21:45.000Z</time>
      </trkpt>
      <trkpt lat="48.86735" lon="2.2808">
        <ele>70</ele>
        <time>2015-12-14T20:21:51.000Z</time>
      </trkpt>
      <trkpt lat="48.86716" lon="2.28071">
        <ele>69.800003051758</ele>
        <time>2015-12-14T20:21:57.000Z</time>
      </trkpt>
      <trkpt lat="48.86698" lon="2.28064">
        <ele>69.599998474121</ele>
        <time>2015-12-14T20:22:02.000Z</time>
      </trkpt>
      <trkpt lat="48.8668" lon="2.28057">
        <ele>69.199996948242</ele>
        <time>2015-12-14T20:22:08.000Z</time>
      </trkpt>
      <trkpt lat="48.86672" lon="2.2804">
        <ele>68.599998474121</ele>
        <time>2015-12-14T20:22:15.000Z</time>
      </trkpt>
      <trkpt lat="48.86663" lon="2.28036">
        <ele>68.400001525879</ele>
        <time>2015-12-14T20:22:20.000Z</time>
      </trkpt>
      <trkpt lat="48.8666" lon="2.28032">
        <ele>68.199996948242</ele>
        <time>2015-12-14T20:22:22.000Z</time>
      </trkpt>
      <trkpt lat="48.86644" lon="2.28016">
        <ele>67.400001525879</ele>
        <time>2015-12-14T20:22:52.000Z</time>
      </trkpt>
      <trkpt lat="48.86625" lon="2.28001">
        <ele>66.599998474121</ele>
        <time>2015-12-14T20:22:57.000Z</time>
      </trkpt>
      <trkpt lat="48.86607" lon="2.27989">
        <ele>66.400001525879</ele>
        <time>2015-12-14T20:23:01.000Z</time>
      </trkpt>
      <trkpt lat="48.86589" lon="2.27977">
        <ele>66</ele>
        <time>2015-12-14T20:23:04.000Z</time>
      </trkpt>
      <trkpt lat="48.86567" lon="2.27962">
        <ele>65.800003051758</ele>
        <time>2015-12-14T20:23:07.000Z</time>
      </trkpt>
      <trkpt lat="48.86546" lon="2.27945">
        <ele>65.800003051758</ele>
        <time>2015-12-14T20:23:10.000Z</time>
      </trkpt>
      <trkpt lat="48.86524" lon="2.27924">
        <ele>65.800003051758</ele>
        <time>2015-12-14T20:23:13.000Z</time>
      </trkpt>
      <trkpt lat="48.86504" lon="2.27898">
        <ele>65.800003051758</ele>
        <time>2015-12-14T20:23:16.000Z</time>
      </trkpt>
      <trkpt lat="48.86489" lon="2.27882">
        <ele>65.800003051758</ele>
        <time>2015-12-14T20:23:18.000Z</time>
      </trkpt>
      <trkpt lat="48.8647" lon="2.27859">
        <ele>66</ele>
        <time>2015-12-14T20:23:21.000Z</time>
      </trkpt>
      <trkpt lat="48.8645" lon="2.27838">
        <ele>66</ele>
        <time>2015-12-14T20:23:24.000Z</time>
      </trkpt>
      <trkpt lat="48.86435" lon="2.27817">
        <ele>65.800003051758</ele>
        <time>2015-12-14T20:23:27.000Z</time>
      </trkpt>
      <trkpt lat="48.86423" lon="2.27806">
        <ele>66</ele>
        <time>2015-12-14T20:23:29.000Z</time>
      </trkpt>
      <trkpt lat="48.86407" lon="2.27789">
        <ele>66.199996948242</ele>
        <time>2015-12-14T20:23:33.000Z</time>
      </trkpt>
      <trkpt lat="48.8639" lon="2.27769">
        <ele>66.400001525879</ele>
        <time>2015-12-14T20:23:39.000Z</time>
      </trkpt>
      <trkpt lat="48.86388" lon="2.27767">
        <ele>66.400001525879</ele>
        <time>2015-12-14T20:23:40.000Z</time>
      </trkpt>
      <trkpt lat="48.86385" lon="2.27761">
        <ele>66.400001525879</ele>
        <time>2015-12-14T20:23:44.000Z</time>
      </trkpt>
      <trkpt lat="48.86373" lon="2.27737">
        <ele>66.400001525879</ele>
        <time>2015-12-14T20:24:02.000Z</time>
      </trkpt>
      <trkpt lat="48.86356" lon="2.2772">
        <ele>67</ele>
        <time>2015-12-14T20:24:07.000Z</time>
      </trkpt>
      <trkpt lat="48.8634" lon="2.27708">
        <ele>66.400001525879</ele>
        <time>2015-12-14T20:24:11.000Z</time>
      </trkpt>
      <trkpt lat="48.86322" lon="2.27694">
        <ele>65.800003051758</ele>
        <time>2015-12-14T20:24:15.000Z</time>
      </trkpt>
      <trkpt lat="48.86304" lon="2.27678">
        <ele>65.199996948242</ele>
        <time>2015-12-14T20:24:19.000Z</time>
      </trkpt>
      <trkpt lat="48.86288" lon="2.27663">
        <ele>64.599998474121</ele>
        <time>2015-12-14T20:24:23.000Z</time>
      </trkpt>
      <trkpt lat="48.86269" lon="2.27649">
        <ele>64</ele>
        <time>2015-12-14T20:24:28.000Z</time>
      </trkpt>
      <trkpt lat="48.86249" lon="2.27639">
        <ele>64.599998474121</ele>
        <time>2015-12-14T20:24:33.000Z</time>
      </trkpt>
      <trkpt lat="48.8623" lon="2.27625">
        <ele>65</ele>
        <time>2015-12-14T20:24:39.000Z</time>
      </trkpt>
      <trkpt lat="48.86215" lon="2.27616">
        <ele>65.199996948242</ele>
        <time>2015-12-14T20:24:43.000Z</time>
      </trkpt>
      <trkpt lat="48.86196" lon="2.27603">
        <ele>65.400001525879</ele>
        <time>2015-12-14T20:24:48.000Z</time>
      </trkpt>
      <trkpt lat="48.86179" lon="2.27589">
        <ele>66</ele>
        <time>2015-12-14T20:24:52.000Z</time>
      </trkpt>
      <trkpt lat="48.86169" lon="2.27582">
        <ele>66.400001525879</ele>
        <time>2015-12-14T20:24:54.000Z</time>
      </trkpt>
      <trkpt lat="48.8615" lon="2.2757">
        <ele>67</ele>
        <time>2015-12-14T20:24:57.000Z</time>
      </trkpt>
      <trkpt lat="48.8613" lon="2.2756">
        <ele>67.400001525879</ele>
        <time>2015-12-14T20:25:00.000Z</time>
      </trkpt>
      <trkpt lat="48.86111" lon="2.2755">
        <ele>67.800003051758</ele>
        <time>2015-12-14T20:25:03.000Z</time>
      </trkpt>
      <trkpt lat="48.86092" lon="2.27538">
        <ele>67.800003051758</ele>
        <time>2015-12-14T20:25:07.000Z</time>
      </trkpt>
      <trkpt lat="48.86081" lon="2.27533">
        <ele>67.599998474121</ele>
        <time>2015-12-14T20:25:10.000Z</time>
      </trkpt>
      <trkpt lat="48.86063" lon="2.27543">
        <ele>67.400001525879</ele>
        <time>2015-12-14T20:25:14.000Z</time>
      </trkpt>
      <trkpt lat="48.86048" lon="2.27545">
        <ele>67</ele>
        <time>2015-12-14T20:25:17.000Z</time>
      </trkpt>
      <trkpt lat="48.86026" lon="2.27553">
        <ele>66.400001525879</ele>
        <time>2015-12-14T20:25:21.000Z</time>
      </trkpt>
      <trkpt lat="48.8602" lon="2.27553">
        <ele>66.400001525879</ele>
        <time>2015-12-14T20:25:22.000Z</time>
      </trkpt>
      <trkpt lat="48.85995" lon="2.27549">
        <ele>67</ele>
        <time>2015-12-14T20:25:25.000Z</time>
      </trkpt>
      <trkpt lat="48.85973" lon="2.27547">
        <ele>67.400001525879</ele>
        <time>2015-12-14T20:25:28.000Z</time>
      </trkpt>
      <trkpt lat="48.85952" lon="2.27546">
        <ele>67.599998474121</ele>
        <time>2015-12-14T20:25:33.000Z</time>
      </trkpt>
      <trkpt lat="48.85929" lon="2.27538">
        <ele>67.800003051758</ele>
        <time>2015-12-14T20:25:37.000Z</time>
      </trkpt>
      <trkpt lat="48.8591" lon="2.27527">
        <ele>68</ele>
        <time>2015-12-14T20:25:41.000Z</time>
      </trkpt>
      <trkpt lat="48.85892" lon="2.27519">
        <ele>67.800003051758</ele>
        <time>2015-12-14T20:25:44.000Z</time>
      </trkpt>
      <trkpt lat="48.85874" lon="2.27517">
        <ele>67.800003051758</ele>
        <time>2015-12-14T20:25:48.000Z</time>
      </trkpt>
      <trkpt lat="48.85855" lon="2.27519">
        <ele>67.400001525879</ele>
        <time>2015-12-14T20:25:52.000Z</time>
      </trkpt>
      <trkpt lat="48.85851" lon="2.27518">
        <ele>67.400001525879</ele>
        <time>2015-12-14T20:25:54.000Z</time>
      </trkpt>
      <trkpt lat="48.85847" lon="2.27519">
        <ele>67.199996948242</ele>
        <time>2015-12-14T20:25:58.000Z</time>
      </trkpt>
      <trkpt lat="48.85846" lon="2.2752">
        <ele>67.199996948242</ele>
        <time>2015-12-14T20:25:59.000Z</time>
      </trkpt>
      <trkpt lat="48.85839" lon="2.27512">
        <ele>67.199996948242</ele>
        <time>2015-12-14T20:26:18.000Z</time>
      </trkpt>
      <trkpt lat="48.85822" lon="2.27495">
        <ele>67.199996948242</ele>
        <time>2015-12-14T20:26:46.000Z</time>
      </trkpt>
      <trkpt lat="48.85816" lon="2.27466">
        <ele>67.800003051758</ele>
        <time>2015-12-14T20:26:54.000Z</time>
      </trkpt>
      <trkpt lat="48.85813" lon="2.27434">
        <ele>68.599998474121</ele>
        <time>2015-12-14T20:26:59.000Z</time>
      </trkpt>
      <trkpt lat="48.85819" lon="2.27406">
        <ele>69.599998474121</ele>
        <time>2015-12-14T20:27:04.000Z</time>
      </trkpt>
      <trkpt lat="48.85824" lon="2.27376">
        <ele>69.199996948242</ele>
        <time>2015-12-14T20:27:10.000Z</time>
      </trkpt>
      <trkpt lat="48.85826" lon="2.27345">
        <ele>67.800003051758</ele>
        <time>2015-12-14T20:27:16.000Z</time>
      </trkpt>
      <trkpt lat="48.85821" lon="2.27317">
        <ele>66.199996948242</ele>
        <time>2015-12-14T20:27:21.000Z</time>
      </trkpt>
      <trkpt lat="48.8582" lon="2.27288">
        <ele>64.800003051758</ele>
        <time>2015-12-14T20:27:28.000Z</time>
      </trkpt>
      <trkpt lat="48.85816" lon="2.27269">
        <ele>64.199996948242</ele>
        <time>2015-12-14T20:27:34.000Z</time>
      </trkpt>
      <trkpt lat="48.85798" lon="2.27268">
        <ele>63.400001525879</ele>
        <time>2015-12-14T20:27:54.000Z</time>
      </trkpt>
      <trkpt lat="48.85779" lon="2.27279">
        <ele>64</ele>
        <time>2015-12-14T20:28:01.000Z</time>
      </trkpt>
      <trkpt lat="48.85761" lon="2.27289">
        <ele>64.599998474121</ele>
        <time>2015-12-14T20:28:05.000Z</time>
      </trkpt>
      <trkpt lat="48.85746" lon="2.27305">
        <ele>65.400001525879</ele>
        <time>2015-12-14T20:28:11.000Z</time>
      </trkpt>
      <trkpt lat="48.85744" lon="2.2731">
        <ele>65.199996948242</ele>
        <time>2015-12-14T20:28:13.000Z</time>
      </trkpt>
      <trkpt lat="48.8574" lon="2.2732">
        <ele>65</ele>
        <time>2015-12-14T20:28:17.000Z</time>
      </trkpt>
      <trkpt lat="48.8573" lon="2.2733">
        <ele>64.400001525879</ele>
        <time>2015-12-14T20:28:21.000Z</time>
      </trkpt>
      <trkpt lat="48.85722" lon="2.2736">
        <ele>64.400001525879</ele>
        <time>2015-12-14T20:28:26.000Z</time>
      </trkpt>
      <trkpt lat="48.85708" lon="2.27383">
        <ele>64.199996948242</ele>
        <time>2015-12-14T20:28:31.000Z</time>
      </trkpt>
      <trkpt lat="48.85693" lon="2.27403">
        <ele>64</ele>
        <time>2015-12-14T20:28:36.000Z</time>
      </trkpt>
      <trkpt lat="48.85681" lon="2.27429">
        <ele>63</ele>
        <time>2015-12-14T20:28:41.000Z</time>
      </trkpt>
      <trkpt lat="48.85675" lon="2.27456">
        <ele>62.200000762939</ele>
        <time>2015-12-14T20:28:45.000Z</time>
      </trkpt>
      <trkpt lat="48.85659" lon="2.27483">
        <ele>61.200000762939</ele>
        <time>2015-12-14T20:28:49.000Z</time>
      </trkpt>
      <trkpt lat="48.85649" lon="2.27507">
        <ele>61</ele>
        <time>2015-12-14T20:28:53.000Z</time>
      </trkpt>
      <trkpt lat="48.85637" lon="2.27533">
        <ele>60.200000762939</ele>
        <time>2015-12-14T20:28:59.000Z</time>
      </trkpt>
      <trkpt lat="48.85631" lon="2.27541">
        <ele>60.400001525879</ele>
        <time>2015-12-14T20:29:01.000Z</time>
      </trkpt>
      <trkpt lat="48.85626" lon="2.27551">
        <ele>60.599998474121</ele>
        <time>2015-12-14T20:29:04.000Z</time>
      </trkpt>
      <trkpt lat="48.85609" lon="2.2757">
        <ele>60.799999237061</ele>
        <time>2015-12-14T20:29:09.000Z</time>
      </trkpt>
      <trkpt lat="48.85589" lon="2.27588">
        <ele>60</ele>
        <time>2015-12-14T20:29:13.000Z</time>
      </trkpt>
      <trkpt lat="48.85572" lon="2.27608">
        <ele>58.799999237061</ele>
        <time>2015-12-14T20:29:17.000Z</time>
      </trkpt>
      <trkpt lat="48.85561" lon="2.2763">
        <ele>58.599998474121</ele>
        <time>2015-12-14T20:29:20.000Z</time>
      </trkpt>
      <trkpt lat="48.85553" lon="2.27646">
        <ele>58.799999237061</ele>
        <time>2015-12-14T20:29:23.000Z</time>
      </trkpt>
      <trkpt lat="48.85549" lon="2.27659">
        <ele>59.200000762939</ele>
        <time>2015-12-14T20:29:26.000Z</time>
      </trkpt>
      <trkpt lat="48.8553" lon="2.27672">
        <ele>58.400001525879</ele>
        <time>2015-12-14T20:29:52.000Z</time>
      </trkpt>
      <trkpt lat="48.85519" lon="2.27694">
        <ele>57.400001525879</ele>
        <time>2015-12-14T20:29:58.000Z</time>
      </trkpt>
      <trkpt lat="48.85506" lon="2.27716">
        <ele>56.799999237061</ele>
        <time>2015-12-14T20:30:06.000Z</time>
      </trkpt>
      <trkpt lat="48.8549" lon="2.27735">
        <ele>56.799999237061</ele>
        <time>2015-12-14T20:30:13.000Z</time>
      </trkpt>
      <trkpt lat="48.85476" lon="2.27754">
        <ele>57.400001525879</ele>
        <time>2015-12-14T20:30:19.000Z</time>
      </trkpt>
      <trkpt lat="48.8546" lon="2.27771">
        <ele>57.799999237061</ele>
        <time>2015-12-14T20:30:26.000Z</time>
      </trkpt>
      <trkpt lat="48.85442" lon="2.27785">
        <ele>56.200000762939</ele>
        <time>2015-12-14T20:30:33.000Z</time>
      </trkpt>
      <trkpt lat="48.85438" lon="2.27799">
        <ele>55.599998474121</ele>
        <time>2015-12-14T20:30:38.000Z</time>
      </trkpt>
      <trkpt lat="48.85436" lon="2.27828">
        <ele>54.599998474121</ele>
        <time>2015-12-14T20:30:45.000Z</time>
      </trkpt>
      <trkpt lat="48.85444" lon="2.27853">
        <ele>54.599998474121</ele>
        <time>2015-12-14T20:30:51.000Z</time>
      </trkpt>
      <trkpt lat="48.85445" lon="2.27863">
        <ele>54.400001525879</ele>
        <time>2015-12-14T20:30:53.000Z</time>
      </trkpt>
      <trkpt lat="48.85449" lon="2.27894">
        <ele>53.400001525879</ele>
        <time>2015-12-14T20:31:00.000Z</time>
      </trkpt>
      <trkpt lat="48.85454" lon="2.27924">
        <ele>52.799999237061</ele>
        <time>2015-12-14T20:31:07.000Z</time>
      </trkpt>
      <trkpt lat="48.85457" lon="2.27934">
        <ele>53</ele>
        <time>2015-12-14T20:31:12.000Z</time>
      </trkpt>
      <trkpt lat="48.85469" lon="2.27956">
        <ele>54.200000762939</ele>
        <time>2015-12-14T20:31:21.000Z</time>
      </trkpt>
      <trkpt lat="48.85484" lon="2.27974">
        <ele>55.799999237061</ele>
        <time>2015-12-14T20:31:32.000Z</time>
      </trkpt>
      <trkpt lat="48.85488" lon="2.27983">
        <ele>56.200000762939</ele>
        <time>2015-12-14T20:31:38.000Z</time>
      </trkpt>
      <trkpt lat="48.85483" lon="2.28009">
        <ele>55</ele>
        <time>2015-12-14T20:31:48.000Z</time>
      </trkpt>
      <trkpt lat="48.85491" lon="2.28037">
        <ele>54.200000762939</ele>
        <time>2015-12-14T20:31:53.000Z</time>
      </trkpt>
      <trkpt lat="48.85498" lon="2.28063">
        <ele>54.200000762939</ele>
        <time>2015-12-14T20:32:01.000Z</time>
      </trkpt>
      <trkpt lat="48.855" lon="2.28067">
        <ele>54.200000762939</ele>
        <time>2015-12-14T20:32:03.000Z</time>
      </trkpt>
      <trkpt lat="48.85503" lon="2.28084">
        <ele>54.200000762939</ele>
        <time>2015-12-14T20:33:01.000Z</time>
      </trkpt>
      <trkpt lat="48.85509" lon="2.28095">
        <ele>52.799999237061</ele>
        <time>2015-12-14T20:33:09.000Z</time>
      </trkpt>
      <trkpt lat="48.85511" lon="2.28096">
        <ele>52.599998474121</ele>
        <time>2015-12-14T20:33:13.000Z</time>
      </trkpt>
      <trkpt lat="48.8552" lon="2.28114">
        <ele>50.400001525879</ele>
        <time>2015-12-14T20:33:44.000Z</time>
      </trkpt>
      <trkpt lat="48.85523" lon="2.28118">
        <ele>50</ele>
        <time>2015-12-14T20:33:48.000Z</time>
      </trkpt>
      <trkpt lat="48.85527" lon="2.28137">
        <ele>48.400001525879</ele>
        <time>2015-12-14T20:34:13.000Z</time>
      </trkpt>
      <trkpt lat="48.8553" lon="2.28139">
        <ele>48.599998474121</ele>
        <time>2015-12-14T20:34:18.000Z</time>
      </trkpt>
      <trkpt lat="48.85534" lon="2.28148">
        <ele>48.200000762939</ele>
        <time>2015-12-14T20:34:30.000Z</time>
      </trkpt>
      <trkpt lat="48.85542" lon="2.28148">
        <ele>49.599998474121</ele>
        <time>2015-12-14T20:34:48.000Z</time>
      </trkpt>
      <trkpt lat="48.85543" lon="2.28149">
        <ele>49.799999237061</ele>
        <time>2015-12-14T20:34:52.000Z</time>
      </trkpt>
      <trkpt lat="48.85558" lon="2.28162">
        <ele>51</ele>
        <time>2015-12-14T20:35:37.000Z</time>
      </trkpt>
      <trkpt lat="48.85565" lon="2.2817">
        <ele>50.799999237061</ele>
        <time>2015-12-14T20:36:06.000Z</time>
      </trkpt>
      <trkpt lat="48.85562" lon="2.28176">
        <ele>49.400001525879</ele>
        <time>2015-12-14T20:36:11.000Z</time>
      </trkpt>
      <trkpt lat="48.85563" lon="2.28189">
        <ele>47.400001525879</ele>
        <time>2015-12-14T20:36:58.000Z</time>
      </trkpt>
      <trkpt lat="48.85547" lon="2.28211">
        <ele>44</ele>
        <time>2015-12-14T20:37:03.000Z</time>
      </trkpt>
      <trkpt lat="48.85534" lon="2.28232">
        <ele>43</ele>
        <time>2015-12-14T20:37:07.000Z</time>
      </trkpt>
      <trkpt lat="48.85522" lon="2.28248">
        <ele>42</ele>
        <time>2015-12-14T20:37:11.000Z</time>
      </trkpt>
      <trkpt lat="48.85505" lon="2.28239">
        <ele>41.200000762939</ele>
        <time>2015-12-14T20:37:20.000Z</time>
      </trkpt>
      <trkpt lat="48.85493" lon="2.28214">
        <ele>41.599998474121</ele>
        <time>2015-12-14T20:37:26.000Z</time>
      </trkpt>
      <trkpt lat="48.85484" lon="2.28188">
        <ele>42</ele>
        <time>2015-12-14T20:37:33.000Z</time>
      </trkpt>
      <trkpt lat="48.85466" lon="2.28173">
        <ele>41.799999237061</ele>
        <time>2015-12-14T20:37:38.000Z</time>
      </trkpt>
      <trkpt lat="48.85464" lon="2.2817">
        <ele>41.799999237061</ele>
        <time>2015-12-14T20:37:39.000Z</time>
      </trkpt>
      <trkpt lat="48.85455" lon="2.28145">
        <ele>44.400001525879</ele>
        <time>2015-12-14T20:37:45.000Z</time>
      </trkpt>
      <trkpt lat="48.85453" lon="2.28133">
        <ele>46.200000762939</ele>
        <time>2015-12-14T20:37:48.000Z</time>
      </trkpt>
      <trkpt lat="48.85452" lon="2.28128">
        <ele>47</ele>
        <time>2015-12-14T20:37:50.000Z</time>
      </trkpt>
      <trkpt lat="48.85436" lon="2.28107">
        <ele>49.599998474121</ele>
        <time>2015-12-14T20:38:02.000Z</time>
      </trkpt>
      <trkpt lat="48.85418" lon="2.28091">
        <ele>51.200000762939</ele>
        <time>2015-12-14T20:38:07.000Z</time>
      </trkpt>
      <trkpt lat="48.85399" lon="2.28077">
        <ele>51.799999237061</ele>
        <time>2015-12-14T20:38:11.000Z</time>
      </trkpt>
      <trkpt lat="48.85383" lon="2.28057">
        <ele>49.599998474121</ele>
        <time>2015-12-14T20:38:15.000Z</time>
      </trkpt>
      <trkpt lat="48.85367" lon="2.28043">
        <ele>47.799999237061</ele>
        <time>2015-12-14T20:38:19.000Z</time>
      </trkpt>
      <trkpt lat="48.85363" lon="2.28034">
        <ele>47</ele>
        <time>2015-12-14T20:38:22.000Z</time>
      </trkpt>
      <trkpt lat="48.85368" lon="2.28021">
        <ele>46.400001525879</ele>
        <time>2015-12-14T20:38:27.000Z</time>
      </trkpt>
      <trkpt lat="48.85383" lon="2.28003">
        <ele>46.599998474121</ele>
        <time>2015-12-14T20:38:36.000Z</time>
      </trkpt>
      <trkpt lat="48.85399" lon="2.27987">
        <ele>47.400001525879</ele>
        <time>2015-12-14T20:38:41.000Z</time>
      </trkpt>
      <trkpt lat="48.85414" lon="2.27969">
        <ele>48.599998474121</ele>
        <time>2015-12-14T20:38:48.000Z</time>
      </trkpt>
      <trkpt lat="48.85415" lon="2.27969">
        <ele>48.599998474121</ele>
        <time>2015-12-14T20:38:49.000Z</time>
      </trkpt>
      <trkpt lat="48.85431" lon="2.27958">
        <ele>50.200000762939</ele>
        <time>2015-12-14T20:39:23.000Z</time>
      </trkpt>
      <trkpt lat="48.85442" lon="2.27953">
        <ele>51.400001525879</ele>
        <time>2015-12-14T20:39:28.000Z</time>
      </trkpt>
      <trkpt lat="48.85446" lon="2.27926">
        <ele>51.799999237061</ele>
        <time>2015-12-14T20:39:37.000Z</time>
      </trkpt>
      <trkpt lat="48.85442" lon="2.27898">
        <ele>52.200000762939</ele>
        <time>2015-12-14T20:39:43.000Z</time>
      </trkpt>
      <trkpt lat="48.85442" lon="2.27896">
        <ele>52.200000762939</ele>
        <time>2015-12-14T20:39:44.000Z</time>
      </trkpt>
      <trkpt lat="48.8544" lon="2.27881">
        <ele>52.799999237061</ele>
        <time>2015-12-14T20:39:49.000Z</time>
      </trkpt>
      <trkpt lat="48.85444" lon="2.27875">
        <ele>53.599998474121</ele>
        <time>2015-12-14T20:39:52.000Z</time>
      </trkpt>
      <trkpt lat="48.85433" lon="2.27852">
        <ele>53.200000762939</ele>
        <time>2015-12-14T20:40:13.000Z</time>
      </trkpt>
      <trkpt lat="48.85421" lon="2.27828">
        <ele>52.799999237061</ele>
        <time>2015-12-14T20:40:20.000Z</time>
      </trkpt>
      <trkpt lat="48.85408" lon="2.27808">
        <ele>51.599998474121</ele>
        <time>2015-12-14T20:40:25.000Z</time>
      </trkpt>
      <trkpt lat="48.854" lon="2.27795">
        <ele>50.599998474121</ele>
        <time>2015-12-14T20:40:30.000Z</time>
      </trkpt>
      <trkpt lat="48.85391" lon="2.27781">
        <ele>49.799999237061</ele>
        <time>2015-12-14T20:41:03.000Z</time>
      </trkpt>
      <trkpt lat="48.85375" lon="2.27762">
        <ele>48.200000762939</ele>
        <time>2015-12-14T20:41:07.000Z</time>
      </trkpt>
      <trkpt lat="48.85359" lon="2.27738">
        <ele>46.200000762939</ele>
        <time>2015-12-14T20:41:11.000Z</time>
      </trkpt>
      <trkpt lat="48.85345" lon="2.27709">
        <ele>44.599998474121</ele>
        <time>2015-12-14T20:41:15.000Z</time>
      </trkpt>
      <trkpt lat="48.85333" lon="2.27688">
        <ele>43.599998474121</ele>
        <time>2015-12-14T20:41:18.000Z</time>
      </trkpt>
      <trkpt lat="48.85319" lon="2.27668">
        <ele>42.400001525879</ele>
        <time>2015-12-14T20:41:21.000Z</time>
      </trkpt>
      <trkpt lat="48.85305" lon="2.2765">
        <ele>41.400001525879</ele>
        <time>2015-12-14T20:41:24.000Z</time>
      </trkpt>
      <trkpt lat="48.8529" lon="2.27632">
        <ele>40.400001525879</ele>
        <time>2015-12-14T20:41:28.000Z</time>
      </trkpt>
      <trkpt lat="48.85279" lon="2.27616">
        <ele>39.799999237061</ele>
        <time>2015-12-14T20:41:34.000Z</time>
      </trkpt>
      <trkpt lat="48.85275" lon="2.27609">
        <ele>39.400001525879</ele>
        <time>2015-12-14T20:41:38.000Z</time>
      </trkpt>
      <trkpt lat="48.85275" lon="2.27606">
        <ele>39.400001525879</ele>
        <time>2015-12-14T20:41:42.000Z</time>
      </trkpt>
      <trkpt lat="48.85282" lon="2.27604">
        <ele>39.799999237061</ele>
        <time>2015-12-14T20:43:25.000Z</time>
      </trkpt>
      <trkpt lat="48.8529" lon="2.27597">
        <ele>40</ele>
        <time>2015-12-14T20:44:21.000Z</time>
      </trkpt>
      <trkpt lat="48.85303" lon="2.27576">
        <ele>40.799999237061</ele>
        <time>2015-12-14T20:44:27.000Z</time>
      </trkpt>
      <trkpt lat="48.8532" lon="2.27561">
        <ele>41.799999237061</ele>
        <time>2015-12-14T20:44:32.000Z</time>
      </trkpt>
      <trkpt lat="48.85328" lon="2.27535">
        <ele>42</ele>
        <time>2015-12-14T20:44:38.000Z</time>
      </trkpt>
      <trkpt lat="48.85332" lon="2.27506">
        <ele>41.400001525879</ele>
        <time>2015-12-14T20:44:45.000Z</time>
      </trkpt>
      <trkpt lat="48.85338" lon="2.27475">
        <ele>41.599998474121</ele>
        <time>2015-12-14T20:44:50.000Z</time>
      </trkpt>
      <trkpt lat="48.85342" lon="2.27442">
        <ele>42.599998474121</ele>
        <time>2015-12-14T20:44:55.000Z</time>
      </trkpt>
      <trkpt lat="48.85347" lon="2.27414">
        <ele>43.599998474121</ele>
        <time>2015-12-14T20:44:59.000Z</time>
      </trkpt>
      <trkpt lat="48.85353" lon="2.27385">
        <ele>43.599998474121</ele>
        <time>2015-12-14T20:45:03.000Z</time>
      </trkpt>
      <trkpt lat="48.85361" lon="2.27357">
        <ele>44.400001525879</ele>
        <time>2015-12-14T20:45:07.000Z</time>
      </trkpt>
      <trkpt lat="48.8537" lon="2.27332">
        <ele>45.200000762939</ele>
        <time>2015-12-14T20:45:11.000Z</time>
      </trkpt>
      <trkpt lat="48.85377" lon="2.27306">
        <ele>46</ele>
        <time>2015-12-14T20:45:15.000Z</time>
      </trkpt>
      <trkpt lat="48.85383" lon="2.27287">
        <ele>46.799999237061</ele>
        <time>2015-12-14T20:45:18.000Z</time>
      </trkpt>
      <trkpt lat="48.85385" lon="2.27253">
        <ele>45.799999237061</ele>
        <time>2015-12-14T20:45:22.000Z</time>
      </trkpt>
      <trkpt lat="48.85393" lon="2.27224">
        <ele>47</ele>
        <time>2015-12-14T20:45:27.000Z</time>
      </trkpt>
      <trkpt lat="48.85394" lon="2.27214">
        <ele>47.799999237061</ele>
        <time>2015-12-14T20:45:29.000Z</time>
      </trkpt>
      <trkpt lat="48.85395" lon="2.27206">
        <ele>48.400001525879</ele>
        <time>2015-12-14T20:45:31.000Z</time>
      </trkpt>
      <trkpt lat="48.85394" lon="2.27175">
        <ele>49.599998474121</ele>
        <time>2015-12-14T20:45:47.000Z</time>
      </trkpt>
      <trkpt lat="48.85408" lon="2.27154">
        <ele>49.799999237061</ele>
        <time>2015-12-14T20:45:54.000Z</time>
      </trkpt>
      <trkpt lat="48.85422" lon="2.27132">
        <ele>50.400001525879</ele>
        <time>2015-12-14T20:45:58.000Z</time>
      </trkpt>
      <trkpt lat="48.8543" lon="2.271">
        <ele>52.599998474121</ele>
        <time>2015-12-14T20:46:02.000Z</time>
      </trkpt>
      <trkpt lat="48.85434" lon="2.27085">
        <ele>53.599998474121</ele>
        <time>2015-12-14T20:46:04.000Z</time>
      </trkpt>
      <trkpt lat="48.85438" lon="2.2707">
        <ele>54</ele>
        <time>2015-12-14T20:46:06.000Z</time>
      </trkpt>
      <trkpt lat="48.85447" lon="2.27045">
        <ele>54.400001525879</ele>
        <time>2015-12-14T20:46:13.000Z</time>
      </trkpt>
      <trkpt lat="48.85454" lon="2.27013">
        <ele>54.599998474121</ele>
        <time>2015-12-14T20:46:35.000Z</time>
      </trkpt>
      <trkpt lat="48.85463" lon="2.2699">
        <ele>55</ele>
        <time>2015-12-14T20:46:41.000Z</time>
      </trkpt>
      <trkpt lat="48.85461" lon="2.26976">
        <ele>55</ele>
        <time>2015-12-14T20:46:45.000Z</time>
      </trkpt>
      <trkpt lat="48.85476" lon="2.26953">
        <ele>55</ele>
        <time>2015-12-14T20:46:52.000Z</time>
      </trkpt>
      <trkpt lat="48.85478" lon="2.26946">
        <ele>55.200000762939</ele>
        <time>2015-12-14T20:46:55.000Z</time>
      </trkpt>
      <trkpt lat="48.85488" lon="2.26922">
        <ele>56</ele>
        <time>2015-12-14T20:47:03.000Z</time>
      </trkpt>
      <trkpt lat="48.85502" lon="2.26902">
        <ele>56</ele>
        <time>2015-12-14T20:47:08.000Z</time>
      </trkpt>
      <trkpt lat="48.85504" lon="2.26876">
        <ele>55.200000762939</ele>
        <time>2015-12-14T20:47:10.000Z</time>
      </trkpt>
      <trkpt lat="48.85508" lon="2.26848">
        <ele>54.799999237061</ele>
        <time>2015-12-14T20:47:13.000Z</time>
      </trkpt>
      <trkpt lat="48.85516" lon="2.2682">
        <ele>54.599998474121</ele>
        <time>2015-12-14T20:47:18.000Z</time>
      </trkpt>
      <trkpt lat="48.85521" lon="2.26791">
        <ele>54</ele>
        <time>2015-12-14T20:47:23.000Z</time>
      </trkpt>
      <trkpt lat="48.85527" lon="2.26759">
        <ele>53.200000762939</ele>
        <time>2015-12-14T20:47:28.000Z</time>
      </trkpt>
      <trkpt lat="48.85532" lon="2.26738">
        <ele>53.599998474121</ele>
        <time>2015-12-14T20:47:32.000Z</time>
      </trkpt>
      <trkpt lat="48.85537" lon="2.26709">
        <ele>54.599998474121</ele>
        <time>2015-12-14T20:47:38.000Z</time>
      </trkpt>
      <trkpt lat="48.85547" lon="2.26684">
        <ele>55.599998474121</ele>
        <time>2015-12-14T20:47:43.000Z</time>
      </trkpt>
      <trkpt lat="48.8555" lon="2.26656">
        <ele>56</ele>
        <time>2015-12-14T20:47:47.000Z</time>
      </trkpt>
      <trkpt lat="48.85551" lon="2.26626">
        <ele>56.400001525879</ele>
        <time>2015-12-14T20:47:51.000Z</time>
      </trkpt>
      <trkpt lat="48.85559" lon="2.26598">
        <ele>57.599998474121</ele>
        <time>2015-12-14T20:47:55.000Z</time>
      </trkpt>
      <trkpt lat="48.85566" lon="2.26573">
        <ele>59.200000762939</ele>
        <time>2015-12-14T20:47:58.000Z</time>
      </trkpt>
      <trkpt lat="48.85575" lon="2.26548">
        <ele>60.200000762939</ele>
        <time>2015-12-14T20:48:01.000Z</time>
      </trkpt>
      <trkpt lat="48.85581" lon="2.26519">
        <ele>61.799999237061</ele>
        <time>2015-12-14T20:48:05.000Z</time>
      </trkpt>
      <trkpt lat="48.8558" lon="2.26516">
        <ele>61.799999237061</ele>
        <time>2015-12-14T20:48:06.000Z</time>
      </trkpt>
      <trkpt lat="48.85584" lon="2.26489">
        <ele>62.799999237061</ele>
        <time>2015-12-14T20:48:17.000Z</time>
      </trkpt>
      <trkpt lat="48.85577" lon="2.26464">
        <ele>61.400001525879</ele>
        <time>2015-12-14T20:48:40.000Z</time>
      </trkpt>
      <trkpt lat="48.85562" lon="2.26447">
        <ele>59.599998474121</ele>
        <time>2015-12-14T20:48:44.000Z</time>
      </trkpt>
      <trkpt lat="48.85542" lon="2.26431">
        <ele>57.200000762939</ele>
        <time>2015-12-14T20:48:48.000Z</time>
      </trkpt>
      <trkpt lat="48.85521" lon="2.26414">
        <ele>55.200000762939</ele>
        <time>2015-12-14T20:48:51.000Z</time>
      </trkpt>
      <trkpt lat="48.85504" lon="2.26399">
        <ele>56.200000762939</ele>
        <time>2015-12-14T20:48:54.000Z</time>
      </trkpt>
      <trkpt lat="48.85498" lon="2.26395">
        <ele>56.599998474121</ele>
        <time>2015-12-14T20:48:55.000Z</time>
      </trkpt>
      <trkpt lat="48.85478" lon="2.26383">
        <ele>58</ele>
        <time>2015-12-14T20:48:58.000Z</time>
      </trkpt>
      <trkpt lat="48.85457" lon="2.26367">
        <ele>59.400001525879</ele>
        <time>2015-12-14T20:49:01.000Z</time>
      </trkpt>
      <trkpt lat="48.85435" lon="2.26351">
        <ele>60.799999237061</ele>
        <time>2015-12-14T20:49:04.000Z</time>
      </trkpt>
      <trkpt lat="48.85413" lon="2.26338">
        <ele>61.400001525879</ele>
        <time>2015-12-14T20:49:07.000Z</time>
      </trkpt>
      <trkpt lat="48.85392" lon="2.26324">
        <ele>62</ele>
        <time>2015-12-14T20:49:10.000Z</time>
      </trkpt>
      <trkpt lat="48.85371" lon="2.26309">
        <ele>62</ele>
        <time>2015-12-14T20:49:13.000Z</time>
      </trkpt>
      <trkpt lat="48.8535" lon="2.26297">
        <ele>62.400001525879</ele>
        <time>2015-12-14T20:49:16.000Z</time>
      </trkpt>
      <trkpt lat="48.8533" lon="2.26287">
        <ele>63.200000762939</ele>
        <time>2015-12-14T20:49:19.000Z</time>
      </trkpt>
      <trkpt lat="48.85313" lon="2.26281">
        <ele>64.199996948242</ele>
        <time>2015-12-14T20:49:22.000Z</time>
      </trkpt>
      <trkpt lat="48.85308" lon="2.26283">
        <ele>64.599998474121</ele>
        <time>2015-12-14T20:49:23.000Z</time>
      </trkpt>
      <trkpt lat="48.85292" lon="2.26286">
        <ele>64.199996948242</ele>
        <time>2015-12-14T20:49:26.000Z</time>
      </trkpt>
      <trkpt lat="48.85279" lon="2.26284">
        <ele>64.199996948242</ele>
        <time>2015-12-14T20:49:30.000Z</time>
      </trkpt>
      <trkpt lat="48.85275" lon="2.26259">
        <ele>64.800003051758</ele>
        <time>2015-12-14T20:49:39.000Z</time>
      </trkpt>
      <trkpt lat="48.85274" lon="2.26255">
        <ele>64.800003051758</ele>
        <time>2015-12-14T20:49:40.000Z</time>
      </trkpt>
      <trkpt lat="48.85273" lon="2.26247">
        <ele>65</ele>
        <time>2015-12-14T20:49:44.000Z</time>
      </trkpt>
      <trkpt lat="48.85273" lon="2.26247">
        <ele>65</ele>
        <time>2015-12-14T20:49:45.000Z</time>
      </trkpt>
      <trkpt lat="48.85276" lon="2.26242">
        <ele>64.599998474121</ele>
        <time>2015-12-14T20:49:50.000Z</time>
      </trkpt>
      <trkpt lat="48.8527" lon="2.26262">
        <ele>64.400001525879</ele>
        <time>2015-12-14T20:50:08.000Z</time>
      </trkpt>
      <trkpt lat="48.85268" lon="2.2629">
        <ele>63.599998474121</ele>
        <time>2015-12-14T20:50:12.000Z</time>
      </trkpt>
      <trkpt lat="48.85263" lon="2.2632">
        <ele>62.599998474121</ele>
        <time>2015-12-14T20:50:16.000Z</time>
      </trkpt>
      <trkpt lat="48.85255" lon="2.26347">
        <ele>61.799999237061</ele>
        <time>2015-12-14T20:50:20.000Z</time>
      </trkpt>
      <trkpt lat="48.85246" lon="2.26373">
        <ele>60.799999237061</ele>
        <time>2015-12-14T20:50:24.000Z</time>
      </trkpt>
      <trkpt lat="48.85239" lon="2.26405">
        <ele>60.599998474121</ele>
        <time>2015-12-14T20:50:28.000Z</time>
      </trkpt>
      <trkpt lat="48.85236" lon="2.26413">
        <ele>60.599998474121</ele>
        <time>2015-12-14T20:50:29.000Z</time>
      </trkpt>
      <trkpt lat="48.85221" lon="2.2643">
        <ele>59.200000762939</ele>
        <time>2015-12-14T20:50:32.000Z</time>
      </trkpt>
      <trkpt lat="48.85216" lon="2.26435">
        <ele>58.599998474121</ele>
        <time>2015-12-14T20:50:33.000Z</time>
      </trkpt>
      <trkpt lat="48.85211" lon="2.26441">
        <ele>58.400001525879</ele>
        <time>2015-12-14T20:50:34.000Z</time>
      </trkpt>
      <trkpt lat="48.85194" lon="2.26457">
        <ele>58.400001525879</ele>
        <time>2015-12-14T20:50:37.000Z</time>
      </trkpt>
      <trkpt lat="48.8517" lon="2.26476">
        <ele>56.400001525879</ele>
        <time>2015-12-14T20:50:41.000Z</time>
      </trkpt>
      <trkpt lat="48.85154" lon="2.26494">
        <ele>55.799999237061</ele>
        <time>2015-12-14T20:50:45.000Z</time>
      </trkpt>
      <trkpt lat="48.85145" lon="2.26516">
        <ele>54.599998474121</ele>
        <time>2015-12-14T20:50:48.000Z</time>
      </trkpt>
      <trkpt lat="48.85132" lon="2.26524">
        <ele>53.599998474121</ele>
        <time>2015-12-14T20:50:52.000Z</time>
      </trkpt>
      <trkpt lat="48.85126" lon="2.26525">
        <ele>53.799999237061</ele>
        <time>2015-12-14T20:50:53.000Z</time>
      </trkpt>
      <trkpt lat="48.85107" lon="2.26543">
        <ele>54.200000762939</ele>
        <time>2015-12-14T20:50:57.000Z</time>
      </trkpt>
      <trkpt lat="48.85101" lon="2.26548">
        <ele>54</ele>
        <time>2015-12-14T20:50:58.000Z</time>
      </trkpt>
      <trkpt lat="48.85081" lon="2.26565">
        <ele>53.400001525879</ele>
        <time>2015-12-14T20:51:01.000Z</time>
      </trkpt>
      <trkpt lat="48.85062" lon="2.26578">
        <ele>52.799999237061</ele>
        <time>2015-12-14T20:51:04.000Z</time>
      </trkpt>
      <trkpt lat="48.85052" lon="2.26584">
        <ele>52.200000762939</ele>
        <time>2015-12-14T20:51:06.000Z</time>
      </trkpt>
      <trkpt lat="48.8504" lon="2.26588">
        <ele>51.599998474121</ele>
        <time>2015-12-14T20:51:09.000Z</time>
      </trkpt>
      <trkpt lat="48.8502" lon="2.26589">
        <ele>51</ele>
        <time>2015-12-14T20:51:13.000Z</time>
      </trkpt>
      <trkpt lat="48.85001" lon="2.26587">
        <ele>50.200000762939</ele>
        <time>2015-12-14T20:51:17.000Z</time>
      </trkpt>
      <trkpt lat="48.84977" lon="2.26583">
        <ele>49.400001525879</ele>
        <time>2015-12-14T20:51:22.000Z</time>
      </trkpt>
      <trkpt lat="48.8496" lon="2.26582">
        <ele>48.799999237061</ele>
        <time>2015-12-14T20:51:26.000Z</time>
      </trkpt>
      <trkpt lat="48.8494" lon="2.26584">
        <ele>48</ele>
        <time>2015-12-14T20:51:30.000Z</time>
      </trkpt>
      <trkpt lat="48.8492" lon="2.26587">
        <ele>48.599998474121</ele>
        <time>2015-12-14T20:51:34.000Z</time>
      </trkpt>
      <trkpt lat="48.84908" lon="2.26582">
        <ele>49.200000762939</ele>
        <time>2015-12-14T20:51:37.000Z</time>
      </trkpt>
      <trkpt lat="48.84903" lon="2.26586">
        <ele>49.400001525879</ele>
        <time>2015-12-14T20:51:39.000Z</time>
      </trkpt>
      <trkpt lat="48.8489" lon="2.26572">
        <ele>49.799999237061</ele>
        <time>2015-12-14T20:51:42.000Z</time>
      </trkpt>
      <trkpt lat="48.84886" lon="2.26542">
        <ele>50.400001525879</ele>
        <time>2015-12-14T20:51:46.000Z</time>
      </trkpt>
      <trkpt lat="48.84885" lon="2.26536">
        <ele>50.400001525879</ele>
        <time>2015-12-14T20:51:47.000Z</time>
      </trkpt>
      <trkpt lat="48.84878" lon="2.26509">
        <ele>51</ele>
        <time>2015-12-14T20:51:52.000Z</time>
      </trkpt>
      <trkpt lat="48.84877" lon="2.26504">
        <ele>51</ele>
        <time>2015-12-14T20:51:53.000Z</time>
      </trkpt>
      <trkpt lat="48.84876" lon="2.26493">
        <ele>51</ele>
        <time>2015-12-14T20:51:55.000Z</time>
      </trkpt>
      <trkpt lat="48.84874" lon="2.2647">
        <ele>50.799999237061</ele>
        <time>2015-12-14T20:51:59.000Z</time>
      </trkpt>
      <trkpt lat="48.84872" lon="2.26448">
        <ele>50.599998474121</ele>
        <time>2015-12-14T20:52:03.000Z</time>
      </trkpt>
      <trkpt lat="48.8487" lon="2.26421">
        <ele>50.200000762939</ele>
        <time>2015-12-14T20:52:07.000Z</time>
      </trkpt>
      <trkpt lat="48.84868" lon="2.2639">
        <ele>49.799999237061</ele>
        <time>2015-12-14T20:52:11.000Z</time>
      </trkpt>
      <trkpt lat="48.84867" lon="2.26357">
        <ele>49.799999237061</ele>
        <time>2015-12-14T20:52:14.000Z</time>
      </trkpt>
      <trkpt lat="48.84867" lon="2.2632">
        <ele>49.799999237061</ele>
        <time>2015-12-14T20:52:17.000Z</time>
      </trkpt>
      <trkpt lat="48.84864" lon="2.26296">
        <ele>49.400001525879</ele>
        <time>2015-12-14T20:52:19.000Z</time>
      </trkpt>
      <trkpt lat="48.84858" lon="2.26258">
        <ele>49</ele>
        <time>2015-12-14T20:52:22.000Z</time>
      </trkpt>
      <trkpt lat="48.84852" lon="2.26223">
        <ele>49.400001525879</ele>
        <time>2015-12-14T20:52:25.000Z</time>
      </trkpt>
      <trkpt lat="48.84846" lon="2.26186">
        <ele>50</ele>
        <time>2015-12-14T20:52:28.000Z</time>
      </trkpt>
      <trkpt lat="48.84846" lon="2.26156">
        <ele>50.400001525879</ele>
        <time>2015-12-14T20:52:30.000Z</time>
      </trkpt>
      <trkpt lat="48.84845" lon="2.2612">
        <ele>51.200000762939</ele>
        <time>2015-12-14T20:52:33.000Z</time>
      </trkpt>
      <trkpt lat="48.84843" lon="2.26102">
        <ele>51.599998474121</ele>
        <time>2015-12-14T20:52:35.000Z</time>
      </trkpt>
      <trkpt lat="48.84843" lon="2.26076">
        <ele>52.200000762939</ele>
        <time>2015-12-14T20:52:39.000Z</time>
      </trkpt>
      <trkpt lat="48.8485" lon="2.26053">
        <ele>51.200000762939</ele>
        <time>2015-12-14T20:53:07.000Z</time>
      </trkpt>
      <trkpt lat="48.84845" lon="2.26051">
        <ele>51.400001525879</ele>
        <time>2015-12-14T20:53:20.000Z</time>
      </trkpt>
      <trkpt lat="48.84827" lon="2.26044">
        <ele>51.799999237061</ele>
        <time>2015-12-14T20:53:28.000Z</time>
      </trkpt>
      <trkpt lat="48.84807" lon="2.26034">
        <ele>52</ele>
        <time>2015-12-14T20:53:35.000Z</time>
      </trkpt>
      <trkpt lat="48.84796" lon="2.26027">
        <ele>52</ele>
        <time>2015-12-14T20:53:42.000Z</time>
      </trkpt>
      <trkpt lat="48.84792" lon="2.26018">
        <ele>52</ele>
        <time>2015-12-14T20:53:56.000Z</time>
      </trkpt>
      <trkpt lat="48.84794" lon="2.26026">
        <ele>52.200000762939</ele>
        <time>2015-12-14T20:54:07.000Z</time>
      </trkpt>
      <trkpt lat="48.84794" lon="2.26057">
        <ele>52.400001525879</ele>
        <time>2015-12-14T20:54:12.000Z</time>
      </trkpt>
      <trkpt lat="48.84791" lon="2.26087">
        <ele>52.599998474121</ele>
        <time>2015-12-14T20:54:17.000Z</time>
      </trkpt>
      <trkpt lat="48.84789" lon="2.26117">
        <ele>52.400001525879</ele>
        <time>2015-12-14T20:54:21.000Z</time>
      </trkpt>
      <trkpt lat="48.84789" lon="2.26145">
        <ele>52.400001525879</ele>
        <time>2015-12-14T20:54:24.000Z</time>
      </trkpt>
      <trkpt lat="48.8479" lon="2.26175">
        <ele>52.200000762939</ele>
        <time>2015-12-14T20:54:27.000Z</time>
      </trkpt>
      <trkpt lat="48.84793" lon="2.26206">
        <ele>51.200000762939</ele>
        <time>2015-12-14T20:54:30.000Z</time>
      </trkpt>
      <trkpt lat="48.84793" lon="2.26235">
        <ele>50.200000762939</ele>
        <time>2015-12-14T20:54:33.000Z</time>
      </trkpt>
      <trkpt lat="48.84793" lon="2.26272">
        <ele>50.400001525879</ele>
        <time>2015-12-14T20:54:37.000Z</time>
      </trkpt>
      <trkpt lat="48.84795" lon="2.26297">
        <ele>51</ele>
        <time>2015-12-14T20:54:40.000Z</time>
      </trkpt>
      <trkpt lat="48.84793" lon="2.26329">
        <ele>51.799999237061</ele>
        <time>2015-12-14T20:54:44.000Z</time>
      </trkpt>
      <trkpt lat="48.84794" lon="2.26336">
        <ele>51.799999237061</ele>
        <time>2015-12-14T20:54:45.000Z</time>
      </trkpt>
      <trkpt lat="48.848" lon="2.26366">
        <ele>51.799999237061</ele>
        <time>2015-12-14T20:54:49.000Z</time>
      </trkpt>
      <trkpt lat="48.848" lon="2.2638">
        <ele>52</ele>
        <time>2015-12-14T20:54:51.000Z</time>
      </trkpt>
      <trkpt lat="48.8481" lon="2.26413">
        <ele>52.200000762939</ele>
        <time>2015-12-14T20:54:54.000Z</time>
      </trkpt>
      <trkpt lat="48.8481" lon="2.26429">
        <ele>52.400001525879</ele>
        <time>2015-12-14T20:54:56.000Z</time>
      </trkpt>
      <trkpt lat="48.84806" lon="2.26452">
        <ele>52.200000762939</ele>
        <time>2015-12-14T20:54:59.000Z</time>
      </trkpt>
      <trkpt lat="48.848" lon="2.26473">
        <ele>50.200000762939</ele>
        <time>2015-12-14T20:55:02.000Z</time>
      </trkpt>
      <trkpt lat="48.84791" lon="2.26501">
        <ele>48</ele>
        <time>2015-12-14T20:55:06.000Z</time>
      </trkpt>
      <trkpt lat="48.84789" lon="2.26508">
        <ele>47.799999237061</ele>
        <time>2015-12-14T20:55:07.000Z</time>
      </trkpt>
      <trkpt lat="48.84778" lon="2.26536">
        <ele>47.599998474121</ele>
        <time>2015-12-14T20:55:11.000Z</time>
      </trkpt>
      <trkpt lat="48.84769" lon="2.26562">
        <ele>47.799999237061</ele>
        <time>2015-12-14T20:55:15.000Z</time>
      </trkpt>
      <trkpt lat="48.84764" lon="2.26575">
        <ele>47.799999237061</ele>
        <time>2015-12-14T20:55:17.000Z</time>
      </trkpt>
      <trkpt lat="48.84755" lon="2.26597">
        <ele>47.599998474121</ele>
        <time>2015-12-14T20:55:21.000Z</time>
      </trkpt>
      <trkpt lat="48.84747" lon="2.26626">
        <ele>47.400001525879</ele>
        <time>2015-12-14T20:55:25.000Z</time>
      </trkpt>
      <trkpt lat="48.84757" lon="2.26671">
        <ele>47.400001525879</ele>
        <time>2015-12-14T20:55:27.000Z</time>
      </trkpt>
      <trkpt lat="48.84759" lon="2.267">
        <ele>47.599998474121</ele>
        <time>2015-12-14T20:55:29.000Z</time>
      </trkpt>
      <trkpt lat="48.84759" lon="2.26738">
        <ele>47.400001525879</ele>
        <time>2015-12-14T20:55:32.000Z</time>
      </trkpt>
      <trkpt lat="48.8476" lon="2.26772">
        <ele>47.400001525879</ele>
        <time>2015-12-14T20:55:35.000Z</time>
      </trkpt>
      <trkpt lat="48.84762" lon="2.26805">
        <ele>47.400001525879</ele>
        <time>2015-12-14T20:55:38.000Z</time>
      </trkpt>
      <trkpt lat="48.84761" lon="2.26834">
        <ele>47.400001525879</ele>
        <time>2015-12-14T20:55:41.000Z</time>
      </trkpt>
      <trkpt lat="48.84763" lon="2.26843">
        <ele>47.400001525879</ele>
        <time>2015-12-14T20:55:42.000Z</time>
      </trkpt>
      <trkpt lat="48.84765" lon="2.26866">
        <ele>47.200000762939</ele>
        <time>2015-12-14T20:55:45.000Z</time>
      </trkpt>
      <trkpt lat="48.84763" lon="2.26884">
        <ele>47</ele>
        <time>2015-12-14T20:55:49.000Z</time>
      </trkpt>
      <trkpt lat="48.84755" lon="2.26889">
        <ele>46.400001525879</ele>
        <time>2015-12-14T20:55:55.000Z</time>
      </trkpt>
      <trkpt lat="48.84755" lon="2.26889">
        <ele>46.400001525879</ele>
        <time>2015-12-14T20:55:56.000Z</time>
      </trkpt>
      <trkpt lat="48.84754" lon="2.26911">
        <ele>46.200000762939</ele>
        <time>2015-12-14T20:56:26.000Z</time>
      </trkpt>
      <trkpt lat="48.8477" lon="2.26927">
        <ele>46.599998474121</ele>
        <time>2015-12-14T20:56:31.000Z</time>
      </trkpt>
      <trkpt lat="48.84784" lon="2.26944">
        <ele>47.200000762939</ele>
        <time>2015-12-14T20:56:35.000Z</time>
      </trkpt>
      <trkpt lat="48.84798" lon="2.26963">
        <ele>47.599998474121</ele>
        <time>2015-12-14T20:56:39.000Z</time>
      </trkpt>
      <trkpt lat="48.84814" lon="2.26981">
        <ele>48.200000762939</ele>
        <time>2015-12-14T20:56:44.000Z</time>
      </trkpt>
      <trkpt lat="48.84834" lon="2.27003">
        <ele>48.799999237061</ele>
        <time>2015-12-14T20:56:49.000Z</time>
      </trkpt>
      <trkpt lat="48.84852" lon="2.27019">
        <ele>49</ele>
        <time>2015-12-14T20:56:53.000Z</time>
      </trkpt>
      <trkpt lat="48.84868" lon="2.27036">
        <ele>48</ele>
        <time>2015-12-14T20:56:57.000Z</time>
      </trkpt>
      <trkpt lat="48.84886" lon="2.27058">
        <ele>46.400001525879</ele>
        <time>2015-12-14T20:57:01.000Z</time>
      </trkpt>
      <trkpt lat="48.84903" lon="2.27081">
        <ele>44.799999237061</ele>
        <time>2015-12-14T20:57:05.000Z</time>
      </trkpt>
      <trkpt lat="48.84919" lon="2.27099">
        <ele>44</ele>
        <time>2015-12-14T20:57:08.000Z</time>
      </trkpt>
      <trkpt lat="48.84938" lon="2.27116">
        <ele>43</ele>
        <time>2015-12-14T20:57:12.000Z</time>
      </trkpt>
      <trkpt lat="48.84959" lon="2.2713">
        <ele>43.400001525879</ele>
        <time>2015-12-14T20:57:16.000Z</time>
      </trkpt>
      <trkpt lat="48.84975" lon="2.2715">
        <ele>43.799999237061</ele>
        <time>2015-12-14T20:57:20.000Z</time>
      </trkpt>
      <trkpt lat="48.84978" lon="2.27155">
        <ele>44</ele>
        <time>2015-12-14T20:57:21.000Z</time>
      </trkpt>
      <trkpt lat="48.84983" lon="2.27166">
        <ele>44.200000762939</ele>
        <time>2015-12-14T20:57:23.000Z</time>
      </trkpt>
      <trkpt lat="48.84992" lon="2.27188">
        <ele>45.200000762939</ele>
        <time>2015-12-14T20:57:27.000Z</time>
      </trkpt>
      <trkpt lat="48.85" lon="2.27209">
        <ele>46.200000762939</ele>
        <time>2015-12-14T20:57:31.000Z</time>
      </trkpt>
      <trkpt lat="48.8501" lon="2.27242">
        <ele>47.400001525879</ele>
        <time>2015-12-14T20:57:35.000Z</time>
      </trkpt>
      <trkpt lat="48.85019" lon="2.27269">
        <ele>46.400001525879</ele>
        <time>2015-12-14T20:57:39.000Z</time>
      </trkpt>
      <trkpt lat="48.8503" lon="2.27299">
        <ele>45</ele>
        <time>2015-12-14T20:57:43.000Z</time>
      </trkpt>
      <trkpt lat="48.85034" lon="2.27313">
        <ele>44.200000762939</ele>
        <time>2015-12-14T20:57:45.000Z</time>
      </trkpt>
      <trkpt lat="48.85045" lon="2.27343">
        <ele>43.599998474121</ele>
        <time>2015-12-14T20:57:49.000Z</time>
      </trkpt>
      <trkpt lat="48.85056" lon="2.27373">
        <ele>43.799999237061</ele>
        <time>2015-12-14T20:57:53.000Z</time>
      </trkpt>
      <trkpt lat="48.85069" lon="2.27403">
        <ele>44.200000762939</ele>
        <time>2015-12-14T20:57:57.000Z</time>
      </trkpt>
      <trkpt lat="48.85081" lon="2.27429">
        <ele>43.200000762939</ele>
        <time>2015-12-14T20:58:01.000Z</time>
      </trkpt>
      <trkpt lat="48.85095" lon="2.27453">
        <ele>41.799999237061</ele>
        <time>2015-12-14T20:58:06.000Z</time>
      </trkpt>
      <trkpt lat="48.8511" lon="2.27476">
        <ele>40.400001525879</ele>
        <time>2015-12-14T20:58:11.000Z</time>
      </trkpt>
      <trkpt lat="48.85117" lon="2.27481">
        <ele>39.799999237061</ele>
        <time>2015-12-14T20:58:15.000Z</time>
      </trkpt>
      <trkpt lat="48.85122" lon="2.2752">
        <ele>39.400001525879</ele>
        <time>2015-12-14T20:58:36.000Z</time>
      </trkpt>
      <trkpt lat="48.85127" lon="2.27548">
        <ele>39</ele>
        <time>2015-12-14T20:58:41.000Z</time>
      </trkpt>
      <trkpt lat="48.85131" lon="2.27578">
        <ele>38.599998474121</ele>
        <time>2015-12-14T20:58:46.000Z</time>
      </trkpt>
      <trkpt lat="48.85135" lon="2.27611">
        <ele>39.400001525879</ele>
        <time>2015-12-14T20:58:51.000Z</time>
      </trkpt>
      <trkpt lat="48.85137" lon="2.27639">
        <ele>40.200000762939</ele>
        <time>2015-12-14T20:58:56.000Z</time>
      </trkpt>
      <trkpt lat="48.85137" lon="2.27669">
        <ele>40.599998474121</ele>
        <time>2015-12-14T20:59:02.000Z</time>
      </trkpt>
      <trkpt lat="48.85139" lon="2.27696">
        <ele>39.400001525879</ele>
        <time>2015-12-14T20:59:07.000Z</time>
      </trkpt>
      <trkpt lat="48.85142" lon="2.27726">
        <ele>38.799999237061</ele>
        <time>2015-12-14T20:59:14.000Z</time>
      </trkpt>
      <trkpt lat="48.85144" lon="2.27755">
        <ele>38</ele>
        <time>2015-12-14T20:59:21.000Z</time>
      </trkpt>
      <trkpt lat="48.85149" lon="2.27774">
        <ele>37.599998474121</ele>
        <time>2015-12-14T20:59:29.000Z</time>
      </trkpt>
      <trkpt lat="48.85153" lon="2.27807">
        <ele>37</ele>
        <time>2015-12-14T20:59:35.000Z</time>
      </trkpt>
      <trkpt lat="48.85154" lon="2.27813">
        <ele>37</ele>
        <time>2015-12-14T20:59:37.000Z</time>
      </trkpt>
      <trkpt lat="48.85152" lon="2.27839">
        <ele>36.799999237061</ele>
        <time>2015-12-14T21:00:00.000Z</time>
      </trkpt>
      <trkpt lat="48.85161" lon="2.27871">
        <ele>36.599998474121</ele>
        <time>2015-12-14T21:00:07.000Z</time>
      </trkpt>
      <trkpt lat="48.85174" lon="2.279">
        <ele>36</ele>
        <time>2015-12-14T21:00:11.000Z</time>
      </trkpt>
      <trkpt lat="48.85185" lon="2.27925">
        <ele>35.200000762939</ele>
        <time>2015-12-14T21:00:14.000Z</time>
      </trkpt>
      <trkpt lat="48.852" lon="2.27947">
        <ele>35</ele>
        <time>2015-12-14T21:00:17.000Z</time>
      </trkpt>
      <trkpt lat="48.85218" lon="2.27967">
        <ele>35.200000762939</ele>
        <time>2015-12-14T21:00:20.000Z</time>
      </trkpt>
      <trkpt lat="48.85234" lon="2.27981">
        <ele>35.400001525879</ele>
        <time>2015-12-14T21:00:23.000Z</time>
      </trkpt>
      <trkpt lat="48.85238" lon="2.27988">
        <ele>35.400001525879</ele>
        <time>2015-12-14T21:00:24.000Z</time>
      </trkpt>
      <trkpt lat="48.85252" lon="2.28011">
        <ele>34.799999237061</ele>
        <time>2015-12-14T21:00:27.000Z</time>
      </trkpt>
      <trkpt lat="48.85263" lon="2.28037">
        <ele>34</ele>
        <time>2015-12-14T21:00:30.000Z</time>
      </trkpt>
      <trkpt lat="48.85267" lon="2.28046">
        <ele>33.599998474121</ele>
        <time>2015-12-14T21:00:31.000Z</time>
      </trkpt>
      <trkpt lat="48.85283" lon="2.28072">
        <ele>34.799999237061</ele>
        <time>2015-12-14T21:00:34.000Z</time>
      </trkpt>
      <trkpt lat="48.85298" lon="2.28099">
        <ele>35.200000762939</ele>
        <time>2015-12-14T21:00:37.000Z</time>
      </trkpt>
      <trkpt lat="48.85313" lon="2.28125">
        <ele>35.799999237061</ele>
        <time>2015-12-14T21:00:40.000Z</time>
      </trkpt>
      <trkpt lat="48.85326" lon="2.28151">
        <ele>37</ele>
        <time>2015-12-14T21:00:43.000Z</time>
      </trkpt>
      <trkpt lat="48.85343" lon="2.28178">
        <ele>37</ele>
        <time>2015-12-14T21:00:46.000Z</time>
      </trkpt>
      <trkpt lat="48.85357" lon="2.28206">
        <ele>35.400001525879</ele>
        <time>2015-12-14T21:00:49.000Z</time>
      </trkpt>
      <trkpt lat="48.85371" lon="2.28233">
        <ele>33.599998474121</ele>
        <time>2015-12-14T21:00:52.000Z</time>
      </trkpt>
      <trkpt lat="48.85386" lon="2.28257">
        <ele>33.200000762939</ele>
        <time>2015-12-14T21:00:55.000Z</time>
      </trkpt>
      <trkpt lat="48.85401" lon="2.28281">
        <ele>34.599998474121</ele>
        <time>2015-12-14T21:00:58.000Z</time>
      </trkpt>
      <trkpt lat="48.85415" lon="2.28303">
        <ele>36</ele>
        <time>2015-12-14T21:01:01.000Z</time>
      </trkpt>
      <trkpt lat="48.8543" lon="2.28325">
        <ele>36.799999237061</ele>
        <time>2015-12-14T21:01:04.000Z</time>
      </trkpt>
      <trkpt lat="48.85445" lon="2.28346">
        <ele>38.200000762939</ele>
        <time>2015-12-14T21:01:07.000Z</time>
      </trkpt>
      <trkpt lat="48.8545" lon="2.28352">
        <ele>38.599998474121</ele>
        <time>2015-12-14T21:01:08.000Z</time>
      </trkpt>
      <trkpt lat="48.85464" lon="2.28371">
        <ele>39.799999237061</ele>
        <time>2015-12-14T21:01:11.000Z</time>
      </trkpt>
      <trkpt lat="48.85469" lon="2.28377">
        <ele>40.200000762939</ele>
        <time>2015-12-14T21:01:12.000Z</time>
      </trkpt>
      <trkpt lat="48.85485" lon="2.28397">
        <ele>41.599998474121</ele>
        <time>2015-12-14T21:01:15.000Z</time>
      </trkpt>
      <trkpt lat="48.85502" lon="2.28416">
        <ele>43.200000762939</ele>
        <time>2015-12-14T21:01:18.000Z</time>
      </trkpt>
      <trkpt lat="48.85514" lon="2.28429">
        <ele>43.599998474121</ele>
        <time>2015-12-14T21:01:20.000Z</time>
      </trkpt>
      <trkpt lat="48.85529" lon="2.28452">
        <ele>43.400001525879</ele>
        <time>2015-12-14T21:01:23.000Z</time>
      </trkpt>
      <trkpt lat="48.8554" lon="2.28467">
        <ele>42.400001525879</ele>
        <time>2015-12-14T21:01:25.000Z</time>
      </trkpt>
      <trkpt lat="48.85557" lon="2.28491">
        <ele>40.799999237061</ele>
        <time>2015-12-14T21:01:28.000Z</time>
      </trkpt>
      <trkpt lat="48.85574" lon="2.28515">
        <ele>40.200000762939</ele>
        <time>2015-12-14T21:01:31.000Z</time>
      </trkpt>
      <trkpt lat="48.85591" lon="2.28536">
        <ele>39.799999237061</ele>
        <time>2015-12-14T21:01:34.000Z</time>
      </trkpt>
      <trkpt lat="48.85607" lon="2.28557">
        <ele>39.599998474121</ele>
        <time>2015-12-14T21:01:37.000Z</time>
      </trkpt>
      <trkpt lat="48.85623" lon="2.28576">
        <ele>40.799999237061</ele>
        <time>2015-12-14T21:01:40.000Z</time>
      </trkpt>
      <trkpt lat="48.8564" lon="2.28598">
        <ele>41.400001525879</ele>
        <time>2015-12-14T21:01:44.000Z</time>
      </trkpt>
      <trkpt lat="48.85657" lon="2.28619">
        <ele>41.599998474121</ele>
        <time>2015-12-14T21:01:48.000Z</time>
      </trkpt>
      <trkpt lat="48.85672" lon="2.28638">
        <ele>42</ele>
        <time>2015-12-14T21:01:53.000Z</time>
      </trkpt>
      <trkpt lat="48.85678" lon="2.28649">
        <ele>41.799999237061</ele>
        <time>2015-12-14T21:01:56.000Z</time>
      </trkpt>
      <trkpt lat="48.85688" lon="2.28662">
        <ele>41.799999237061</ele>
        <time>2015-12-14T21:02:00.000Z</time>
      </trkpt>
      <trkpt lat="48.85698" lon="2.28678">
        <ele>41.799999237061</ele>
        <time>2015-12-14T21:02:04.000Z</time>
      </trkpt>
      <trkpt lat="48.85707" lon="2.28689">
        <ele>41.799999237061</ele>
        <time>2015-12-14T21:02:07.000Z</time>
      </trkpt>
      <trkpt lat="48.85715" lon="2.28698">
        <ele>42</ele>
        <time>2015-12-14T21:02:10.000Z</time>
      </trkpt>
      <trkpt lat="48.85726" lon="2.28715">
        <ele>41.799999237061</ele>
        <time>2015-12-14T21:02:14.000Z</time>
      </trkpt>
      <trkpt lat="48.85741" lon="2.28737">
        <ele>41.400001525879</ele>
        <time>2015-12-14T21:02:18.000Z</time>
      </trkpt>
      <trkpt lat="48.85759" lon="2.28758">
        <ele>41.400001525879</ele>
        <time>2015-12-14T21:02:22.000Z</time>
      </trkpt>
      <trkpt lat="48.85773" lon="2.28777">
        <ele>40.599998474121</ele>
        <time>2015-12-14T21:02:26.000Z</time>
      </trkpt>
      <trkpt lat="48.85777" lon="2.28782">
        <ele>40.200000762939</ele>
        <time>2015-12-14T21:02:27.000Z</time>
      </trkpt>
      <trkpt lat="48.85794" lon="2.28802">
        <ele>39</ele>
        <time>2015-12-14T21:02:32.000Z</time>
      </trkpt>
      <trkpt lat="48.85801" lon="2.28812">
        <ele>38.200000762939</ele>
        <time>2015-12-14T21:02:34.000Z</time>
      </trkpt>
      <trkpt lat="48.85817" lon="2.28835">
        <ele>36.799999237061</ele>
        <time>2015-12-14T21:02:39.000Z</time>
      </trkpt>
      <trkpt lat="48.85823" lon="2.28843">
        <ele>36.799999237061</ele>
        <time>2015-12-14T21:02:41.000Z</time>
      </trkpt>
      <trkpt lat="48.85839" lon="2.28863">
        <ele>36.599998474121</ele>
        <time>2015-12-14T21:02:47.000Z</time>
      </trkpt>
      <trkpt lat="48.85847" lon="2.28878">
        <ele>36</ele>
        <time>2015-12-14T21:02:51.000Z</time>
      </trkpt>
      <trkpt lat="48.85852" lon="2.28889">
        <ele>35.200000762939</ele>
        <time>2015-12-14T21:02:54.000Z</time>
      </trkpt>
      <trkpt lat="48.85869" lon="2.28907">
        <ele>35</ele>
        <time>2015-12-14T21:03:01.000Z</time>
      </trkpt>
      <trkpt lat="48.85883" lon="2.28931">
        <ele>33.799999237061</ele>
        <time>2015-12-14T21:03:07.000Z</time>
      </trkpt>
      <trkpt lat="48.85897" lon="2.28952">
        <ele>33.200000762939</ele>
        <time>2015-12-14T21:03:12.000Z</time>
      </trkpt>
      <trkpt lat="48.85911" lon="2.28971">
        <ele>32.799999237061</ele>
        <time>2015-12-14T21:03:16.000Z</time>
      </trkpt>
      <trkpt lat="48.85928" lon="2.28992">
        <ele>32.400001525879</ele>
        <time>2015-12-14T21:03:21.000Z</time>
      </trkpt>
      <trkpt lat="48.85941" lon="2.29014">
        <ele>32.400001525879</ele>
        <time>2015-12-14T21:03:26.000Z</time>
      </trkpt>
      <trkpt lat="48.85955" lon="2.29033">
        <ele>32.200000762939</ele>
        <time>2015-12-14T21:03:31.000Z</time>
      </trkpt>
      <trkpt lat="48.85972" lon="2.29054">
        <ele>32.200000762939</ele>
        <time>2015-12-14T21:03:37.000Z</time>
      </trkpt>
      <trkpt lat="48.85988" lon="2.29073">
        <ele>32</ele>
        <time>2015-12-14T21:03:43.000Z</time>
      </trkpt>
      <trkpt lat="48.86002" lon="2.29093">
        <ele>31.60000038147</ele>
        <time>2015-12-14T21:03:49.000Z</time>
      </trkpt>
      <trkpt lat="48.86017" lon="2.2911">
        <ele>31</ele>
        <time>2015-12-14T21:03:56.000Z</time>
      </trkpt>
      <trkpt lat="48.86019" lon="2.29113">
        <ele>30.799999237061</ele>
        <time>2015-12-14T21:03:58.000Z</time>
      </trkpt>
      <trkpt lat="48.8603" lon="2.29123">
        <ele>30.799999237061</ele>
        <time>2015-12-14T21:05:18.000Z</time>
      </trkpt>
      <trkpt lat="48.86043" lon="2.29141">
        <ele>30.39999961853</ele>
        <time>2015-12-14T21:05:27.000Z</time>
      </trkpt>
      <trkpt lat="48.86058" lon="2.29161">
        <ele>29.799999237061</ele>
        <time>2015-12-14T21:05:35.000Z</time>
      </trkpt>
      <trkpt lat="48.86071" lon="2.29183">
        <ele>30.200000762939</ele>
        <time>2015-12-14T21:05:41.000Z</time>
      </trkpt>
      <trkpt lat="48.86087" lon="2.29203">
        <ele>30.60000038147</ele>
        <time>2015-12-14T21:05:47.000Z</time>
      </trkpt>
      <trkpt lat="48.861" lon="2.29222">
        <ele>31</ele>
        <time>2015-12-14T21:05:52.000Z</time>
      </trkpt>
      <trkpt lat="48.86114" lon="2.2924">
        <ele>31.60000038147</ele>
        <time>2015-12-14T21:05:56.000Z</time>
      </trkpt>
      <trkpt lat="48.86128" lon="2.29259">
        <ele>31.39999961853</ele>
        <time>2015-12-14T21:06:00.000Z</time>
      </trkpt>
      <trkpt lat="48.86143" lon="2.29276">
        <ele>31</ele>
        <time>2015-12-14T21:06:04.000Z</time>
      </trkpt>
      <trkpt lat="48.86158" lon="2.29294">
        <ele>30.60000038147</ele>
        <time>2015-12-14T21:06:08.000Z</time>
      </trkpt>
      <trkpt lat="48.86173" lon="2.29311">
        <ele>30.39999961853</ele>
        <time>2015-12-14T21:06:12.000Z</time>
      </trkpt>
      <trkpt lat="48.86188" lon="2.29332">
        <ele>30</ele>
        <time>2015-12-14T21:06:17.000Z</time>
      </trkpt>
      <trkpt lat="48.86202" lon="2.29351">
        <ele>31</ele>
        <time>2015-12-14T21:06:22.000Z</time>
      </trkpt>
      <trkpt lat="48.8621" lon="2.29361">
        <ele>31.799999237061</ele>
        <time>2015-12-14T21:06:25.000Z</time>
      </trkpt>
      <trkpt lat="48.86215" lon="2.29368">
        <ele>32.200000762939</ele>
        <time>2015-12-14T21:06:27.000Z</time>
      </trkpt>
      <trkpt lat="48.86227" lon="2.29384">
        <ele>33.200000762939</ele>
        <time>2015-12-14T21:06:31.000Z</time>
      </trkpt>
      <trkpt lat="48.86241" lon="2.29408">
        <ele>34.400001525879</ele>
        <time>2015-12-14T21:06:36.000Z</time>
      </trkpt>
      <trkpt lat="48.86255" lon="2.29431">
        <ele>34.599998474121</ele>
        <time>2015-12-14T21:06:41.000Z</time>
      </trkpt>
      <trkpt lat="48.86267" lon="2.29456">
        <ele>34.400001525879</ele>
        <time>2015-12-14T21:06:47.000Z</time>
      </trkpt>
      <trkpt lat="48.86277" lon="2.29485">
        <ele>33.799999237061</ele>
        <time>2015-12-14T21:06:53.000Z</time>
      </trkpt>
      <trkpt lat="48.86288" lon="2.29513">
        <ele>33.400001525879</ele>
        <time>2015-12-14T21:06:59.000Z</time>
      </trkpt>
      <trkpt lat="48.86295" lon="2.29538">
        <ele>33</ele>
        <time>2015-12-14T21:07:04.000Z</time>
      </trkpt>
      <trkpt lat="48.86303" lon="2.29565">
        <ele>32.799999237061</ele>
        <time>2015-12-14T21:07:10.000Z</time>
      </trkpt>
      <trkpt lat="48.8631" lon="2.29591">
        <ele>32.599998474121</ele>
        <time>2015-12-14T21:07:15.000Z</time>
      </trkpt>
      <trkpt lat="48.86317" lon="2.2962">
        <ele>32.599998474121</ele>
        <time>2015-12-14T21:07:21.000Z</time>
      </trkpt>
      <trkpt lat="48.8632" lon="2.29634">
        <ele>32.400001525879</ele>
        <time>2015-12-14T21:07:26.000Z</time>
      </trkpt>
      <trkpt lat="48.86328" lon="2.29658">
        <ele>32</ele>
        <time>2015-12-14T21:08:00.000Z</time>
      </trkpt>
      <trkpt lat="48.86333" lon="2.29685">
        <ele>32</ele>
        <time>2015-12-14T21:08:07.000Z</time>
      </trkpt>
      <trkpt lat="48.86338" lon="2.29714">
        <ele>32.400001525879</ele>
        <time>2015-12-14T21:08:13.000Z</time>
      </trkpt>
      <trkpt lat="48.86342" lon="2.2974">
        <ele>32.799999237061</ele>
        <time>2015-12-14T21:08:18.000Z</time>
      </trkpt>
      <trkpt lat="48.86349" lon="2.29767">
        <ele>33</ele>
        <time>2015-12-14T21:08:23.000Z</time>
      </trkpt>
      <trkpt lat="48.86353" lon="2.29794">
        <ele>33.200000762939</ele>
        <time>2015-12-14T21:08:28.000Z</time>
      </trkpt>
      <trkpt lat="48.86359" lon="2.29821">
        <ele>33.400001525879</ele>
        <time>2015-12-14T21:08:33.000Z</time>
      </trkpt>
      <trkpt lat="48.86366" lon="2.29847">
        <ele>34.200000762939</ele>
        <time>2015-12-14T21:08:38.000Z</time>
      </trkpt>
      <trkpt lat="48.86372" lon="2.29876">
        <ele>34.400001525879</ele>
        <time>2015-12-14T21:08:45.000Z</time>
      </trkpt>
      <trkpt lat="48.86375" lon="2.29908">
        <ele>34</ele>
        <time>2015-12-14T21:08:51.000Z</time>
      </trkpt>
      <trkpt lat="48.86379" lon="2.29941">
        <ele>36.400001525879</ele>
        <time>2015-12-14T21:08:57.000Z</time>
      </trkpt>
      <trkpt lat="48.86383" lon="2.29969">
        <ele>39.200000762939</ele>
        <time>2015-12-14T21:09:02.000Z</time>
      </trkpt>
      <trkpt lat="48.86388" lon="2.29996">
        <ele>42</ele>
        <time>2015-12-14T21:09:07.000Z</time>
      </trkpt>
      <trkpt lat="48.86393" lon="2.30029">
        <ele>37.400001525879</ele>
        <time>2015-12-14T21:09:12.000Z</time>
      </trkpt>
      <trkpt lat="48.86398" lon="2.30056">
        <ele>34.799999237061</ele>
        <time>2015-12-14T21:09:17.000Z</time>
      </trkpt>
      <trkpt lat="48.86402" lon="2.30083">
        <ele>32.599998474121</ele>
        <time>2015-12-14T21:09:23.000Z</time>
      </trkpt>
      <trkpt lat="48.86406" lon="2.30111">
        <ele>28.60000038147</ele>
        <time>2015-12-14T21:09:30.000Z</time>
      </trkpt>
      <trkpt lat="48.86409" lon="2.30139">
        <ele>25.799999237061</ele>
        <time>2015-12-14T21:09:39.000Z</time>
      </trkpt>
      <trkpt lat="48.86411" lon="2.30163">
        <ele>25</ele>
        <time>2015-12-14T21:10:02.000Z</time>
      </trkpt>
      <trkpt lat="48.86413" lon="2.30182">
        <ele>26</ele>
        <time>2015-12-14T21:10:09.000Z</time>
      </trkpt>
      <trkpt lat="48.86417" lon="2.30192">
        <ele>26.60000038147</ele>
        <time>2015-12-14T21:10:13.000Z</time>
      </trkpt>
      <trkpt lat="48.8642" lon="2.3022">
        <ele>28</ele>
        <time>2015-12-14T21:10:19.000Z</time>
      </trkpt>
      <trkpt lat="48.86419" lon="2.30249">
        <ele>29</ele>
        <time>2015-12-14T21:10:24.000Z</time>
      </trkpt>
      <trkpt lat="48.86419" lon="2.30256">
        <ele>29.39999961853</ele>
        <time>2015-12-14T21:10:25.000Z</time>
      </trkpt>
      <trkpt lat="48.8642" lon="2.30287">
        <ele>30.39999961853</ele>
        <time>2015-12-14T21:10:29.000Z</time>
      </trkpt>
      <trkpt lat="48.86421" lon="2.30322">
        <ele>31</ele>
        <time>2015-12-14T21:10:33.000Z</time>
      </trkpt>
      <trkpt lat="48.86423" lon="2.30358">
        <ele>31.39999961853</ele>
        <time>2015-12-14T21:10:37.000Z</time>
      </trkpt>
      <trkpt lat="48.86429" lon="2.30392">
        <ele>32.200000762939</ele>
        <time>2015-12-14T21:10:41.000Z</time>
      </trkpt>
      <trkpt lat="48.86437" lon="2.30425">
        <ele>32.599998474121</ele>
        <time>2015-12-14T21:10:45.000Z</time>
      </trkpt>
      <trkpt lat="48.8644" lon="2.30441">
        <ele>32.400001525879</ele>
        <time>2015-12-14T21:10:47.000Z</time>
      </trkpt>
      <trkpt lat="48.86442" lon="2.30466">
        <ele>32.200000762939</ele>
        <time>2015-12-14T21:10:50.000Z</time>
      </trkpt>
      <trkpt lat="48.86443" lon="2.3049">
        <ele>31.60000038147</ele>
        <time>2015-12-14T21:10:53.000Z</time>
      </trkpt>
      <trkpt lat="48.8644" lon="2.3052">
        <ele>31.39999961853</ele>
        <time>2015-12-14T21:10:57.000Z</time>
      </trkpt>
      <trkpt lat="48.86439" lon="2.30548">
        <ele>31.60000038147</ele>
        <time>2015-12-14T21:11:01.000Z</time>
      </trkpt>
      <trkpt lat="48.86439" lon="2.30556">
        <ele>31.60000038147</ele>
        <time>2015-12-14T21:11:02.000Z</time>
      </trkpt>
      <trkpt lat="48.8644" lon="2.30588">
        <ele>32.200000762939</ele>
        <time>2015-12-14T21:11:06.000Z</time>
      </trkpt>
      <trkpt lat="48.86442" lon="2.30621">
        <ele>33.400001525879</ele>
        <time>2015-12-14T21:11:10.000Z</time>
      </trkpt>
      <trkpt lat="48.86444" lon="2.30646">
        <ele>34.400001525879</ele>
        <time>2015-12-14T21:11:13.000Z</time>
      </trkpt>
      <trkpt lat="48.86449" lon="2.30678">
        <ele>34.799999237061</ele>
        <time>2015-12-14T21:11:17.000Z</time>
      </trkpt>
      <trkpt lat="48.8645" lon="2.30688">
        <ele>34.799999237061</ele>
        <time>2015-12-14T21:11:18.000Z</time>
      </trkpt>
      <trkpt lat="48.86452" lon="2.30718">
        <ele>34.400001525879</ele>
        <time>2015-12-14T21:11:21.000Z</time>
      </trkpt>
      <trkpt lat="48.86453" lon="2.30747">
        <ele>33.799999237061</ele>
        <time>2015-12-14T21:11:24.000Z</time>
      </trkpt>
      <trkpt lat="48.86454" lon="2.30782">
        <ele>33.599998474121</ele>
        <time>2015-12-14T21:11:28.000Z</time>
      </trkpt>
      <trkpt lat="48.86454" lon="2.30807">
        <ele>33.599998474121</ele>
        <time>2015-12-14T21:11:31.000Z</time>
      </trkpt>
      <trkpt lat="48.86453" lon="2.30823">
        <ele>33.400001525879</ele>
        <time>2015-12-14T21:11:33.000Z</time>
      </trkpt>
      <trkpt lat="48.86453" lon="2.30856">
        <ele>33.200000762939</ele>
        <time>2015-12-14T21:11:37.000Z</time>
      </trkpt>
      <trkpt lat="48.86454" lon="2.30864">
        <ele>33</ele>
        <time>2015-12-14T21:11:38.000Z</time>
      </trkpt>
      <trkpt lat="48.86456" lon="2.30897">
        <ele>32.599998474121</ele>
        <time>2015-12-14T21:11:42.000Z</time>
      </trkpt>
      <trkpt lat="48.86457" lon="2.30913">
        <ele>32.400001525879</ele>
        <time>2015-12-14T21:11:44.000Z</time>
      </trkpt>
      <trkpt lat="48.86459" lon="2.30935">
        <ele>32.599998474121</ele>
        <time>2015-12-14T21:11:47.000Z</time>
      </trkpt>
      <trkpt lat="48.86461" lon="2.30964">
        <ele>32.799999237061</ele>
        <time>2015-12-14T21:11:51.000Z</time>
      </trkpt>
      <trkpt lat="48.86463" lon="2.30989">
        <ele>33.200000762939</ele>
        <time>2015-12-14T21:11:55.000Z</time>
      </trkpt>
      <trkpt lat="48.86456" lon="2.31008">
        <ele>31.60000038147</ele>
        <time>2015-12-14T21:11:59.000Z</time>
      </trkpt>
      <trkpt lat="48.86444" lon="2.31028">
        <ele>29.39999961853</ele>
        <time>2015-12-14T21:12:38.000Z</time>
      </trkpt>
      <trkpt lat="48.86446" lon="2.31056">
        <ele>28.60000038147</ele>
        <time>2015-12-14T21:12:48.000Z</time>
      </trkpt>
      <trkpt lat="48.86452" lon="2.31084">
        <ele>28.39999961853</ele>
        <time>2015-12-14T21:12:56.000Z</time>
      </trkpt>
      <trkpt lat="48.86452" lon="2.31114">
        <ele>28.39999961853</ele>
        <time>2015-12-14T21:13:02.000Z</time>
      </trkpt>
      <trkpt lat="48.86452" lon="2.31142">
        <ele>28.39999961853</ele>
        <time>2015-12-14T21:13:07.000Z</time>
      </trkpt>
      <trkpt lat="48.86453" lon="2.31172">
        <ele>29.200000762939</ele>
        <time>2015-12-14T21:13:12.000Z</time>
      </trkpt>
      <trkpt lat="48.86455" lon="2.31202">
        <ele>32</ele>
        <time>2015-12-14T21:13:17.000Z</time>
      </trkpt>
      <trkpt lat="48.86457" lon="2.31232">
        <ele>35</ele>
        <time>2015-12-14T21:13:22.000Z</time>
      </trkpt>
      <trkpt lat="48.8646" lon="2.3126">
        <ele>36.799999237061</ele>
        <time>2015-12-14T21:13:27.000Z</time>
      </trkpt>
      <trkpt lat="48.86462" lon="2.3129">
        <ele>36.400001525879</ele>
        <time>2015-12-14T21:13:32.000Z</time>
      </trkpt>
      <trkpt lat="48.86463" lon="2.31319">
        <ele>35.599998474121</ele>
        <time>2015-12-14T21:13:37.000Z</time>
      </trkpt>
      <trkpt lat="48.86463" lon="2.31332">
        <ele>35</ele>
        <time>2015-12-14T21:13:43.000Z</time>
      </trkpt>
      <trkpt lat="48.86464" lon="2.31353">
        <ele>33.599998474121</ele>
        <time>2015-12-14T21:13:52.000Z</time>
      </trkpt>
      <trkpt lat="48.86464" lon="2.31384">
        <ele>32.799999237061</ele>
        <time>2015-12-14T21:13:59.000Z</time>
      </trkpt>
      <trkpt lat="48.86467" lon="2.31416">
        <ele>32.400001525879</ele>
        <time>2015-12-14T21:14:05.000Z</time>
      </trkpt>
      <trkpt lat="48.86466" lon="2.31445">
        <ele>34.400001525879</ele>
        <time>2015-12-14T21:14:10.000Z</time>
      </trkpt>
      <trkpt lat="48.86467" lon="2.31474">
        <ele>34.200000762939</ele>
        <time>2015-12-14T21:14:14.000Z</time>
      </trkpt>
      <trkpt lat="48.86467" lon="2.31509">
        <ele>32.799999237061</ele>
        <time>2015-12-14T21:14:18.000Z</time>
      </trkpt>
      <trkpt lat="48.86467" lon="2.31537">
        <ele>30.60000038147</ele>
        <time>2015-12-14T21:14:21.000Z</time>
      </trkpt>
      <trkpt lat="48.86469" lon="2.31566">
        <ele>29.799999237061</ele>
        <time>2015-12-14T21:14:24.000Z</time>
      </trkpt>
      <trkpt lat="48.8647" lon="2.31598">
        <ele>28</ele>
        <time>2015-12-14T21:14:27.000Z</time>
      </trkpt>
      <trkpt lat="48.86472" lon="2.31631">
        <ele>27.200000762939</ele>
        <time>2015-12-14T21:14:30.000Z</time>
      </trkpt>
      <trkpt lat="48.86473" lon="2.31663">
        <ele>27.200000762939</ele>
        <time>2015-12-14T21:14:33.000Z</time>
      </trkpt>
      <trkpt lat="48.86474" lon="2.31694">
        <ele>29</ele>
        <time>2015-12-14T21:14:36.000Z</time>
      </trkpt>
      <trkpt lat="48.86475" lon="2.31724">
        <ele>34</ele>
        <time>2015-12-14T21:14:39.000Z</time>
      </trkpt>
      <trkpt lat="48.86476" lon="2.31754">
        <ele>38</ele>
        <time>2015-12-14T21:14:42.000Z</time>
      </trkpt>
      <trkpt lat="48.86477" lon="2.31782">
        <ele>37.799999237061</ele>
        <time>2015-12-14T21:14:45.000Z</time>
      </trkpt>
      <trkpt lat="48.86479" lon="2.318">
        <ele>36.400001525879</ele>
        <time>2015-12-14T21:14:47.000Z</time>
      </trkpt>
      <trkpt lat="48.86475" lon="2.31835">
        <ele>33.200000762939</ele>
        <time>2015-12-14T21:14:51.000Z</time>
      </trkpt>
      <trkpt lat="48.86459" lon="2.31853">
        <ele>32.400001525879</ele>
        <time>2015-12-14T21:14:54.000Z</time>
      </trkpt>
      <trkpt lat="48.86448" lon="2.31868">
        <ele>30.799999237061</ele>
        <time>2015-12-14T21:14:58.000Z</time>
      </trkpt>
      <trkpt lat="48.86447" lon="2.3187">
        <ele>30.60000038147</ele>
        <time>2015-12-14T21:14:59.000Z</time>
      </trkpt>
      <trkpt lat="48.86445" lon="2.31878">
        <ele>29.799999237061</ele>
        <time>2015-12-14T21:15:03.000Z</time>
      </trkpt>
      <trkpt lat="48.86444" lon="2.31871">
        <ele>30.39999961853</ele>
        <time>2015-12-14T21:15:28.000Z</time>
      </trkpt>
      <trkpt lat="48.86449" lon="2.31862">
        <ele>31.200000762939</ele>
        <time>2015-12-14T21:15:32.000Z</time>
      </trkpt>
      <trkpt lat="48.86447" lon="2.31859">
        <ele>31.200000762939</ele>
        <time>2015-12-14T21:15:42.000Z</time>
      </trkpt>
      <trkpt lat="48.86443" lon="2.31861">
        <ele>31</ele>
        <time>2015-12-14T21:15:48.000Z</time>
      </trkpt>
      <trkpt lat="48.86435" lon="2.31887">
        <ele>29.60000038147</ele>
        <time>2015-12-14T21:15:56.000Z</time>
      </trkpt>
      <trkpt lat="48.86426" lon="2.31911">
        <ele>27.39999961853</ele>
        <time>2015-12-14T21:16:01.000Z</time>
      </trkpt>
      <trkpt lat="48.86416" lon="2.31938">
        <ele>27.60000038147</ele>
        <time>2015-12-14T21:16:06.000Z</time>
      </trkpt>
      <trkpt lat="48.86407" lon="2.31965">
        <ele>28.39999961853</ele>
        <time>2015-12-14T21:16:11.000Z</time>
      </trkpt>
      <trkpt lat="48.86397" lon="2.31992">
        <ele>28.799999237061</ele>
        <time>2015-12-14T21:16:16.000Z</time>
      </trkpt>
      <trkpt lat="48.86388" lon="2.32019">
        <ele>29.60000038147</ele>
        <time>2015-12-14T21:16:21.000Z</time>
      </trkpt>
      <trkpt lat="48.8638" lon="2.3205">
        <ele>29.39999961853</ele>
        <time>2015-12-14T21:16:27.000Z</time>
      </trkpt>
      <trkpt lat="48.8637" lon="2.32078">
        <ele>28.799999237061</ele>
        <time>2015-12-14T21:16:32.000Z</time>
      </trkpt>
      <trkpt lat="48.86361" lon="2.32106">
        <ele>28.799999237061</ele>
        <time>2015-12-14T21:16:37.000Z</time>
      </trkpt>
      <trkpt lat="48.86353" lon="2.3213">
        <ele>28.799999237061</ele>
        <time>2015-12-14T21:16:42.000Z</time>
      </trkpt>
      <trkpt lat="48.86343" lon="2.32158">
        <ele>29</ele>
        <time>2015-12-14T21:16:47.000Z</time>
      </trkpt>
      <trkpt lat="48.86334" lon="2.32186">
        <ele>29.60000038147</ele>
        <time>2015-12-14T21:16:52.000Z</time>
      </trkpt>
      <trkpt lat="48.86324" lon="2.32214">
        <ele>30.60000038147</ele>
        <time>2015-12-14T21:16:57.000Z</time>
      </trkpt>
      <trkpt lat="48.86316" lon="2.3224">
        <ele>30.799999237061</ele>
        <time>2015-12-14T21:17:02.000Z</time>
      </trkpt>
      <trkpt lat="48.86307" lon="2.32267">
        <ele>30.39999961853</ele>
        <time>2015-12-14T21:17:07.000Z</time>
      </trkpt>
      <trkpt lat="48.86296" lon="2.32297">
        <ele>29.799999237061</ele>
        <time>2015-12-14T21:17:12.000Z</time>
      </trkpt>
      <trkpt lat="48.86288" lon="2.32324">
        <ele>29.60000038147</ele>
        <time>2015-12-14T21:17:16.000Z</time>
      </trkpt>
      <trkpt lat="48.86282" lon="2.32342">
        <ele>29.200000762939</ele>
        <time>2015-12-14T21:17:19.000Z</time>
      </trkpt>
      <trkpt lat="48.86272" lon="2.32369">
        <ele>28</ele>
        <time>2015-12-14T21:17:24.000Z</time>
      </trkpt>
      <trkpt lat="48.86265" lon="2.32394">
        <ele>27.60000038147</ele>
        <time>2015-12-14T21:17:29.000Z</time>
      </trkpt>
      <trkpt lat="48.86256" lon="2.32423">
        <ele>27.200000762939</ele>
        <time>2015-12-14T21:17:35.000Z</time>
      </trkpt>
      <trkpt lat="48.86254" lon="2.32432">
        <ele>27.39999961853</ele>
        <time>2015-12-14T21:17:37.000Z</time>
      </trkpt>
      <trkpt lat="48.86248" lon="2.32453">
        <ele>28</ele>
        <time>2015-12-14T21:17:44.000Z</time>
      </trkpt>
      <trkpt lat="48.86242" lon="2.32461">
        <ele>28.200000762939</ele>
        <time>2015-12-14T21:19:12.000Z</time>
      </trkpt>
      <trkpt lat="48.86234" lon="2.32485">
        <ele>28.799999237061</ele>
        <time>2015-12-14T21:19:21.000Z</time>
      </trkpt>
      <trkpt lat="48.86231" lon="2.32495">
        <ele>29</ele>
        <time>2015-12-14T21:19:27.000Z</time>
      </trkpt>
      <trkpt lat="48.86219" lon="2.32498">
        <ele>29</ele>
        <time>2015-12-14T21:20:03.000Z</time>
      </trkpt>
      <trkpt lat="48.86202" lon="2.32486">
        <ele>28.799999237061</ele>
        <time>2015-12-14T21:20:32.000Z</time>
      </trkpt>
      <trkpt lat="48.86188" lon="2.32475">
        <ele>28.60000038147</ele>
        <time>2015-12-14T21:20:46.000Z</time>
      </trkpt>
      <trkpt lat="48.86182" lon="2.32461">
        <ele>29.200000762939</ele>
        <time>2015-12-14T21:20:57.000Z</time>
      </trkpt>
      <trkpt lat="48.86167" lon="2.3245">
        <ele>30.799999237061</ele>
        <time>2015-12-14T21:21:08.000Z</time>
      </trkpt>
      <trkpt lat="48.8615" lon="2.32442">
        <ele>33</ele>
        <time>2015-12-14T21:21:19.000Z</time>
      </trkpt>
      <trkpt lat="48.86131" lon="2.32431">
        <ele>35</ele>
        <time>2015-12-14T21:21:28.000Z</time>
      </trkpt>
      <trkpt lat="48.86124" lon="2.32425">
        <ele>36</ele>
        <time>2015-12-14T21:21:33.000Z</time>
      </trkpt>
      <trkpt lat="48.86121" lon="2.32421">
        <ele>36.200000762939</ele>
        <time>2015-12-14T21:21:37.000Z</time>
      </trkpt>
      <trkpt lat="48.86121" lon="2.3242">
        <ele>36.200000762939</ele>
        <time>2015-12-14T21:21:40.000Z</time>
      </trkpt>
      <trkpt lat="48.86117" lon="2.32437">
        <ele>36.400001525879</ele>
        <time>2015-12-14T21:22:38.000Z</time>
      </trkpt>
      <trkpt lat="48.86114" lon="2.32443">
        <ele>36.400001525879</ele>
        <time>2015-12-14T21:22:41.000Z</time>
      </trkpt>
      <trkpt lat="48.86105" lon="2.32442">
        <ele>37</ele>
        <time>2015-12-14T21:23:23.000Z</time>
      </trkpt>
      <trkpt lat="48.86102" lon="2.32446">
        <ele>37.200000762939</ele>
        <time>2015-12-14T21:23:25.000Z</time>
      </trkpt>
      <trkpt lat="48.86093" lon="2.32474">
        <ele>36.799999237061</ele>
        <time>2015-12-14T21:23:32.000Z</time>
      </trkpt>
      <trkpt lat="48.86084" lon="2.32498">
        <ele>36.200000762939</ele>
        <time>2015-12-14T21:23:37.000Z</time>
      </trkpt>
      <trkpt lat="48.86071" lon="2.32517">
        <ele>36.200000762939</ele>
        <time>2015-12-14T21:23:43.000Z</time>
      </trkpt>
      <trkpt lat="48.86056" lon="2.3251">
        <ele>37.400001525879</ele>
        <time>2015-12-14T21:24:00.000Z</time>
      </trkpt>
      <trkpt lat="48.86036" lon="2.32507">
        <ele>38.799999237061</ele>
        <time>2015-12-14T21:24:07.000Z</time>
      </trkpt>
      <trkpt lat="48.86013" lon="2.32505">
        <ele>41</ele>
        <time>2015-12-14T21:24:13.000Z</time>
      </trkpt>
      <trkpt lat="48.85993" lon="2.325">
        <ele>41</ele>
        <time>2015-12-14T21:24:19.000Z</time>
      </trkpt>
      <trkpt lat="48.85991" lon="2.325">
        <ele>41</ele>
        <time>2015-12-14T21:24:20.000Z</time>
      </trkpt>
      <trkpt lat="48.85989" lon="2.3251">
        <ele>41.799999237061</ele>
        <time>2015-12-14T21:24:24.000Z</time>
      </trkpt>
      <trkpt lat="48.8599" lon="2.3254">
        <ele>44.400001525879</ele>
        <time>2015-12-14T21:24:36.000Z</time>
      </trkpt>
      <trkpt lat="48.85978" lon="2.32567">
        <ele>44.599998474121</ele>
        <time>2015-12-14T21:24:43.000Z</time>
      </trkpt>
      <trkpt lat="48.85968" lon="2.32591">
        <ele>44.599998474121</ele>
        <time>2015-12-14T21:24:49.000Z</time>
      </trkpt>
      <trkpt lat="48.85961" lon="2.3262">
        <ele>45.200000762939</ele>
        <time>2015-12-14T21:24:55.000Z</time>
      </trkpt>
      <trkpt lat="48.85952" lon="2.32646">
        <ele>46.400001525879</ele>
        <time>2015-12-14T21:25:01.000Z</time>
      </trkpt>
      <trkpt lat="48.85947" lon="2.32675">
        <ele>46.400001525879</ele>
        <time>2015-12-14T21:25:09.000Z</time>
      </trkpt>
      <trkpt lat="48.85939" lon="2.32686">
        <ele>47.200000762939</ele>
        <time>2015-12-14T21:25:18.000Z</time>
      </trkpt>
      <trkpt lat="48.85938" lon="2.32681">
        <ele>47.200000762939</ele>
        <time>2015-12-14T21:25:22.000Z</time>
      </trkpt>
      <trkpt lat="48.8594" lon="2.32682">
        <ele>47.200000762939</ele>
        <time>2015-12-14T21:25:23.000Z</time>
      </trkpt>
      <trkpt lat="48.8593" lon="2.32678">
        <ele>47</ele>
        <time>2015-12-14T21:25:57.000Z</time>
      </trkpt>
      <trkpt lat="48.85924" lon="2.32712">
        <ele>47.200000762939</ele>
        <time>2015-12-14T21:26:03.000Z</time>
      </trkpt>
      <trkpt lat="48.85916" lon="2.32742">
        <ele>47.799999237061</ele>
        <time>2015-12-14T21:26:08.000Z</time>
      </trkpt>
      <trkpt lat="48.85908" lon="2.32771">
        <ele>47.799999237061</ele>
        <time>2015-12-14T21:26:13.000Z</time>
      </trkpt>
      <trkpt lat="48.85901" lon="2.32797">
        <ele>47.200000762939</ele>
        <time>2015-12-14T21:26:18.000Z</time>
      </trkpt>
      <trkpt lat="48.85888" lon="2.3282">
        <ele>46.200000762939</ele>
        <time>2015-12-14T21:26:23.000Z</time>
      </trkpt>
      <trkpt lat="48.85886" lon="2.32853">
        <ele>45</ele>
        <time>2015-12-14T21:26:28.000Z</time>
      </trkpt>
      <trkpt lat="48.85879" lon="2.32882">
        <ele>45</ele>
        <time>2015-12-14T21:26:34.000Z</time>
      </trkpt>
      <trkpt lat="48.85871" lon="2.32909">
        <ele>45.599998474121</ele>
        <time>2015-12-14T21:26:39.000Z</time>
      </trkpt>
      <trkpt lat="48.85866" lon="2.32942">
        <ele>45.599998474121</ele>
        <time>2015-12-14T21:26:44.000Z</time>
      </trkpt>
      <trkpt lat="48.8586" lon="2.32969">
        <ele>47</ele>
        <time>2015-12-14T21:26:49.000Z</time>
      </trkpt>
      <trkpt lat="48.85853" lon="2.32998">
        <ele>48</ele>
        <time>2015-12-14T21:26:54.000Z</time>
      </trkpt>
      <trkpt lat="48.85838" lon="2.33016">
        <ele>47.599998474121</ele>
        <time>2015-12-14T21:26:58.000Z</time>
      </trkpt>
      <trkpt lat="48.85827" lon="2.33047">
        <ele>47.400001525879</ele>
        <time>2015-12-14T21:27:03.000Z</time>
      </trkpt>
      <trkpt lat="48.85819" lon="2.33071">
        <ele>46.799999237061</ele>
        <time>2015-12-14T21:27:07.000Z</time>
      </trkpt>
      <trkpt lat="48.85812" lon="2.33097">
        <ele>45.599998474121</ele>
        <time>2015-12-14T21:27:11.000Z</time>
      </trkpt>
      <trkpt lat="48.85811" lon="2.33105">
        <ele>45.200000762939</ele>
        <time>2015-12-14T21:27:12.000Z</time>
      </trkpt>
      <trkpt lat="48.85804" lon="2.33137">
        <ele>45</ele>
        <time>2015-12-14T21:27:17.000Z</time>
      </trkpt>
      <trkpt lat="48.85796" lon="2.33165">
        <ele>45.400001525879</ele>
        <time>2015-12-14T21:27:21.000Z</time>
      </trkpt>
      <trkpt lat="48.85789" lon="2.33191">
        <ele>45.400001525879</ele>
        <time>2015-12-14T21:27:25.000Z</time>
      </trkpt>
      <trkpt lat="48.85782" lon="2.33217">
        <ele>46</ele>
        <time>2015-12-14T21:27:30.000Z</time>
      </trkpt>
      <trkpt lat="48.85782" lon="2.33222">
        <ele>46.200000762939</ele>
        <time>2015-12-14T21:27:31.000Z</time>
      </trkpt>
      <trkpt lat="48.85764" lon="2.33227">
        <ele>46.599998474121</ele>
        <time>2015-12-14T21:27:37.000Z</time>
      </trkpt>
      <trkpt lat="48.85742" lon="2.33226">
        <ele>46.400001525879</ele>
        <time>2015-12-14T21:27:42.000Z</time>
      </trkpt>
      <trkpt lat="48.85731" lon="2.3322">
        <ele>46.400001525879</ele>
        <time>2015-12-14T21:27:45.000Z</time>
      </trkpt>
      <trkpt lat="48.85708" lon="2.3321">
        <ele>46.200000762939</ele>
        <time>2015-12-14T21:27:50.000Z</time>
      </trkpt>
      <trkpt lat="48.85687" lon="2.33204">
        <ele>46.200000762939</ele>
        <time>2015-12-14T21:27:53.000Z</time>
      </trkpt>
      <trkpt lat="48.85666" lon="2.33195">
        <ele>47.400001525879</ele>
        <time>2015-12-14T21:27:57.000Z</time>
      </trkpt>
      <trkpt lat="48.85648" lon="2.33186">
        <ele>48.400001525879</ele>
        <time>2015-12-14T21:28:02.000Z</time>
      </trkpt>
      <trkpt lat="48.85642" lon="2.33183">
        <ele>49</ele>
        <time>2015-12-14T21:28:04.000Z</time>
      </trkpt>
      <trkpt lat="48.85637" lon="2.33181">
        <ele>49.200000762939</ele>
        <time>2015-12-14T21:28:07.000Z</time>
      </trkpt>
      <trkpt lat="48.85635" lon="2.3318">
        <ele>49.400001525879</ele>
        <time>2015-12-14T21:28:09.000Z</time>
      </trkpt>
      <trkpt lat="48.85626" lon="2.33186">
        <ele>50</ele>
        <time>2015-12-14T21:28:15.000Z</time>
      </trkpt>
      <trkpt lat="48.85614" lon="2.33209">
        <ele>49.200000762939</ele>
        <time>2015-12-14T21:28:26.000Z</time>
      </trkpt>
      <trkpt lat="48.85601" lon="2.33232">
        <ele>48.799999237061</ele>
        <time>2015-12-14T21:28:32.000Z</time>
      </trkpt>
      <trkpt lat="48.8559" lon="2.33257">
        <ele>48</ele>
        <time>2015-12-14T21:28:38.000Z</time>
      </trkpt>
      <trkpt lat="48.85582" lon="2.33285">
        <ele>47.200000762939</ele>
        <time>2015-12-14T21:28:43.000Z</time>
      </trkpt>
      <trkpt lat="48.85573" lon="2.33311">
        <ele>46.200000762939</ele>
        <time>2015-12-14T21:28:48.000Z</time>
      </trkpt>
      <trkpt lat="48.85563" lon="2.33338">
        <ele>45</ele>
        <time>2015-12-14T21:28:54.000Z</time>
      </trkpt>
      <trkpt lat="48.85556" lon="2.33364">
        <ele>45.400001525879</ele>
        <time>2015-12-14T21:28:59.000Z</time>
      </trkpt>
      <trkpt lat="48.85547" lon="2.33389">
        <ele>45.200000762939</ele>
        <time>2015-12-14T21:29:05.000Z</time>
      </trkpt>
      <trkpt lat="48.85537" lon="2.33413">
        <ele>45.200000762939</ele>
        <time>2015-12-14T21:29:10.000Z</time>
      </trkpt>
      <trkpt lat="48.85529" lon="2.33439">
        <ele>45.200000762939</ele>
        <time>2015-12-14T21:29:15.000Z</time>
      </trkpt>
      <trkpt lat="48.85522" lon="2.33466">
        <ele>45</ele>
        <time>2015-12-14T21:29:22.000Z</time>
      </trkpt>
      <trkpt lat="48.85514" lon="2.33494">
        <ele>45</ele>
        <time>2015-12-14T21:29:29.000Z</time>
      </trkpt>
      <trkpt lat="48.85504" lon="2.3352">
        <ele>45.400001525879</ele>
        <time>2015-12-14T21:29:35.000Z</time>
      </trkpt>
      <trkpt lat="48.85494" lon="2.33549">
        <ele>46</ele>
        <time>2015-12-14T21:29:41.000Z</time>
      </trkpt>
      <trkpt lat="48.85484" lon="2.33572">
        <ele>46</ele>
        <time>2015-12-14T21:29:46.000Z</time>
      </trkpt>
      <trkpt lat="48.85475" lon="2.33596">
        <ele>46.200000762939</ele>
        <time>2015-12-14T21:29:51.000Z</time>
      </trkpt>
      <trkpt lat="48.85469" lon="2.33628">
        <ele>47</ele>
        <time>2015-12-14T21:29:57.000Z</time>
      </trkpt>
      <trkpt lat="48.85465" lon="2.33657">
        <ele>48.200000762939</ele>
        <time>2015-12-14T21:30:03.000Z</time>
      </trkpt>
      <trkpt lat="48.85454" lon="2.33665">
        <ele>48.599998474121</ele>
        <time>2015-12-14T21:30:08.000Z</time>
      </trkpt>
      <trkpt lat="48.85436" lon="2.33673">
        <ele>49</ele>
        <time>2015-12-14T21:30:18.000Z</time>
      </trkpt>
      <trkpt lat="48.85419" lon="2.33682">
        <ele>49.200000762939</ele>
        <time>2015-12-14T21:30:23.000Z</time>
      </trkpt>
      <trkpt lat="48.85403" lon="2.33701">
        <ele>49.400001525879</ele>
        <time>2015-12-14T21:30:30.000Z</time>
      </trkpt>
      <trkpt lat="48.85385" lon="2.33703">
        <ele>49.799999237061</ele>
        <time>2015-12-14T21:30:40.000Z</time>
      </trkpt>
      <trkpt lat="48.85384" lon="2.33731">
        <ele>49.599998474121</ele>
        <time>2015-12-14T21:30:52.000Z</time>
      </trkpt>
      <trkpt lat="48.85376" lon="2.3376">
        <ele>49.599998474121</ele>
        <time>2015-12-14T21:30:56.000Z</time>
      </trkpt>
      <trkpt lat="48.85372" lon="2.3379">
        <ele>49.400001525879</ele>
        <time>2015-12-14T21:31:01.000Z</time>
      </trkpt>
      <trkpt lat="48.85371" lon="2.3382">
        <ele>49.200000762939</ele>
        <time>2015-12-14T21:31:07.000Z</time>
      </trkpt>
      <trkpt lat="48.85366" lon="2.33846">
        <ele>48.400001525879</ele>
        <time>2015-12-14T21:31:16.000Z</time>
      </trkpt>
      <trkpt lat="48.85361" lon="2.33873">
        <ele>47</ele>
        <time>2015-12-14T21:31:23.000Z</time>
      </trkpt>
      <trkpt lat="48.85353" lon="2.33899">
        <ele>45.599998474121</ele>
        <time>2015-12-14T21:31:29.000Z</time>
      </trkpt>
      <trkpt lat="48.85346" lon="2.33926">
        <ele>44.799999237061</ele>
        <time>2015-12-14T21:31:35.000Z</time>
      </trkpt>
      <trkpt lat="48.85341" lon="2.33952">
        <ele>44</ele>
        <time>2015-12-14T21:31:40.000Z</time>
      </trkpt>
      <trkpt lat="48.85339" lon="2.33981">
        <ele>43.400001525879</ele>
        <time>2015-12-14T21:31:45.000Z</time>
      </trkpt>
      <trkpt lat="48.85333" lon="2.34011">
        <ele>43.400001525879</ele>
        <time>2015-12-14T21:31:50.000Z</time>
      </trkpt>
      <trkpt lat="48.85333" lon="2.3404">
        <ele>43.799999237061</ele>
        <time>2015-12-14T21:31:55.000Z</time>
      </trkpt>
      <trkpt lat="48.85338" lon="2.34072">
        <ele>44</ele>
        <time>2015-12-14T21:32:02.000Z</time>
      </trkpt>
      <trkpt lat="48.85339" lon="2.34107">
        <ele>43.599998474121</ele>
        <time>2015-12-14T21:32:08.000Z</time>
      </trkpt>
      <trkpt lat="48.85345" lon="2.34135">
        <ele>43.400001525879</ele>
        <time>2015-12-14T21:32:16.000Z</time>
      </trkpt>
      <trkpt lat="48.85344" lon="2.34164">
        <ele>43.200000762939</ele>
        <time>2015-12-14T21:32:24.000Z</time>
      </trkpt>
      <trkpt lat="48.85342" lon="2.34193">
        <ele>44.799999237061</ele>
        <time>2015-12-14T21:32:29.000Z</time>
      </trkpt>
      <trkpt lat="48.8533" lon="2.34216">
        <ele>46.200000762939</ele>
        <time>2015-12-14T21:32:35.000Z</time>
      </trkpt>
      <trkpt lat="48.8533" lon="2.34244">
        <ele>47.799999237061</ele>
        <time>2015-12-14T21:32:41.000Z</time>
      </trkpt>
      <trkpt lat="48.85332" lon="2.34273">
        <ele>47.799999237061</ele>
        <time>2015-12-14T21:32:45.000Z</time>
      </trkpt>
      <trkpt lat="48.85331" lon="2.34279">
        <ele>47.799999237061</ele>
        <time>2015-12-14T21:32:48.000Z</time>
      </trkpt>
      <trkpt lat="48.85328" lon="2.34299">
        <ele>48</ele>
        <time>2015-12-14T21:32:54.000Z</time>
      </trkpt>
      <trkpt lat="48.85329" lon="2.34301">
        <ele>48</ele>
        <time>2015-12-14T21:32:57.000Z</time>
      </trkpt>
      <trkpt lat="48.85325" lon="2.34324">
        <ele>47.799999237061</ele>
        <time>2015-12-14T21:33:05.000Z</time>
      </trkpt>
      <trkpt lat="48.85328" lon="2.34339">
        <ele>47.400001525879</ele>
        <time>2015-12-14T21:33:13.000Z</time>
      </trkpt>
      <trkpt lat="48.85334" lon="2.34355">
        <ele>46.599998474121</ele>
        <time>2015-12-14T21:33:19.000Z</time>
      </trkpt>
      <trkpt lat="48.85338" lon="2.34362">
        <ele>46.200000762939</ele>
        <time>2015-12-14T21:33:24.000Z</time>
      </trkpt>
      <trkpt lat="48.8534" lon="2.34381">
        <ele>45.599998474121</ele>
        <time>2015-12-14T21:33:30.000Z</time>
      </trkpt>
      <trkpt lat="48.85342" lon="2.34391">
        <ele>45.200000762939</ele>
        <time>2015-12-14T21:33:35.000Z</time>
      </trkpt>
      <trkpt lat="48.85352" lon="2.34415">
        <ele>44.400001525879</ele>
        <time>2015-12-14T21:33:42.000Z</time>
      </trkpt>
      <trkpt lat="48.85367" lon="2.34432">
        <ele>43.599998474121</ele>
        <time>2015-12-14T21:33:51.000Z</time>
      </trkpt>
      <trkpt lat="48.85369" lon="2.34433">
        <ele>43.599998474121</ele>
        <time>2015-12-14T21:33:55.000Z</time>
      </trkpt>
      <trkpt lat="48.85375" lon="2.34439">
        <ele>43.400001525879</ele>
        <time>2015-12-14T21:34:13.000Z</time>
      </trkpt>
      <trkpt lat="48.8539" lon="2.34448">
        <ele>42.799999237061</ele>
        <time>2015-12-14T21:34:19.000Z</time>
      </trkpt>
      <trkpt lat="48.85408" lon="2.34465">
        <ele>42.200000762939</ele>
        <time>2015-12-14T21:34:25.000Z</time>
      </trkpt>
      <trkpt lat="48.85424" lon="2.34482">
        <ele>41.599998474121</ele>
        <time>2015-12-14T21:34:30.000Z</time>
      </trkpt>
      <trkpt lat="48.85441" lon="2.34496">
        <ele>41</ele>
        <time>2015-12-14T21:34:35.000Z</time>
      </trkpt>
      <trkpt lat="48.85456" lon="2.34512">
        <ele>42.200000762939</ele>
        <time>2015-12-14T21:34:40.000Z</time>
      </trkpt>
      <trkpt lat="48.85471" lon="2.34532">
        <ele>43.400001525879</ele>
        <time>2015-12-14T21:34:45.000Z</time>
      </trkpt>
      <trkpt lat="48.85489" lon="2.34546">
        <ele>44.599998474121</ele>
        <time>2015-12-14T21:34:50.000Z</time>
      </trkpt>
      <trkpt lat="48.85508" lon="2.34555">
        <ele>45.599998474121</ele>
        <time>2015-12-14T21:34:55.000Z</time>
      </trkpt>
      <trkpt lat="48.85526" lon="2.34566">
        <ele>46.400001525879</ele>
        <time>2015-12-14T21:34:59.000Z</time>
      </trkpt>
      <trkpt lat="48.85546" lon="2.34581">
        <ele>47.200000762939</ele>
        <time>2015-12-14T21:35:03.000Z</time>
      </trkpt>
      <trkpt lat="48.85565" lon="2.34596">
        <ele>47.599998474121</ele>
        <time>2015-12-14T21:35:07.000Z</time>
      </trkpt>
      <trkpt lat="48.85583" lon="2.34606">
        <ele>47.799999237061</ele>
        <time>2015-12-14T21:35:12.000Z</time>
      </trkpt>
      <trkpt lat="48.85597" lon="2.34608">
        <ele>47.799999237061</ele>
        <time>2015-12-14T21:35:15.000Z</time>
      </trkpt>
      <trkpt lat="48.85618" lon="2.3461">
        <ele>47</ele>
        <time>2015-12-14T21:35:19.000Z</time>
      </trkpt>
      <trkpt lat="48.8564" lon="2.34619">
        <ele>45.200000762939</ele>
        <time>2015-12-14T21:35:23.000Z</time>
      </trkpt>
      <trkpt lat="48.85658" lon="2.34633">
        <ele>43.599998474121</ele>
        <time>2015-12-14T21:35:27.000Z</time>
      </trkpt>
      <trkpt lat="48.85665" lon="2.34641">
        <ele>43</ele>
        <time>2015-12-14T21:35:29.000Z</time>
      </trkpt>
      <trkpt lat="48.85673" lon="2.34649">
        <ele>42.400001525879</ele>
        <time>2015-12-14T21:35:31.000Z</time>
      </trkpt>
      <trkpt lat="48.85689" lon="2.34664">
        <ele>41</ele>
        <time>2015-12-14T21:35:35.000Z</time>
      </trkpt>
      <trkpt lat="48.85708" lon="2.34676">
        <ele>40.599998474121</ele>
        <time>2015-12-14T21:35:39.000Z</time>
      </trkpt>
      <trkpt lat="48.85713" lon="2.3468">
        <ele>40.400001525879</ele>
        <time>2015-12-14T21:35:40.000Z</time>
      </trkpt>
      <trkpt lat="48.85729" lon="2.34685">
        <ele>39.799999237061</ele>
        <time>2015-12-14T21:35:44.000Z</time>
      </trkpt>
      <trkpt lat="48.85741" lon="2.34689">
        <ele>39.400001525879</ele>
        <time>2015-12-14T21:35:47.000Z</time>
      </trkpt>
      <trkpt lat="48.8576" lon="2.34699">
        <ele>38.799999237061</ele>
        <time>2015-12-14T21:35:52.000Z</time>
      </trkpt>
      <trkpt lat="48.8577" lon="2.34702">
        <ele>38.400001525879</ele>
        <time>2015-12-14T21:35:55.000Z</time>
      </trkpt>
      <trkpt lat="48.85779" lon="2.34706">
        <ele>39</ele>
        <time>2015-12-14T21:35:58.000Z</time>
      </trkpt>
      <trkpt lat="48.85793" lon="2.3471">
        <ele>40.400001525879</ele>
        <time>2015-12-14T21:36:02.000Z</time>
      </trkpt>
      <trkpt lat="48.85813" lon="2.34714">
        <ele>42.200000762939</ele>
        <time>2015-12-14T21:36:07.000Z</time>
      </trkpt>
      <trkpt lat="48.85831" lon="2.34719">
        <ele>44</ele>
        <time>2015-12-14T21:36:11.000Z</time>
      </trkpt>
      <trkpt lat="48.85839" lon="2.34721">
        <ele>45.200000762939</ele>
        <time>2015-12-14T21:36:13.000Z</time>
      </trkpt>
      <trkpt lat="48.85848" lon="2.34723">
        <ele>46.400001525879</ele>
        <time>2015-12-14T21:36:17.000Z</time>
      </trkpt>
      <trkpt lat="48.8585" lon="2.34724">
        <ele>46.799999237061</ele>
        <time>2015-12-14T21:36:19.000Z</time>
      </trkpt>
      <trkpt lat="48.8585" lon="2.34724">
        <ele>46.799999237061</ele>
        <time>2015-12-14T21:36:21.000Z</time>
      </trkpt>
      <trkpt lat="48.85868" lon="2.34719">
        <ele>47.200000762939</ele>
        <time>2015-12-14T21:36:56.000Z</time>
      </trkpt>
      <trkpt lat="48.85888" lon="2.34707">
        <ele>46.799999237061</ele>
        <time>2015-12-14T21:37:03.000Z</time>
      </trkpt>
      <trkpt lat="48.85905" lon="2.34694">
        <ele>46.799999237061</ele>
        <time>2015-12-14T21:37:08.000Z</time>
      </trkpt>
      <trkpt lat="48.85923" lon="2.34692">
        <ele>46.400001525879</ele>
        <time>2015-12-14T21:37:14.000Z</time>
      </trkpt>
      <trkpt lat="48.8594" lon="2.34699">
        <ele>45.799999237061</ele>
        <time>2015-12-14T21:37:23.000Z</time>
      </trkpt>
      <trkpt lat="48.85956" lon="2.34708">
        <ele>45.599998474121</ele>
        <time>2015-12-14T21:37:43.000Z</time>
      </trkpt>
      <trkpt lat="48.85965" lon="2.34712">
        <ele>45.599998474121</ele>
        <time>2015-12-14T21:38:07.000Z</time>
      </trkpt>
      <trkpt lat="48.85962" lon="2.34707">
        <ele>45.799999237061</ele>
        <time>2015-12-14T21:38:45.000Z</time>
      </trkpt>
      <trkpt lat="48.85958" lon="2.34711">
        <ele>45.599998474121</ele>
        <time>2015-12-14T21:39:12.000Z</time>
      </trkpt>
    </trkseg>
  </trk>
</gpx>